Darstellungsparameter: Aktuell verwendete Einstellungen:
Skalierung der Graphiken ... ?
xyx+y,   Skalierungsfaktor:      Skalierung: Modus: x, Faktor: 1
Darstellungszeitraum ... ?
Vom - - bis: - -   Zeitraum: 04.12.2009 - 03.03.2010
Min/Max/Avg-Anzeige ... ?
Zeige MMA aktuell
Zeige MMA Monat
Zeige MMA alles
Zeige --A aktuell
Zeige --A Monat
Zeige --A alles
Keine MMA-Anzeige
MMA:
Minimum Maximum Average (ber die Originaldaten)
MMA-Basis: 14.04.2020 - 16.05.2020
Quicknavigation für Darstellung... ?
Tage:      1T, 2T, 3T, 5T -1T -2T -3T -5T +1T +2T +3T +5T
Wochen: 1W, 2W, 3W -1W -2W -3W +1W +2W +3W
Monate: 1M, 3M, 6M -1M -3M -6M +1M +3M +6M
Jahre:    1J, 3J, 5J, 10J -1J -3J -5J -10J +1J +3J +5J +10J
Nutze für die Darstellung ... ?
Originaldaten oder Mittelwerte auf ...
Stundenbasis Tagesbasis Wochenbasis
Monatsbasis Jahresbasis      Datenbasis: Original-Daten
Darstellen als:
Statistik (Auto) Statistik J:M      Darstellung:
Zur Graphik,    zurück zur Übersicht aller Sensoren.
 
Tabellarische Datenbersicht: ?
 
Sensor: Nr:Datum:Temp:Abs-Feuchte:Windchill:Wind:
Aussen-T/F 1 04-12-2009 00:03:03 6.6 C 5.51 g/m*3 6.6 C 0 km/h
2 04-12-2009 00:15:03 6.7 C 5.47 g/m*3 6.7 C 0 km/h
3 04-12-2009 00:27:03 6.8 C 5.43 g/m*3 6.8 C 0 km/h
4 04-12-2009 00:39:03 6.7 C 5.32 g/m*3 6.7 C 0 km/h
5 04-12-2009 00:51:03 6.6 C 5.28 g/m*3 6.6 C 0 km/h
6 04-12-2009 01:03:03 6.4 C 5.22 g/m*3 6.4 C 0 km/h
7 04-12-2009 01:15:03 6.2 C 5.22 g/m*3 6.2 C 0 km/h
8 04-12-2009 01:27:03 6.3 C 5.26 g/m*3 6.3 C 0 km/h
9 04-12-2009 01:39:03 6.2 C 5.07 g/m*3 6.2 C 0 km/h
10 04-12-2009 01:51:03 6.2 C 4.71 g/m*3 6.2 C 0 km/h
11 04-12-2009 02:03:04 6.2 C 4.78 g/m*3 6.2 C 0 km/h
12 04-12-2009 02:15:04 6.2 C 5 g/m*3 6.2 C 0 km/h
13 04-12-2009 02:27:04 5.6 C 5.16 g/m*3 5.6 C 0 km/h
14 04-12-2009 02:39:04 5.6 C 5.23 g/m*3 5.6 C 0 km/h
15 04-12-2009 02:51:04 5.6 C 5.16 g/m*3 5.6 C 0 km/h
16 04-12-2009 03:03:04 5.6 C 5.16 g/m*3 5.6 C 0 km/h
17 04-12-2009 03:15:04 5.5 C 5.2 g/m*3 5.5 C 0 km/h
18 04-12-2009 03:27:04 5.4 C 5.16 g/m*3 5.4 C 0 km/h
19 04-12-2009 03:39:04 5.4 C 5.16 g/m*3 5.4 C 0 km/h
20 04-12-2009 03:51:04 5.4 C 5.16 g/m*3 5.4 C 0 km/h
21 04-12-2009 04:03:04 5.5 C 5.2 g/m*3 5.5 C 0 km/h
22 04-12-2009 04:15:04 5.4 C 4.81 g/m*3 5.4 C 0 km/h
23 04-12-2009 04:27:04 5 C 4.62 g/m*3 5 C 0 km/h
24 04-12-2009 04:39:04 4.8 C 4.63 g/m*3 4.8 C 0 km/h
25 04-12-2009 04:51:04 4.6 C 4.5 g/m*3 4.6 C 0 km/h
Sensor: Nr:Datum:Temp:Abs-Feuchte:Windchill:Wind:
Aussen-T/F 26 04-12-2009 05:03:04 4.3 C 4.48 g/m*3 4.3 C 0 km/h
27 04-12-2009 05:15:04 4 C 4.51 g/m*3 4 C 0 km/h
28 04-12-2009 05:27:04 3.7 C 4.49 g/m*3 3.7 C 0 km/h
29 04-12-2009 05:39:04 3.4 C 4.52 g/m*3 3.4 C 0 km/h
30 04-12-2009 05:51:04 3.1 C 4.49 g/m*3 3.1 C 0 km/h
31 04-12-2009 06:03:04 3.2 C 4.64 g/m*3 3.2 C 0 km/h
32 04-12-2009 06:15:02 3.3 C 4.67 g/m*3 3.3 C 0 km/h
33 04-12-2009 06:27:02 3.1 C 4.61 g/m*3 3.1 C 0 km/h
34 04-12-2009 06:39:02 3.1 C 4.67 g/m*3 3.1 C 0 km/h
35 04-12-2009 06:51:02 3.4 C 4.76 g/m*3 3.4 C 0 km/h
36 04-12-2009 07:03:02 3.9 C 4.74 g/m*3 3.9 C 0 km/h
37 04-12-2009 07:15:03 4.1 C 4.61 g/m*3 4.1 C 0 km/h
38 04-12-2009 07:27:03 4.1 C 4.54 g/m*3 4.1 C 0 km/h
39 04-12-2009 07:39:02 3.4 C 4.46 g/m*3 3.4 C 0 km/h
40 04-12-2009 07:51:01 3.1 C 4.43 g/m*3 3.1 C 0 km/h
41 04-12-2009 08:03:01 2.8 C 4.46 g/m*3 2.8 C 0 km/h
42 04-12-2009 08:15:01 2.7 C 4.49 g/m*3 2.7 C 0 km/h
43 04-12-2009 08:27:01 3 C 4.58 g/m*3 3 C 0 km/h
44 04-12-2009 08:39:00 3.3 C 4.67 g/m*3 3.3 C 0 km/h
45 04-12-2009 08:51:03 3.6 C 4.7 g/m*3 3.6 C 0 km/h
46 04-12-2009 09:03:02 3.8 C 4.64 g/m*3 3.8 C 0 km/h
47 04-12-2009 09:15:02 3.9 C 4.61 g/m*3 3.9 C 0 km/h
48 04-12-2009 09:27:03 4.1 C 4.54 g/m*3 4.1 C 0 km/h
49 04-12-2009 09:39:02 4.2 C 4.45 g/m*3 4.2 C 0 km/h
50 04-12-2009 09:51:02 4.3 C 4.28 g/m*3 4.3 C 0 km/h
Sensor: Nr:Datum:Temp:Abs-Feuchte:Windchill:Wind:
Aussen-T/F 51 04-12-2009 10:03:01 4 C 4.13 g/m*3 4 C 0 km/h
52 04-12-2009 10:15:02 4 C 4.13 g/m*3 4 C 0 km/h
53 04-12-2009 10:27:02 4.1 C 4.16 g/m*3 4.1 C 0 km/h
54 04-12-2009 10:39:02 4.2 C 4.12 g/m*3 4.2 C 0 km/h
55 04-12-2009 10:51:02 4.2 C 4.12 g/m*3 4.2 C 0 km/h
56 04-12-2009 11:03:03 4.1 C 4.1 g/m*3 4.1 C 0 km/h
57 04-12-2009 11:15:02 4.1 C 4.1 g/m*3 4.1 C 0 km/h
58 04-12-2009 11:27:02 4.2 C 4.06 g/m*3 4.2 C 0 km/h
59 04-12-2009 11:39:02 4.1 C 4.1 g/m*3 4.1 C 0 km/h
60 04-12-2009 11:51:01 4.3 C 4.09 g/m*3 4.3 C 0 km/h
61 04-12-2009 12:03:02 4.6 C 4.17 g/m*3 4.6 C 0 km/h
62 04-12-2009 12:15:01 5.1 C 4.1 g/m*3 5.1 C 0 km/h
63 04-12-2009 12:27:01 5.4 C 4.12 g/m*3 5.4 C 0 km/h
64 04-12-2009 12:39:01 5.5 C 4.07 g/m*3 5.5 C 0 km/h
65 04-12-2009 12:51:01 5.7 C 4.2 g/m*3 5.7 C 0 km/h
66 04-12-2009 13:03:02 5.5 C 4 g/m*3 5.5 C 0 km/h
67 04-12-2009 13:15:01 5 C 3.87 g/m*3 5 C 0 km/h
68 04-12-2009 13:27:01 4.9 C 3.92 g/m*3 4.9 C 0 km/h
69 04-12-2009 13:39:02 4.9 C 3.85 g/m*3 4.9 C 0 km/h
70 04-12-2009 13:51:02 4.9 C 3.85 g/m*3 4.9 C 0 km/h
71 04-12-2009 14:03:02 4.8 C 3.82 g/m*3 4.8 C 0 km/h
72 04-12-2009 14:15:02 4.8 C 3.82 g/m*3 4.8 C 0 km/h
73 04-12-2009 14:27:02 4.9 C 3.78 g/m*3 4.9 C 0 km/h
74 04-12-2009 14:39:02 5.1 C 3.69 g/m*3 5.1 C 0 km/h
75 04-12-2009 14:51:02 4.9 C 3.71 g/m*3 4.9 C 0 km/h
Sensor: Nr:Datum:Temp:Abs-Feuchte:Windchill:Wind:
Aussen-T/F 76 04-12-2009 15:03:03 4.8 C 3.62 g/m*3 4.8 C 0 km/h
77 04-12-2009 15:15:02 4.7 C 3.6 g/m*3 4.7 C 0 km/h
78 04-12-2009 15:27:02 4.5 C 3.68 g/m*3 4.5 C 0 km/h
79 04-12-2009 15:39:03 4.7 C 3.66 g/m*3 4.7 C 0 km/h
80 04-12-2009 15:51:02 4.9 C 3.65 g/m*3 4.9 C 0 km/h
81 04-12-2009 16:03:02 4.9 C 3.78 g/m*3 4.9 C 0 km/h
82 04-12-2009 16:15:03 4.9 C 3.71 g/m*3 4.9 C 0 km/h
83 04-12-2009 16:27:03 4.9 C 3.78 g/m*3 4.9 C 0 km/h
84 04-12-2009 16:39:02 4.9 C 3.78 g/m*3 4.9 C 0 km/h
85 04-12-2009 16:51:03 4.8 C 3.82 g/m*3 4.8 C 0 km/h
86 04-12-2009 17:03:02 4.8 C 3.89 g/m*3 4.8 C 0 km/h
87 04-12-2009 17:15:03 4.7 C 3.93 g/m*3 4.7 C 0 km/h
88 04-12-2009 17:27:03 4.7 C 4 g/m*3 4.7 C 0 km/h
89 04-12-2009 17:39:02 4.7 C 4.06 g/m*3 4.7 C 0 km/h
90 04-12-2009 17:51:02 4.8 C 4.09 g/m*3 4.8 C 0 km/h
91 04-12-2009 18:03:02 4.8 C 4.09 g/m*3 4.8 C 0 km/h
92 04-12-2009 18:15:02 4.8 C 4.16 g/m*3 4.8 C 0 km/h
93 04-12-2009 18:27:02 4.7 C 4.2 g/m*3 4.7 C 0 km/h
94 04-12-2009 18:39:02 4.9 C 4.19 g/m*3 4.9 C 0 km/h
95 04-12-2009 18:51:02 5 C 4.08 g/m*3 5 C 0 km/h
96 04-12-2009 19:03:01 5 C 4.08 g/m*3 5 C 0 km/h
97 04-12-2009 19:15:02 5 C 4.08 g/m*3 5 C 0 km/h
98 04-12-2009 19:27:02 5 C 4.14 g/m*3 5 C 0 km/h
99 04-12-2009 19:39:02 5 C 4.14 g/m*3 5 C 0 km/h
100 04-12-2009 19:51:01 5.1 C 4.17 g/m*3 5.1 C 0 km/h
Sensor: Nr:Datum:Temp:Abs-Feuchte:Windchill:Wind:
Aussen-T/F 101 04-12-2009 20:03:02 5.1 C 4.17 g/m*3 5.1 C 0 km/h
102 04-12-2009 20:15:01 5 C 4.21 g/m*3 5 C 0 km/h
103 04-12-2009 20:27:01 5 C 4.21 g/m*3 5 C 0 km/h
104 04-12-2009 20:39:02 5 C 4.21 g/m*3 5 C 0 km/h
105 04-12-2009 20:51:02 5 C 4.28 g/m*3 5 C 0 km/h
106 04-12-2009 21:03:02 5 C 4.28 g/m*3 5 C 0 km/h
107 04-12-2009 21:15:01 5.1 C 4.31 g/m*3 5.1 C 0 km/h
108 04-12-2009 21:27:01 5.1 C 4.31 g/m*3 5.1 C 0 km/h
109 04-12-2009 21:39:02 5.2 C 4.34 g/m*3 5.2 C 0 km/h
110 04-12-2009 21:51:02 5.2 C 4.34 g/m*3 5.2 C 0 km/h
111 04-12-2009 22:04:03 5.2 C 4.34 g/m*3 5.2 C 0 km/h
112 04-12-2009 22:16:03 5.2 C 4.34 g/m*3 5.2 C 0 km/h
113 04-12-2009 22:28:03 5.1 C 4.31 g/m*3 5.1 C 0 km/h
114 04-12-2009 22:40:03 5.1 C 4.17 g/m*3 5.1 C 0 km/h
115 04-12-2009 22:52:03 5.1 C 4.17 g/m*3 5.1 C 0 km/h
116 04-12-2009 23:04:03 4.7 C 4.06 g/m*3 4.7 C 0 km/h
117 04-12-2009 23:16:03 4.1 C 4.03 g/m*3 4.1 C 0 km/h
118 04-12-2009 23:28:03 3.6 C 4.15 g/m*3 3.6 C 0 km/h
119 04-12-2009 23:40:03 3.2 C 4.16 g/m*3 3.2 C 0 km/h
120 04-12-2009 23:52:03 3 C 4.16 g/m*3 3 C 0 km/h
121 05-12-2009 00:04:03 2.7 C 4.2 g/m*3 2.7 C 0 km/h
122 05-12-2009 00:16:03 2.5 C 4.25 g/m*3 2.5 C 0 km/h
123 05-12-2009 00:28:03 2.3 C 4.2 g/m*3 2.3 C 0 km/h
124 05-12-2009 00:40:03 2.7 C 4.37 g/m*3 2.7 C 0 km/h
125 05-12-2009 00:52:03 3.2 C 4.4 g/m*3 3.2 C 0 km/h
Sensor: Nr:Datum:Temp:Abs-Feuchte:Windchill:Wind:
Aussen-T/F 126 05-12-2009 01:04:03 3.3 C 4.43 g/m*3 3.3 C 0 km/h
127 05-12-2009 01:16:03 2.9 C 4.25 g/m*3 2.9 C 0 km/h
128 05-12-2009 01:28:04 2.7 C 4.31 g/m*3 2.7 C 0 km/h
129 05-12-2009 01:40:04 2.8 C 4.4 g/m*3 2.8 C 0 km/h
130 05-12-2009 01:52:04 3.1 C 4.37 g/m*3 3.1 C 0 km/h
131 05-12-2009 02:04:04 2.9 C 4.31 g/m*3 2.9 C 0 km/h
132 05-12-2009 02:16:04 2.8 C 4.28 g/m*3 2.8 C 0 km/h
133 05-12-2009 02:28:04 2.8 C 4.28 g/m*3 2.8 C 0 km/h
134 05-12-2009 02:40:04 2.7 C 4.31 g/m*3 2.7 C 0 km/h
135 05-12-2009 02:52:04 2.7 C 4.31 g/m*3 2.7 C 0 km/h
136 05-12-2009 03:04:04 2.7 C 4.37 g/m*3 2.7 C 0 km/h
137 05-12-2009 03:16:04 3 C 4.34 g/m*3 3 C 0 km/h
138 05-12-2009 03:28:04 2.9 C 4.37 g/m*3 2.9 C 0 km/h
139 05-12-2009 03:40:04 3.2 C 4.4 g/m*3 3.2 C 0 km/h
140 05-12-2009 03:52:04 3.3 C 4.37 g/m*3 3.3 C 0 km/h
141 05-12-2009 04:04:04 3.3 C 4.37 g/m*3 3.3 C 0 km/h
142 05-12-2009 04:16:04 3.4 C 4.4 g/m*3 3.4 C 0 km/h
143 05-12-2009 04:28:04 3.4 C 4.34 g/m*3 3.4 C 0 km/h
144 05-12-2009 04:40:04 3.2 C 4.28 g/m*3 3.2 C 0 km/h
145 05-12-2009 04:52:04 3.2 C 4.34 g/m*3 3.2 C 0 km/h
146 05-12-2009 05:04:04 3.3 C 4.37 g/m*3 3.3 C 0 km/h
147 05-12-2009 05:16:05 3.3 C 4.31 g/m*3 3.3 C 0 km/h
148 05-12-2009 05:28:05 3.4 C 4.34 g/m*3 3.4 C 0 km/h
149 05-12-2009 05:40:05 3.4 C 4.34 g/m*3 3.4 C 0 km/h
150 05-12-2009 05:52:05 3.4 C 4.28 g/m*3 3.4 C 0 km/h
Sensor: Nr:Datum:Temp:Abs-Feuchte:Windchill:Wind:
Aussen-T/F 151 05-12-2009 06:04:05 3.4 C 4.28 g/m*3 3.4 C 0 km/h
152 05-12-2009 06:16:05 3.4 C 4.28 g/m*3 3.4 C 0 km/h
153 05-12-2009 06:28:05 3.5 C 4.24 g/m*3 3.5 C 0 km/h
154 05-12-2009 06:40:05 3.5 C 4.24 g/m*3 3.5 C 0 km/h
155 05-12-2009 06:52:05 3.5 C 4.24 g/m*3 3.5 C 0 km/h
156 05-12-2009 07:04:05 3.5 C 4.18 g/m*3 3.5 C 0 km/h
157 05-12-2009 07:16:05 3.7 C 4.18 g/m*3 3.7 C 0 km/h
158 05-12-2009 07:28:05 3.7 C 4.11 g/m*3 3.7 C 0 km/h
159 05-12-2009 07:40:02 3.8 C 4.08 g/m*3 3.8 C 0 km/h
160 05-12-2009 07:52:01 3.8 C 4.08 g/m*3 3.8 C 0 km/h
161 05-12-2009 08:04:01 3.9 C 4.11 g/m*3 3.9 C 0 km/h
162 05-12-2009 08:16:02 4 C 4.07 g/m*3 4 C 0 km/h
163 05-12-2009 08:28:02 4 C 4.01 g/m*3 4 C 0 km/h
164 05-12-2009 08:40:01 4.1 C 4.03 g/m*3 4.1 C 0 km/h
165 05-12-2009 08:52:03 4.1 C 4.03 g/m*3 4.1 C 0 km/h
166 05-12-2009 09:04:02 4.2 C 4.06 g/m*3 4.2 C 0 km/h
167 05-12-2009 09:16:02 4.2 C 4.12 g/m*3 4.2 C 0 km/h
168 05-12-2009 09:28:02 4.3 C 4.15 g/m*3 4.3 C 0 km/h
169 05-12-2009 09:40:02 4.4 C 4.11 g/m*3 4.4 C 0 km/h
170 05-12-2009 09:52:02 4.6 C 4.17 g/m*3 4.6 C 0 km/h
171 05-12-2009 10:04:02 4.7 C 4.13 g/m*3 4.7 C 0 km/h
172 05-12-2009 10:16:02 4.8 C 4.16 g/m*3 4.8 C 0 km/h
173 05-12-2009 10:28:03 5.1 C 4.17 g/m*3 5.1 C 0 km/h
174 05-12-2009 10:40:02 5.2 C 4.13 g/m*3 5.2 C 0 km/h
175 05-12-2009 10:52:02 5.3 C 4.23 g/m*3 5.3 C 0 km/h
Sensor: Nr:Datum:Temp:Abs-Feuchte:Windchill:Wind:
Aussen-T/F 176 05-12-2009 11:04:01 5.3 C 4.3 g/m*3 5.3 C 0 km/h
177 05-12-2009 11:16:02 5.2 C 4.54 g/m*3 5.2 C 0 km/h
178 05-12-2009 11:28:02 5.2 C 4.68 g/m*3 5.2 C 0 km/h
179 05-12-2009 11:40:02 5.6 C 4.81 g/m*3 5.6 C 0 km/h
180 05-12-2009 11:52:02 5.7 C 4.77 g/m*3 5.7 C 0 km/h
181 05-12-2009 12:04:02 6 C 4.79 g/m*3 6 C 0 km/h
182 05-12-2009 12:16:02 6.3 C 4.89 g/m*3 6.3 C 0 km/h
183 05-12-2009 12:28:02 6.2 C 4.93 g/m*3 6.2 C 0 km/h
184 05-12-2009 12:40:03 6.4 C 4.99 g/m*3 6.4 C 0 km/h
185 05-12-2009 12:52:02 6.4 C 5.07 g/m*3 6.4 C 0 km/h
186 05-12-2009 13:04:02 6.6 C 5.13 g/m*3 6.6 C 0 km/h
187 05-12-2009 13:16:01 6.8 C 5.2 g/m*3 6.8 C 0 km/h
188 05-12-2009 13:28:01 6.8 C 5.28 g/m*3 6.8 C 0 km/h
189 05-12-2009 13:40:02 6.9 C 5.31 g/m*3 6.9 C 0 km/h
190 05-12-2009 13:52:02 7 C 5.27 g/m*3 7 C 0 km/h
191 05-12-2009 14:04:02 7.4 C 5.33 g/m*3 7.4 C 0 km/h
192 05-12-2009 14:16:02 7.2 C 5.34 g/m*3 7.2 C 0 km/h
193 05-12-2009 14:28:02 7.1 C 5.46 g/m*3 7.1 C 0 km/h
194 05-12-2009 14:40:02 6.9 C 5.54 g/m*3 6.9 C 0 km/h
195 05-12-2009 14:52:02 6.9 C 5.62 g/m*3 6.9 C 0 km/h
196 05-12-2009 15:04:02 6.8 C 5.66 g/m*3 6.8 C 0 km/h
197 05-12-2009 15:16:02 6.6 C 5.66 g/m*3 6.6 C 0 km/h
198 05-12-2009 15:28:02 6.3 C 5.77 g/m*3 6.3 C 0 km/h
199 05-12-2009 15:40:02 6.3 C 5.85 g/m*3 6.3 C 0 km/h
200 05-12-2009 15:52:02 6.2 C 5.88 g/m*3 6.2 C 0 km/h
Sensor: Nr:Datum:Temp:Abs-Feuchte:Windchill:Wind:
Aussen-T/F 201 05-12-2009 16:04:02 6.2 C 5.96 g/m*3 6.2 C 0 km/h
202 05-12-2009 16:16:03 6.1 C 5.99 g/m*3 6.1 C 0 km/h
203 05-12-2009 16:28:03 6.1 C 6.06 g/m*3 6.1 C 0 km/h
204 05-12-2009 16:40:02 6.1 C 6.14 g/m*3 6.1 C 0 km/h
205 05-12-2009 16:52:02 6.2 C 6.18 g/m*3 6.2 C 0 km/h
206 05-12-2009 17:04:02 6.2 C 6.25 g/m*3 6.2 C 0 km/h
207 05-12-2009 17:16:03 6.4 C 6.33 g/m*3 6.4 C 0 km/h
208 05-12-2009 17:28:03 6.5 C 6.37 g/m*3 6.5 C 0 km/h
209 05-12-2009 17:40:02 6.7 C 6.38 g/m*3 6.7 C 0 km/h
210 05-12-2009 17:52:03 6.9 C 6.39 g/m*3 6.9 C 0 km/h
211 05-12-2009 18:04:02 7.1 C 6.24 g/m*3 7.1 C 0 km/h
212 05-12-2009 18:16:02 7.3 C 6.24 g/m*3 7.3 C 0 km/h
213 05-12-2009 18:28:02 7.3 C 6.24 g/m*3 7.3 C 0 km/h
214 05-12-2009 18:40:02 7.3 C 6.24 g/m*3 7.3 C 0 km/h
215 05-12-2009 18:52:02 7.3 C 6.32 g/m*3 7.3 C 0 km/h
216 05-12-2009 19:04:02 7.4 C 6.36 g/m*3 7.4 C 0 km/h
217 05-12-2009 19:16:02 7.3 C 6.32 g/m*3 7.3 C 0 km/h
218 05-12-2009 19:28:02 7.4 C 6.36 g/m*3 7.4 C 0 km/h
219 05-12-2009 19:40:02 7.4 C 6.36 g/m*3 7.4 C 0 km/h
220 05-12-2009 19:52:02 7.5 C 6.48 g/m*3 7.5 C 0 km/h
221 05-12-2009 20:04:01 7.6 C 6.61 g/m*3 7.6 C 0 km/h
222 05-12-2009 20:16:02 7.6 C 6.53 g/m*3 7.6 C 0 km/h
223 05-12-2009 20:28:02 7.6 C 6.61 g/m*3 7.6 C 0 km/h
224 05-12-2009 20:40:02 7.8 C 6.69 g/m*3 7.8 C 0 km/h
225 05-12-2009 20:52:02 7.8 C 6.69 g/m*3 7.8 C 0 km/h
Sensor: Nr:Datum:Temp:Abs-Feuchte:Windchill:Wind:
Aussen-T/F 226 05-12-2009 21:04:02 7.9 C 6.74 g/m*3 7.9 C 0 km/h
227 05-12-2009 21:16:02 7.9 C 6.74 g/m*3 7.9 C 0 km/h
228 05-12-2009 21:28:02 7.8 C 6.69 g/m*3 7.8 C 0 km/h
229 05-12-2009 21:40:03 7.9 C 6.82 g/m*3 7.9 C 0 km/h
230 05-12-2009 21:53:02 7.8 C 6.77 g/m*3 7.8 C 0 km/h
231 05-12-2009 22:05:02 7.8 C 6.77 g/m*3 7.8 C 0 km/h
232 05-12-2009 22:17:02 7.9 C 6.82 g/m*3 7.9 C 0 km/h
233 05-12-2009 22:29:02 7.9 C 6.82 g/m*3 7.9 C 0 km/h
234 05-12-2009 22:41:02 7.8 C 6.77 g/m*3 7.8 C 0 km/h
235 05-12-2009 22:53:02 7.9 C 6.82 g/m*3 7.9 C 0 km/h
236 05-12-2009 23:05:02 8 C 6.86 g/m*3 8 C 0 km/h
237 05-12-2009 23:17:03 8 C 6.86 g/m*3 8 C 0 km/h
238 05-12-2009 23:29:03 8.1 C 6.82 g/m*3 8.1 C 0 km/h
239 05-12-2009 23:41:03 8.2 C 6.95 g/m*3 8.2 C 0 km/h
240 05-12-2009 23:53:03 8.4 C 6.96 g/m*3 8.4 C 0 km/h
241 06-12-2009 00:05:03 8.6 C 7.05 g/m*3 8.6 C 0 km/h
242 06-12-2009 00:17:03 8.9 C 7.1 g/m*3 8.9 C 0 km/h
243 06-12-2009 00:29:03 9 C 6.96 g/m*3 9 C 0 km/h
244 06-12-2009 00:41:03 9.1 C 7.01 g/m*3 9.1 C 0 km/h
245 06-12-2009 00:53:03 9.2 C 7.05 g/m*3 9.2 C 0 km/h
246 06-12-2009 01:05:03 9.3 C 7.1 g/m*3 9.3 C 0 km/h
247 06-12-2009 01:17:03 9.4 C 7.15 g/m*3 9.4 C 0 km/h
248 06-12-2009 01:29:03 9.3 C 7.1 g/m*3 9.3 C 0 km/h
249 06-12-2009 01:41:03 9.5 C 7.19 g/m*3 9.5 C 0 km/h
250 06-12-2009 01:53:03 9.4 C 7.15 g/m*3 9.4 C 0 km/h
Sensor: Nr:Datum:Temp:Abs-Feuchte:Windchill:Wind:
Aussen-T/F 251 06-12-2009 02:05:03 9.5 C 7.19 g/m*3 9.5 C 0 km/h
252 06-12-2009 02:17:03 9.6 C 7.15 g/m*3 9.6 C 0 km/h
253 06-12-2009 02:29:03 9.6 C 7.15 g/m*3 9.6 C 0 km/h
254 06-12-2009 02:41:03 9.7 C 7.19 g/m*3 9.7 C 0 km/h
255 06-12-2009 02:53:03 9.8 C 7.14 g/m*3 9.8 C 0 km/h
256 06-12-2009 03:05:04 9.7 C 7.1 g/m*3 9.7 C 0 km/h
257 06-12-2009 03:17:04 10 C 7.05 g/m*3 10 C 0 km/h
258 06-12-2009 03:29:04 10 C 7.05 g/m*3 10 C 0 km/h
259 06-12-2009 03:41:04 9.9 C 7.19 g/m*3 9.9 C 0 km/h
260 06-12-2009 03:53:04 9.9 C 7.19 g/m*3 9.9 C 0 km/h
261 06-12-2009 04:05:04 10 C 7.14 g/m*3 10 C 0 km/h
262 06-12-2009 04:17:04 10 C 7.05 g/m*3 10 C 0 km/h
263 06-12-2009 04:29:04 10 C 7.14 g/m*3 10 C 0 km/h
264 06-12-2009 04:41:04 9.9 C 7.19 g/m*3 9.9 C 0 km/h
265 06-12-2009 04:53:04 9.7 C 7.19 g/m*3 9.7 C 0 km/h
266 06-12-2009 05:05:04 9.9 C 7.28 g/m*3 9.9 C 0 km/h
267 06-12-2009 05:17:04 10.2 C 7.23 g/m*3 10.2 C 0 km/h
268 06-12-2009 05:29:04 9.8 C 7.33 g/m*3 9.8 C 0 km/h
269 06-12-2009 05:41:04 9.4 C 7.33 g/m*3 9.4 C 0 km/h
270 06-12-2009 05:53:04 9.3 C 7.37 g/m*3 9.3 C 0 km/h
271 06-12-2009 06:05:04 9.4 C 7.42 g/m*3 9.4 C 0 km/h
272 06-12-2009 06:17:04 9.6 C 7.42 g/m*3 9.6 C 0 km/h
273 06-12-2009 06:29:04 9.2 C 7.41 g/m*3 9.2 C 0 km/h
274 06-12-2009 06:41:04 8.8 C 7.49 g/m*3 8.8 C 0 km/h
275 06-12-2009 06:53:05 8.9 C 7.71 g/m*3 8.9 C 0 km/h
Sensor: Nr:Datum:Temp:Abs-Feuchte:Windchill:Wind:
Aussen-T/F 276 06-12-2009 07:05:05 8.8 C 7.66 g/m*3 8.8 C 0 km/h
277 06-12-2009 07:17:05 8.6 C 7.56 g/m*3 8.6 C 0 km/h
278 06-12-2009 07:29:05 8.4 C 7.55 g/m*3 8.4 C 0 km/h
279 06-12-2009 07:41:02 8.4 C 7.55 g/m*3 8.4 C 0 km/h
280 06-12-2009 07:53:02 8.3 C 7.5 g/m*3 8.3 C 0 km/h
281 06-12-2009 08:05:03 8.2 C 7.54 g/m*3 8.2 C 0 km/h
282 06-12-2009 08:17:02 8.2 C 7.54 g/m*3 8.2 C 0 km/h
283 06-12-2009 08:29:02 8.2 C 7.62 g/m*3 8.2 C 0 km/h
284 06-12-2009 08:41:03 8.2 C 7.62 g/m*3 8.2 C 0 km/h
285 06-12-2009 08:53:02 8.2 C 7.62 g/m*3 8.2 C 0 km/h
286 06-12-2009 09:05:01 8.2 C 7.62 g/m*3 8.2 C 0 km/h
287 06-12-2009 09:17:02 8.4 C 7.72 g/m*3 8.4 C 0 km/h
288 06-12-2009 09:29:02 8.4 C 7.8 g/m*3 8.4 C 0 km/h
289 06-12-2009 09:41:02 8.6 C 7.91 g/m*3 8.6 C 0 km/h
290 06-12-2009 09:53:02 8.7 C 7.87 g/m*3 8.7 C 0 km/h
291 06-12-2009 10:05:02 8.8 C 7.83 g/m*3 8.8 C 0 km/h
292 06-12-2009 10:17:02 8.9 C 7.8 g/m*3 8.9 C 0 km/h
293 06-12-2009 10:29:02 9.2 C 7.86 g/m*3 9.2 C 0 km/h
294 06-12-2009 10:41:02 9.3 C 7.91 g/m*3 9.3 C 0 km/h
295 06-12-2009 10:53:02 9.6 C 8.06 g/m*3 9.6 C 0 km/h
296 06-12-2009 11:05:02 9.7 C 8.11 g/m*3 9.7 C 0 km/h
297 06-12-2009 11:17:02 9.8 C 8.07 g/m*3 9.8 C 0 km/h
298 06-12-2009 11:29:03 9.7 C 7.93 g/m*3 9.7 C 0 km/h
299 06-12-2009 11:41:02 9.8 C 7.89 g/m*3 9.8 C 0 km/h
300 06-12-2009 11:53:02 9.8 C 7.61 g/m*3 9.8 C 0 km/h
Sensor: Nr:Datum:Temp:Abs-Feuchte:Windchill:Wind:
Aussen-T/F 301 06-12-2009 12:05:02 10 C 7.52 g/m*3 10 C 0 km/h
302 06-12-2009 12:17:02 10.2 C 7.61 g/m*3 10.2 C 0 km/h
303 06-12-2009 12:29:03 10.2 C 7.71 g/m*3 10.2 C 0 km/h
304 06-12-2009 12:41:02 10.2 C 7.71 g/m*3 10.2 C 0 km/h
305 06-12-2009 12:53:02 10.2 C 7.8 g/m*3 10.2 C 0 km/h
306 06-12-2009 13:05:02 10.1 C 7.75 g/m*3 10.1 C 0 km/h
307 06-12-2009 13:17:01 10.3 C 7.57 g/m*3 10.3 C 0 km/h
308 06-12-2009 13:29:01 10.7 C 7.27 g/m*3 10.7 C 0 km/h
309 06-12-2009 13:41:02 10.9 C 6.96 g/m*3 10.9 C 0 km/h
310 06-12-2009 13:53:02 11.1 C 7.05 g/m*3 11.1 C 0 km/h
311 06-12-2009 14:05:02 11.6 C 7.17 g/m*3 11.6 C 0 km/h
312 06-12-2009 14:17:02 11.9 C 7.1 g/m*3 11.9 C 0 km/h
313 06-12-2009 14:29:02 12 C 6.93 g/m*3 12 C 0 km/h
314 06-12-2009 14:41:02 11.8 C 7.05 g/m*3 11.8 C 0 km/h
315 06-12-2009 14:53:01 11.6 C 7.17 g/m*3 11.6 C 0 km/h
316 06-12-2009 15:05:01 11.6 C 7.28 g/m*3 11.6 C 0 km/h
317 06-12-2009 15:17:02 11.4 C 7.29 g/m*3 11.4 C 0 km/h
318 06-12-2009 15:29:02 11.2 C 7.5 g/m*3 11.2 C 0 km/h
319 06-12-2009 15:41:01 11.1 C 7.45 g/m*3 11.1 C 0 km/h
320 06-12-2009 15:53:02 11.1 C 7.45 g/m*3 11.1 C 0 km/h
321 06-12-2009 16:05:02 11.2 C 7.4 g/m*3 11.2 C 0 km/h
322 06-12-2009 16:17:02 11.1 C 7.35 g/m*3 11.1 C 0 km/h
323 06-12-2009 16:29:02 11.1 C 7.35 g/m*3 11.1 C 0 km/h
324 06-12-2009 16:41:02 11.1 C 7.35 g/m*3 11.1 C 0 km/h
325 06-12-2009 16:53:01 11 C 7.41 g/m*3 11 C 0 km/h
Sensor: Nr:Datum:Temp:Abs-Feuchte:Windchill:Wind:
Aussen-T/F 326 06-12-2009 17:05:02 11 C 7.41 g/m*3 11 C 0 km/h
327 06-12-2009 17:17:02 10.9 C 7.46 g/m*3 10.9 C 0 km/h
328 06-12-2009 17:29:02 10.9 C 7.66 g/m*3 10.9 C 0 km/h
329 06-12-2009 17:41:01 11 C 7.71 g/m*3 11 C 0 km/h
330 06-12-2009 17:53:02 10.8 C 7.71 g/m*3 10.8 C 0 km/h
331 06-12-2009 18:05:07 11 C 7.71 g/m*3 11 C 0 km/h
332 06-12-2009 18:17:05 11 C 7.71 g/m*3 11 C 0 km/h
333 06-12-2009 18:29:05 11 C 7.71 g/m*3 11 C 0 km/h
334 06-12-2009 18:41:05 11 C 7.71 g/m*3 11 C 0 km/h
335 06-12-2009 18:53:05 11 C 7.71 g/m*3 11 C 0 km/h
336 06-12-2009 19:05:05 11.2 C 7.7 g/m*3 11.2 C 0 km/h
337 06-12-2009 19:17:06 11.4 C 7.8 g/m*3 11.4 C 0 km/h
338 06-12-2009 19:29:06 11.4 C 7.8 g/m*3 11.4 C 0 km/h
339 06-12-2009 19:41:06 11.4 C 7.9 g/m*3 11.4 C 0 km/h
340 06-12-2009 19:53:02 11 C 8.01 g/m*3 11 C 0 km/h
341 06-12-2009 20:05:02 11 C 8.31 g/m*3 11 C 0 km/h
342 06-12-2009 20:17:02 10.7 C 8.25 g/m*3 10.7 C 0 km/h
343 06-12-2009 20:29:02 10.6 C 8.2 g/m*3 10.6 C 0 km/h
344 06-12-2009 20:41:02 10.5 C 8.24 g/m*3 10.5 C 0 km/h
345 06-12-2009 20:53:02 10.4 C 8.19 g/m*3 10.4 C 0 km/h
346 06-12-2009 21:05:02 10.4 C 8.19 g/m*3 10.4 C 0 km/h
347 06-12-2009 21:17:02 10 C 7.99 g/m*3 10 C 0 km/h
348 06-12-2009 21:29:02 9.6 C 7.88 g/m*3 9.6 C 0 km/h
349 06-12-2009 21:41:02 9.3 C 7.82 g/m*3 9.3 C 0 km/h
350 06-12-2009 21:54:02 9.2 C 7.77 g/m*3 9.2 C 0 km/h
Sensor: Nr:Datum:Temp:Abs-Feuchte:Windchill:Wind:
Aussen-T/F 351 06-12-2009 22:06:02 9 C 7.76 g/m*3 9 C 0 km/h
352 06-12-2009 22:18:02 8.9 C 7.8 g/m*3 8.9 C 0 km/h
353 06-12-2009 22:30:03 8.9 C 7.88 g/m*3 8.9 C 0 km/h
354 06-12-2009 22:42:03 8.9 C 7.88 g/m*3 8.9 C 0 km/h
355 06-12-2009 22:54:03 8.6 C 7.65 g/m*3 8.6 C 0 km/h
356 06-12-2009 23:06:03 8.4 C 7.47 g/m*3 8.4 C 0 km/h
357 06-12-2009 23:18:03 8 C 7.19 g/m*3 8 C 0 km/h
358 06-12-2009 23:30:03 7.7 C 7.14 g/m*3 7.7 C 0 km/h
359 06-12-2009 23:42:03 7.6 C 6.93 g/m*3 7.6 C 0 km/h
360 06-12-2009 23:54:03 7.3 C 6.72 g/m*3 7.3 C 0 km/h
361 07-12-2009 00:06:03 6.9 C 6.62 g/m*3 6.9 C 0 km/h
362 07-12-2009 00:18:03 6.7 C 6.46 g/m*3 6.7 C 0 km/h
363 07-12-2009 00:30:03 7 C 6.43 g/m*3 7 C 0 km/h
364 07-12-2009 00:42:03 6.7 C 6.31 g/m*3 6.7 C 0 km/h
365 07-12-2009 00:54:03 6.6 C 6.34 g/m*3 6.6 C 0 km/h
366 07-12-2009 01:06:03 6.6 C 6.42 g/m*3 6.6 C 0 km/h
367 07-12-2009 01:18:03 6.8 C 6.5 g/m*3 6.8 C 0 km/h
368 07-12-2009 01:30:03 6.6 C 6.42 g/m*3 6.6 C 0 km/h
369 07-12-2009 01:42:03 6.5 C 6.45 g/m*3 6.5 C 0 km/h
370 07-12-2009 01:54:03 5.9 C 6.27 g/m*3 5.9 C 0 km/h
371 07-12-2009 02:06:03 5.4 C 6.07 g/m*3 5.4 C 0 km/h
372 07-12-2009 02:18:03 4.9 C 5.94 g/m*3 4.9 C 0 km/h
373 07-12-2009 02:30:04 4.7 C 5.93 g/m*3 4.7 C 0 km/h
374 07-12-2009 02:42:04 4.7 C 5.93 g/m*3 4.7 C 0 km/h
375 07-12-2009 02:54:04 4.5 C 5.85 g/m*3 4.5 C 0 km/h
Sensor: Nr:Datum:Temp:Abs-Feuchte:Windchill:Wind:
Aussen-T/F 376 07-12-2009 03:06:04 4.3 C 5.84 g/m*3 4.3 C 0 km/h
377 07-12-2009 03:18:04 4.3 C 5.84 g/m*3 4.3 C 0 km/h
378 07-12-2009 03:30:04 4.4 C 5.94 g/m*3 4.4 C 0 km/h
379 07-12-2009 03:42:04 4 C 5.79 g/m*3 4 C 0 km/h
380 07-12-2009 03:54:04 3.9 C 5.81 g/m*3 3.9 C 0 km/h
381 07-12-2009 04:06:04 3.7 C 5.73 g/m*3 3.7 C 0 km/h
382 07-12-2009 04:18:04 3.6 C 5.69 g/m*3 3.6 C 0 km/h
383 07-12-2009 04:30:04 3.5 C 5.66 g/m*3 3.5 C 0 km/h
384 07-12-2009 04:42:04 3.3 C 5.58 g/m*3 3.3 C 0 km/h
385 07-12-2009 04:54:04 3 C 5.47 g/m*3 3 C 0 km/h
386 07-12-2009 05:06:04 3 C 5.53 g/m*3 3 C 0 km/h
387 07-12-2009 05:18:04 2.9 C 5.55 g/m*3 2.9 C 0 km/h
388 07-12-2009 05:30:04 2.6 C 5.44 g/m*3 2.6 C 0 km/h
389 07-12-2009 05:42:04 2.3 C 5.33 g/m*3 2.3 C 0 km/h
390 07-12-2009 05:54:04 2.2 C 5.29 g/m*3 2.2 C 0 km/h
391 07-12-2009 06:06:04 2.3 C 5.33 g/m*3 2.3 C 0 km/h
392 07-12-2009 06:18:04 2.4 C 5.37 g/m*3 2.4 C 0 km/h
393 07-12-2009 06:30:04 2.3 C 5.33 g/m*3 2.3 C 0 km/h
394 07-12-2009 06:42:05 2.5 C 5.46 g/m*3 2.5 C 0 km/h
395 07-12-2009 06:54:05 3 C 5.65 g/m*3 3 C 0 km/h
396 07-12-2009 07:06:02 3 C 5.65 g/m*3 3 C 0 km/h
397 07-12-2009 07:18:02 3 C 5.65 g/m*3 3 C 0 km/h
398 07-12-2009 07:30:02 2.8 C 5.57 g/m*3 2.8 C 0 km/h
399 07-12-2009 07:42:02 2.9 C 5.61 g/m*3 2.9 C 0 km/h
400 07-12-2009 07:54:02 2.7 C 5.54 g/m*3 2.7 C 0 km/h
Sensor: Nr:Datum:Temp:Abs-Feuchte:Windchill:Wind:
Aussen-T/F 401 07-12-2009 08:06:02 2.8 C 5.57 g/m*3 2.8 C 0 km/h
402 07-12-2009 08:18:02 3.3 C 5.76 g/m*3 3.3 C 0 km/h
403 07-12-2009 08:30:02 3.3 C 5.76 g/m*3 3.3 C 0 km/h
404 07-12-2009 08:42:02 3.3 C 5.76 g/m*3 3.3 C 0 km/h
405 07-12-2009 08:54:01 2.9 C 5.61 g/m*3 2.9 C 0 km/h
406 07-12-2009 09:06:02 2.9 C 5.61 g/m*3 2.9 C 0 km/h
407 07-12-2009 09:18:02 3 C 5.65 g/m*3 3 C 0 km/h
408 07-12-2009 09:30:02 3.4 C 5.8 g/m*3 3.4 C 0 km/h
409 07-12-2009 09:42:01 4.5 C 6.24 g/m*3 4.5 C 0 km/h
410 07-12-2009 09:54:01 5.2 C 6.54 g/m*3 5.2 C 0 km/h
411 07-12-2009 10:06:02 5.4 C 6.63 g/m*3 5.4 C 0 km/h
412 07-12-2009 10:18:01 5.5 C 6.6 g/m*3 5.5 C 0 km/h
413 07-12-2009 10:30:01 5.8 C 6.52 g/m*3 5.8 C 0 km/h
414 07-12-2009 10:42:01 5.9 C 6.42 g/m*3 5.9 C 0 km/h
415 07-12-2009 10:54:02 6.3 C 6.29 g/m*3 6.3 C 0 km/h
416 07-12-2009 11:06:02 6.5 C 6.3 g/m*3 6.5 C 0 km/h
417 07-12-2009 11:18:03 6.7 C 6.23 g/m*3 6.7 C 0 km/h
418 07-12-2009 11:30:03 6.8 C 6.27 g/m*3 6.8 C 0 km/h
419 07-12-2009 11:42:02 7 C 6.28 g/m*3 7 C 0 km/h
420 07-12-2009 11:54:02 7.1 C 6.01 g/m*3 7.1 C 0 km/h
421 07-12-2009 12:06:01 7.1 C 6.01 g/m*3 7.1 C 0 km/h
422 07-12-2009 12:18:02 7.4 C 5.88 g/m*3 7.4 C 0 km/h
423 07-12-2009 12:30:03 7.5 C 5.84 g/m*3 7.5 C 0 km/h
424 07-12-2009 12:42:01 7.7 C 6.16 g/m*3 7.7 C 0 km/h
425 07-12-2009 12:54:02 7.9 C 6.16 g/m*3 7.9 C 0 km/h
Sensor: Nr:Datum:Temp:Abs-Feuchte:Windchill:Wind:
Aussen-T/F 426 07-12-2009 13:06:02 7.7 C 6 g/m*3 7.7 C 0 km/h
427 07-12-2009 13:18:02 7.8 C 5.96 g/m*3 7.8 C 0 km/h
428 07-12-2009 13:30:02 7.9 C 5.67 g/m*3 7.9 C 0 km/h
429 07-12-2009 13:42:03 7.7 C 5.59 g/m*3 7.7 C 0 km/h
430 07-12-2009 13:54:02 7.5 C 5.68 g/m*3 7.5 C 0 km/h
431 07-12-2009 14:06:02 7.8 C 5.71 g/m*3 7.8 C 0 km/h
432 07-12-2009 14:18:02 8 C 5.62 g/m*3 8 C 0 km/h
433 07-12-2009 14:30:02 8 C 5.21 g/m*3 8 C 0 km/h
434 07-12-2009 14:42:02 8 C 5.13 g/m*3 8 C 0 km/h
435 07-12-2009 14:54:01 7.6 C 5.24 g/m*3 7.6 C 0 km/h
436 07-12-2009 15:06:02 7.4 C 5.25 g/m*3 7.4 C 0 km/h
437 07-12-2009 15:18:01 7.2 C 5.26 g/m*3 7.2 C 0 km/h
438 07-12-2009 15:30:01 7.1 C 5.23 g/m*3 7.1 C 0 km/h
439 07-12-2009 15:42:02 7.1 C 5.3 g/m*3 7.1 C 0 km/h
440 07-12-2009 15:54:02 7.2 C 5.26 g/m*3 7.2 C 0 km/h
441 07-12-2009 16:06:02 6.9 C 5.31 g/m*3 6.9 C 0 km/h
442 07-12-2009 16:18:01 6.7 C 5.32 g/m*3 6.7 C 0 km/h
443 07-12-2009 16:30:01 6.6 C 5.36 g/m*3 6.6 C 0 km/h
444 07-12-2009 16:42:02 6.4 C 5.36 g/m*3 6.4 C 0 km/h
445 07-12-2009 16:54:02 6.3 C 5.55 g/m*3 6.3 C 0 km/h
446 07-12-2009 17:06:02 6.2 C 5.66 g/m*3 6.2 C 0 km/h
447 07-12-2009 17:18:02 6.3 C 5.77 g/m*3 6.3 C 0 km/h
448 07-12-2009 17:30:02 6.3 C 5.85 g/m*3 6.3 C 0 km/h
449 07-12-2009 17:42:02 6.4 C 5.96 g/m*3 6.4 C 0 km/h
450 07-12-2009 17:54:01 6.5 C 6 g/m*3 6.5 C 0 km/h
Sensor: Nr:Datum:Temp:Abs-Feuchte:Windchill:Wind:
Aussen-T/F 451 07-12-2009 18:06:02 6.5 C 6 g/m*3 6.5 C 0 km/h
452 07-12-2009 18:18:02 6.6 C 6.04 g/m*3 6.6 C 0 km/h
453 07-12-2009 18:30:02 6.7 C 6.15 g/m*3 6.7 C 0 km/h
454 07-12-2009 18:42:02 6.6 C 6.11 g/m*3 6.6 C 0 km/h
455 07-12-2009 18:54:02 6.3 C 6 g/m*3 6.3 C 0 km/h
456 07-12-2009 19:06:02 6.3 C 6.07 g/m*3 6.3 C 0 km/h
457 07-12-2009 19:18:02 6.4 C 6.18 g/m*3 6.4 C 0 km/h
458 07-12-2009 19:30:03 6.4 C 6.18 g/m*3 6.4 C 0 km/h
459 07-12-2009 19:42:02 6.4 C 6.18 g/m*3 6.4 C 0 km/h
460 07-12-2009 19:54:02 6.2 C 6.1 g/m*3 6.2 C 0 km/h
461 07-12-2009 20:06:02 6.2 C 6.18 g/m*3 6.2 C 0 km/h
462 07-12-2009 20:18:02 6.3 C 6.29 g/m*3 6.3 C 0 km/h
463 07-12-2009 20:30:02 6.4 C 6.41 g/m*3 6.4 C 0 km/h
464 07-12-2009 20:42:03 6.3 C 6.44 g/m*3 6.3 C 0 km/h
465 07-12-2009 20:54:01 6.3 C 6.51 g/m*3 6.3 C 0 km/h
466 07-12-2009 21:06:02 6.3 C 6.59 g/m*3 6.3 C 0 km/h
467 07-12-2009 21:18:01 6.4 C 6.71 g/m*3 6.4 C 0 km/h
468 07-12-2009 21:30:01 6.4 C 6.71 g/m*3 6.4 C 0 km/h
469 07-12-2009 21:42:02 6.3 C 6.74 g/m*3 6.3 C 0 km/h
470 07-12-2009 21:55:03 6.4 C 6.85 g/m*3 6.4 C 0 km/h
471 07-12-2009 22:07:03 6.4 C 6.85 g/m*3 6.4 C 0 km/h
472 07-12-2009 22:19:03 6.2 C 6.77 g/m*3 6.2 C 0 km/h
473 07-12-2009 22:31:03 5.9 C 6.71 g/m*3 5.9 C 0 km/h
474 07-12-2009 22:43:03 5.8 C 6.66 g/m*3 5.8 C 0 km/h
475 07-12-2009 22:55:03 6 C 6.75 g/m*3 6 C 0 km/h
Sensor: Nr:Datum:Temp:Abs-Feuchte:Windchill:Wind:
Aussen-T/F 476 07-12-2009 23:07:03 6.1 C 6.87 g/m*3 6.1 C 0 km/h
477 07-12-2009 23:19:03 6.2 C 6.91 g/m*3 6.2 C 0 km/h
478 07-12-2009 23:31:03 6.5 C 7.05 g/m*3 6.5 C 0 km/h
479 07-12-2009 23:43:03 6.4 C 7.08 g/m*3 6.4 C 0 km/h
480 07-12-2009 23:55:03 6.5 C 7.12 g/m*3 6.5 C 0 km/h
481 08-12-2009 00:07:03 6.5 C 7.12 g/m*3 6.5 C 0 km/h
482 08-12-2009 00:19:04 6.4 C 7.08 g/m*3 6.4 C 0 km/h
483 08-12-2009 00:31:04 6.5 C 7.12 g/m*3 6.5 C 0 km/h
484 08-12-2009 00:43:04 6.4 C 7.08 g/m*3 6.4 C 0 km/h
485 08-12-2009 00:55:04 6.4 C 7.08 g/m*3 6.4 C 0 km/h
486 08-12-2009 01:07:04 6.5 C 7.12 g/m*3 6.5 C 0 km/h
487 08-12-2009 01:19:04 6.9 C 7.31 g/m*3 6.9 C 0 km/h
488 08-12-2009 01:31:04 7 C 7.36 g/m*3 7 C 0 km/h
489 08-12-2009 01:43:04 7.2 C 7.46 g/m*3 7.2 C 0 km/h
490 08-12-2009 01:55:04 7.3 C 7.51 g/m*3 7.3 C 0 km/h
491 08-12-2009 02:07:04 7.3 C 7.51 g/m*3 7.3 C 0 km/h
492 08-12-2009 02:19:04 7.1 C 7.41 g/m*3 7.1 C 0 km/h
493 08-12-2009 02:31:04 7.2 C 7.46 g/m*3 7.2 C 0 km/h
494 08-12-2009 02:43:04 7.1 C 7.41 g/m*3 7.1 C 0 km/h
495 08-12-2009 02:55:04 7.3 C 7.51 g/m*3 7.3 C 0 km/h
496 08-12-2009 03:07:04 7.5 C 7.6 g/m*3 7.5 C 0 km/h
497 08-12-2009 03:19:04 7.7 C 7.7 g/m*3 7.7 C 0 km/h
498 08-12-2009 03:31:04 7.6 C 7.65 g/m*3 7.6 C 0 km/h
499 08-12-2009 03:43:04 7.7 C 7.7 g/m*3 7.7 C 0 km/h
500 08-12-2009 03:55:04 8 C 7.85 g/m*3 8 C 0 km/h
Sensor: Nr:Datum:Temp:Abs-Feuchte:Windchill:Wind:
Aussen-T/F 501 08-12-2009 04:07:04 8.1 C 7.9 g/m*3 8.1 C 0 km/h
502 08-12-2009 04:19:04 7.9 C 7.8 g/m*3 7.9 C 0 km/h
503 08-12-2009 04:31:05 7.9 C 7.8 g/m*3 7.9 C 0 km/h
504 08-12-2009 04:43:05 7.9 C 7.8 g/m*3 7.9 C 0 km/h
505 08-12-2009 04:55:05 7.8 C 7.75 g/m*3 7.8 C 0 km/h
506 08-12-2009 05:07:05 7.9 C 7.8 g/m*3 7.9 C 0 km/h
507 08-12-2009 05:19:05 8.2 C 7.87 g/m*3 8.2 C 0 km/h
508 08-12-2009 05:31:05 8.5 C 7.85 g/m*3 8.5 C 0 km/h
509 08-12-2009 05:43:05 8.5 C 7.51 g/m*3 8.5 C 0 km/h
510 08-12-2009 05:55:05 8.3 C 7 g/m*3 8.3 C 0 km/h
511 08-12-2009 06:07:05 8 C 6.28 g/m*3 8 C 0 km/h
512 08-12-2009 06:19:05 7.8 C 6.12 g/m*3 7.8 C 0 km/h
513 08-12-2009 06:31:05 7.6 C 6.04 g/m*3 7.6 C 0 km/h
514 08-12-2009 06:43:05 7.4 C 5.88 g/m*3 7.4 C 0 km/h
515 08-12-2009 06:55:02 7.3 C 6 g/m*3 7.3 C 0 km/h
516 08-12-2009 07:07:02 7.2 C 5.97 g/m*3 7.2 C 0 km/h
517 08-12-2009 07:19:03 7.1 C 5.85 g/m*3 7.1 C 0 km/h
518 08-12-2009 07:31:02 6.8 C 5.97 g/m*3 6.8 C 0 km/h
519 08-12-2009 07:43:02 6.4 C 5.96 g/m*3 6.4 C 0 km/h
520 08-12-2009 07:55:03 6.2 C 6.03 g/m*3 6.2 C 0 km/h
521 08-12-2009 08:07:02 6 C 5.88 g/m*3 6 C 0 km/h
522 08-12-2009 08:19:02 5.9 C 6.06 g/m*3 5.9 C 0 km/h
523 08-12-2009 08:31:02 6 C 6.02 g/m*3 6 C 0 km/h
524 08-12-2009 08:43:02 6 C 6.1 g/m*3 6 C 0 km/h
525 08-12-2009 08:55:02 6.2 C 6.18 g/m*3 6.2 C 0 km/h
Sensor: Nr:Datum:Temp:Abs-Feuchte:Windchill:Wind:
Aussen-T/F 526 08-12-2009 09:07:02 6.3 C 6.14 g/m*3 6.3 C 0 km/h
527 08-12-2009 09:19:02 6.2 C 6.1 g/m*3 6.2 C 0 km/h
528 08-12-2009 09:31:02 6.2 C 5.96 g/m*3 6.2 C 0 km/h
529 08-12-2009 09:43:02 6.4 C 5.81 g/m*3 6.4 C 0 km/h
530 08-12-2009 09:55:02 6.6 C 5.89 g/m*3 6.6 C 0 km/h
531 08-12-2009 10:07:02 6.8 C 5.89 g/m*3 6.8 C 0 km/h
532 08-12-2009 10:19:01 6.8 C 5.74 g/m*3 6.8 C 0 km/h
533 08-12-2009 10:31:02 6.9 C 5.77 g/m*3 6.9 C 0 km/h
534 08-12-2009 10:43:02 7.1 C 5.85 g/m*3 7.1 C 0 km/h
535 08-12-2009 10:55:02 7.3 C 5.85 g/m*3 7.3 C 0 km/h
536 08-12-2009 11:07:02 7.4 C 5.88 g/m*3 7.4 C 0 km/h
537 08-12-2009 11:19:02 7.4 C 5.81 g/m*3 7.4 C 0 km/h
538 08-12-2009 11:31:02 7.4 C 5.81 g/m*3 7.4 C 0 km/h
539 08-12-2009 11:43:02 7.5 C 5.92 g/m*3 7.5 C 0 km/h
540 08-12-2009 11:55:02 7.4 C 5.73 g/m*3 7.4 C 0 km/h
541 08-12-2009 12:07:02 7.4 C 5.73 g/m*3 7.4 C 0 km/h
542 08-12-2009 12:19:02 7.4 C 5.81 g/m*3 7.4 C 0 km/h
543 08-12-2009 12:31:02 7.6 C 5.72 g/m*3 7.6 C 0 km/h
544 08-12-2009 12:43:02 7.9 C 5.67 g/m*3 7.9 C 0 km/h
545 08-12-2009 12:55:02 8 C 5.46 g/m*3 8 C 0 km/h
546 08-12-2009 13:07:02 8 C 5.37 g/m*3 8 C 0 km/h
547 08-12-2009 13:19:03 7.9 C 5.5 g/m*3 7.9 C 0 km/h
548 08-12-2009 13:31:02 7.8 C 5.55 g/m*3 7.8 C 0 km/h
549 08-12-2009 13:43:02 7.6 C 5.48 g/m*3 7.6 C 0 km/h
550 08-12-2009 13:55:03 7.5 C 5.52 g/m*3 7.5 C 0 km/h
Sensor: Nr:Datum:Temp:Abs-Feuchte:Windchill:Wind:
Aussen-T/F 551 08-12-2009 14:07:02 7.5 C 5.6 g/m*3 7.5 C 0 km/h
552 08-12-2009 14:19:02 7.5 C 5.52 g/m*3 7.5 C 0 km/h
553 08-12-2009 14:31:02 7.8 C 5.63 g/m*3 7.8 C 0 km/h
554 08-12-2009 14:43:02 7.8 C 5.55 g/m*3 7.8 C 0 km/h
555 08-12-2009 14:55:02 7.8 C 5.55 g/m*3 7.8 C 0 km/h
556 08-12-2009 15:07:02 7.8 C 5.63 g/m*3 7.8 C 0 km/h
557 08-12-2009 15:19:02 7.7 C 5.59 g/m*3 7.7 C 0 km/h
558 08-12-2009 15:31:02 7.5 C 5.68 g/m*3 7.5 C 0 km/h
559 08-12-2009 15:43:02 7.3 C 5.61 g/m*3 7.3 C 0 km/h
560 08-12-2009 15:55:02 7.4 C 5.57 g/m*3 7.4 C 0 km/h
561 08-12-2009 16:07:01 7.3 C 5.61 g/m*3 7.3 C 0 km/h
562 08-12-2009 16:19:01 6.9 C 5.7 g/m*3 6.9 C 0 km/h
563 08-12-2009 16:31:02 6.9 C 5.62 g/m*3 6.9 C 0 km/h
564 08-12-2009 16:43:02 6.9 C 5.62 g/m*3 6.9 C 0 km/h
565 08-12-2009 16:55:02 6.8 C 5.66 g/m*3 6.8 C 0 km/h
566 08-12-2009 17:07:02 6.5 C 5.7 g/m*3 6.5 C 0 km/h
567 08-12-2009 17:19:02 6.5 C 5.7 g/m*3 6.5 C 0 km/h
568 08-12-2009 17:31:02 6.5 C 5.7 g/m*3 6.5 C 0 km/h
569 08-12-2009 17:43:02 6.4 C 5.66 g/m*3 6.4 C 0 km/h
570 08-12-2009 17:55:01 6.3 C 5.7 g/m*3 6.3 C 0 km/h
571 08-12-2009 18:07:02 6 C 5.66 g/m*3 6 C 0 km/h
572 08-12-2009 18:19:01 5.9 C 5.77 g/m*3 5.9 C 0 km/h
573 08-12-2009 18:31:02 5.8 C 5.8 g/m*3 5.8 C 0 km/h
574 08-12-2009 18:43:03 5.7 C 5.76 g/m*3 5.7 C 0 km/h
575 08-12-2009 18:55:02 5.8 C 5.87 g/m*3 5.8 C 0 km/h
Sensor: Nr:Datum:Temp:Abs-Feuchte:Windchill:Wind:
Aussen-T/F 576 08-12-2009 19:07:02 5.7 C 5.84 g/m*3 5.7 C 0 km/h
577 08-12-2009 19:19:01 6 C 5.88 g/m*3 6 C 0 km/h
578 08-12-2009 19:31:02 6 C 5.81 g/m*3 6 C 0 km/h
579 08-12-2009 19:43:02 6.1 C 5.84 g/m*3 6.1 C 0 km/h
580 08-12-2009 19:55:02 6.2 C 5.88 g/m*3 6.2 C 0 km/h
581 08-12-2009 20:07:02 6.2 C 5.88 g/m*3 6.2 C 0 km/h
582 08-12-2009 20:19:02 6.3 C 5.92 g/m*3 6.3 C 0 km/h
583 08-12-2009 20:31:02 6.3 C 6 g/m*3 6.3 C 0 km/h
584 08-12-2009 20:43:02 6.3 C 6 g/m*3 6.3 C 0 km/h
585 08-12-2009 20:55:02 6.3 C 6.07 g/m*3 6.3 C 0 km/h
586 08-12-2009 21:07:01 6.3 C 6.07 g/m*3 6.3 C 0 km/h
587 08-12-2009 21:19:02 6.4 C 6.11 g/m*3 6.4 C 0 km/h
588 08-12-2009 21:31:01 6.4 C 6.11 g/m*3 6.4 C 0 km/h
589 08-12-2009 21:43:01 6.5 C 6.15 g/m*3 6.5 C 0 km/h
590 08-12-2009 21:55:02 6.5 C 6.15 g/m*3 6.5 C 0 km/h
591 08-12-2009 22:07:02 6.4 C 6.11 g/m*3 6.4 C 0 km/h
592 08-12-2009 22:19:02 6.4 C 6.11 g/m*3 6.4 C 0 km/h
593 08-12-2009 22:31:02 6.4 C 6.11 g/m*3 6.4 C 0 km/h
594 08-12-2009 22:43:02 6.3 C 6.14 g/m*3 6.3 C 0 km/h
595 08-12-2009 22:55:02 6.3 C 6.22 g/m*3 6.3 C 0 km/h
596 08-12-2009 23:07:02 6.4 C 6.26 g/m*3 6.4 C 0 km/h
597 08-12-2009 23:19:02 6.5 C 6.22 g/m*3 6.5 C 0 km/h
598 08-12-2009 23:31:02 6.5 C 6.22 g/m*3 6.5 C 0 km/h
599 08-12-2009 23:43:02 6.4 C 6.26 g/m*3 6.4 C 0 km/h
600 08-12-2009 23:55:02 6.3 C 6.37 g/m*3 6.3 C 0 km/h
Sensor: Nr:Datum:Temp:Abs-Feuchte:Windchill:Wind:
Aussen-T/F 601 09-12-2009 00:07:01 6.2 C 6.4 g/m*3 6.2 C 0 km/h
602 09-12-2009 00:19:02 6.2 C 6.47 g/m*3 6.2 C 0 km/h
603 09-12-2009 00:31:01 6 C 6.39 g/m*3 6 C 0 km/h
604 09-12-2009 00:43:01 6 C 6.46 g/m*3 6 C 0 km/h
605 09-12-2009 00:55:02 6 C 6.46 g/m*3 6 C 0 km/h
606 09-12-2009 01:07:01 5.9 C 6.49 g/m*3 5.9 C 0 km/h
607 09-12-2009 01:19:01 6 C 6.46 g/m*3 6 C 0 km/h
608 09-12-2009 01:31:02 6 C 6.46 g/m*3 6 C 0 km/h
609 09-12-2009 01:43:02 6.1 C 6.5 g/m*3 6.1 C 0 km/h
610 09-12-2009 01:55:02 6.1 C 6.5 g/m*3 6.1 C 0 km/h
611 09-12-2009 02:07:02 6.1 C 6.43 g/m*3 6.1 C 0 km/h
612 09-12-2009 02:19:02 5.9 C 6.42 g/m*3 5.9 C 0 km/h
613 09-12-2009 02:31:02 5.9 C 6.35 g/m*3 5.9 C 0 km/h
614 09-12-2009 02:43:02 5.7 C 6.26 g/m*3 5.7 C 0 km/h
615 09-12-2009 02:55:01 5.5 C 6.18 g/m*3 5.5 C 0 km/h
616 09-12-2009 03:07:01 5.5 C 6.18 g/m*3 5.5 C 0 km/h
617 09-12-2009 03:19:02 5.6 C 6.29 g/m*3 5.6 C 0 km/h
618 09-12-2009 03:31:01 5.8 C 6.3 g/m*3 5.8 C 0 km/h
619 09-12-2009 03:43:01 5.9 C 6.2 g/m*3 5.9 C 0 km/h
620 09-12-2009 03:55:01 5.9 C 6.13 g/m*3 5.9 C 0 km/h
621 09-12-2009 04:07:01 5.9 C 6.06 g/m*3 5.9 C 0 km/h
622 09-12-2009 04:19:01 5.9 C 5.98 g/m*3 5.9 C 0 km/h
623 09-12-2009 04:31:02 5.9 C 5.91 g/m*3 5.9 C 0 km/h
624 09-12-2009 04:43:02 5.9 C 5.91 g/m*3 5.9 C 0 km/h
625 09-12-2009 04:55:01 5.9 C 5.84 g/m*3 5.9 C 0 km/h
Sensor: Nr:Datum:Temp:Abs-Feuchte:Windchill:Wind:
Aussen-T/F 626 09-12-2009 05:07:02 5.9 C 5.84 g/m*3 5.9 C 0 km/h
627 09-12-2009 05:19:01 6 C 5.81 g/m*3 6 C 0 km/h
628 09-12-2009 05:31:01 6 C 5.73 g/m*3 6 C 0 km/h
629 09-12-2009 05:43:01 6 C 5.73 g/m*3 6 C 0 km/h
630 09-12-2009 05:55:01 5.9 C 5.77 g/m*3 5.9 C 0 km/h
631 09-12-2009 06:07:01 6 C 5.66 g/m*3 6 C 0 km/h
632 09-12-2009 06:19:01 6 C 5.59 g/m*3 6 C 0 km/h
633 09-12-2009 06:31:01 6 C 5.59 g/m*3 6 C 0 km/h
634 09-12-2009 06:43:01 6 C 5.66 g/m*3 6 C 0 km/h
635 09-12-2009 06:55:01 6.2 C 5.59 g/m*3 6.2 C 0 km/h
636 09-12-2009 07:07:01 6.2 C 5.52 g/m*3 6.2 C 0 km/h
637 09-12-2009 07:19:02 6.3 C 5.55 g/m*3 6.3 C 0 km/h
638 09-12-2009 07:31:01 6.4 C 5.59 g/m*3 6.4 C 0 km/h
639 09-12-2009 07:43:01 6.4 C 5.59 g/m*3 6.4 C 0 km/h
640 09-12-2009 07:55:02 6.4 C 5.59 g/m*3 6.4 C 0 km/h
641 09-12-2009 08:07:01 6.4 C 5.66 g/m*3 6.4 C 0 km/h
642 09-12-2009 08:19:01 6.3 C 5.63 g/m*3 6.3 C 0 km/h
643 09-12-2009 08:31:01 5.8 C 5.52 g/m*3 5.8 C 0 km/h
644 09-12-2009 08:43:01 5.7 C 5.55 g/m*3 5.7 C 0 km/h
645 09-12-2009 08:55:02 5.3 C 5.48 g/m*3 5.3 C 0 km/h
646 09-12-2009 09:07:01 5.2 C 5.58 g/m*3 5.2 C 0 km/h
647 09-12-2009 09:19:01 5.5 C 5.69 g/m*3 5.5 C 0 km/h
648 09-12-2009 09:31:02 5.7 C 5.76 g/m*3 5.7 C 0 km/h
649 09-12-2009 09:43:02 5.9 C 5.84 g/m*3 5.9 C 0 km/h
650 09-12-2009 09:55:01 6 C 5.73 g/m*3 6 C 0 km/h
Sensor: Nr:Datum:Temp:Abs-Feuchte:Windchill:Wind:
Aussen-T/F 651 09-12-2009 10:07:02 6.5 C 5.85 g/m*3 6.5 C 0 km/h
652 09-12-2009 10:19:01 7.1 C 5.77 g/m*3 7.1 C 0 km/h
653 09-12-2009 10:31:01 7.5 C 5.6 g/m*3 7.5 C 0 km/h
654 09-12-2009 10:43:02 7.6 C 5.64 g/m*3 7.6 C 0 km/h
655 09-12-2009 10:55:01 7.6 C 5.56 g/m*3 7.6 C 0 km/h
656 09-12-2009 11:07:02 7.8 C 5.63 g/m*3 7.8 C 0 km/h
657 09-12-2009 11:19:01 7.9 C 5.59 g/m*3 7.9 C 0 km/h
658 09-12-2009 11:31:01 8 C 5.62 g/m*3 8 C 0 km/h
659 09-12-2009 11:43:01 8 C 5.54 g/m*3 8 C 0 km/h
660 09-12-2009 11:55:01 8.1 C 5.57 g/m*3 8.1 C 0 km/h
661 09-12-2009 12:07:01 8.2 C 5.61 g/m*3 8.2 C 0 km/h
662 09-12-2009 12:19:02 8.4 C 5.6 g/m*3 8.4 C 0 km/h
663 09-12-2009 12:31:01 8.5 C 5.64 g/m*3 8.5 C 0 km/h
664 09-12-2009 12:43:01 8.4 C 5.6 g/m*3 8.4 C 0 km/h
665 09-12-2009 12:55:02 8.7 C 5.71 g/m*3 8.7 C 0 km/h
666 09-12-2009 13:07:01 9 C 5.64 g/m*3 9 C 0 km/h
667 09-12-2009 13:19:02 9.1 C 5.68 g/m*3 9.1 C 0 km/h
668 09-12-2009 13:31:01 8.7 C 5.71 g/m*3 8.7 C 0 km/h
669 09-12-2009 13:43:01 8.8 C 5.83 g/m*3 8.8 C 0 km/h
670 09-12-2009 13:55:02 9.1 C 5.86 g/m*3 9.1 C 0 km/h
671 09-12-2009 14:07:01 8.9 C 5.87 g/m*3 8.9 C 0 km/h
672 09-12-2009 14:19:01 8.8 C 5.92 g/m*3 8.8 C 0 km/h
673 09-12-2009 14:31:02 9 C 5.91 g/m*3 9 C 0 km/h
674 09-12-2009 14:43:02 9.3 C 6.02 g/m*3 9.3 C 0 km/h
675 09-12-2009 14:55:01 9.3 C 6.02 g/m*3 9.3 C 0 km/h
Sensor: Nr:Datum:Temp:Abs-Feuchte:Windchill:Wind:
Aussen-T/F 676 09-12-2009 15:07:02 9.4 C 5.97 g/m*3 9.4 C 0 km/h
677 09-12-2009 15:19:01 9.2 C 5.89 g/m*3 9.2 C 0 km/h
678 09-12-2009 15:31:02 9.1 C 5.86 g/m*3 9.1 C 0 km/h
679 09-12-2009 15:43:02 9.1 C 5.94 g/m*3 9.1 C 0 km/h
680 09-12-2009 15:55:01 9 C 5.91 g/m*3 9 C 0 km/h
681 09-12-2009 16:07:02 9 C 5.99 g/m*3 9 C 0 km/h
682 09-12-2009 16:19:01 8.9 C 6.13 g/m*3 8.9 C 0 km/h
683 09-12-2009 16:31:01 8.7 C 6.14 g/m*3 8.7 C 0 km/h
684 09-12-2009 16:43:01 8.6 C 6.19 g/m*3 8.6 C 0 km/h
685 09-12-2009 16:55:01 8.6 C 6.27 g/m*3 8.6 C 0 km/h
686 09-12-2009 17:07:01 8.5 C 6.32 g/m*3 8.5 C 0 km/h
687 09-12-2009 17:19:02 8.4 C 6.28 g/m*3 8.4 C 0 km/h
688 09-12-2009 17:31:01 8.4 C 6.36 g/m*3 8.4 C 0 km/h
689 09-12-2009 17:43:01 8.4 C 6.36 g/m*3 8.4 C 0 km/h
690 09-12-2009 17:55:01 8.2 C 6.36 g/m*3 8.2 C 0 km/h
691 09-12-2009 18:07:02 8.1 C 6.41 g/m*3 8.1 C 0 km/h
692 09-12-2009 18:19:01 8.2 C 6.53 g/m*3 8.2 C 0 km/h
693 09-12-2009 18:31:01 8.2 C 6.53 g/m*3 8.2 C 0 km/h
694 09-12-2009 18:43:01 8.2 C 6.53 g/m*3 8.2 C 0 km/h
695 09-12-2009 18:55:01 8.4 C 6.62 g/m*3 8.4 C 0 km/h
696 09-12-2009 19:07:01 8.1 C 6.41 g/m*3 8.1 C 0 km/h
697 09-12-2009 19:19:02 7.8 C 6.53 g/m*3 7.8 C 0 km/h
698 09-12-2009 19:31:01 7.8 C 6.69 g/m*3 7.8 C 0 km/h
699 09-12-2009 19:43:01 7.7 C 6.73 g/m*3 7.7 C 0 km/h
700 09-12-2009 19:55:01 7.7 C 6.81 g/m*3 7.7 C 0 km/h
Sensor: Nr:Datum:Temp:Abs-Feuchte:Windchill:Wind:
Aussen-T/F 701 09-12-2009 20:07:01 7.7 C 6.89 g/m*3 7.7 C 0 km/h
702 09-12-2009 20:19:02 7.8 C 6.94 g/m*3 7.8 C 0 km/h
703 09-12-2009 20:31:01 7.8 C 7.02 g/m*3 7.8 C 0 km/h
704 09-12-2009 20:43:01 7.8 C 7.02 g/m*3 7.8 C 0 km/h
705 09-12-2009 20:55:02 7.7 C 7.05 g/m*3 7.7 C 0 km/h
706 09-12-2009 21:07:02 7.7 C 7.05 g/m*3 7.7 C 0 km/h
707 09-12-2009 21:19:01 7.8 C 7.1 g/m*3 7.8 C 0 km/h
708 09-12-2009 21:31:01 7.8 C 7.1 g/m*3 7.8 C 0 km/h
709 09-12-2009 21:43:01 7.6 C 7.01 g/m*3 7.6 C 0 km/h
710 09-12-2009 21:55:01 7.6 C 7.09 g/m*3 7.6 C 0 km/h
711 09-12-2009 22:08:02 7.6 C 7.09 g/m*3 7.6 C 0 km/h
712 09-12-2009 22:20:02 7.6 C 7.09 g/m*3 7.6 C 0 km/h
713 09-12-2009 22:32:02 7.7 C 7.14 g/m*3 7.7 C 0 km/h
714 09-12-2009 22:44:03 7.6 C 7.17 g/m*3 7.6 C 0 km/h
715 09-12-2009 22:56:03 7.6 C 7.17 g/m*3 7.6 C 0 km/h
716 09-12-2009 23:08:03 7.6 C 7.17 g/m*3 7.6 C 0 km/h
717 09-12-2009 23:20:03 7.5 C 7.12 g/m*3 7.5 C 0 km/h
718 09-12-2009 23:32:03 7.5 C 7.2 g/m*3 7.5 C 0 km/h
719 09-12-2009 23:44:03 7.5 C 7.28 g/m*3 7.5 C 0 km/h
720 09-12-2009 23:56:03 7.5 C 7.28 g/m*3 7.5 C 0 km/h
721 10-12-2009 00:08:03 7.5 C 7.36 g/m*3 7.5 C 0 km/h
722 10-12-2009 00:20:03 7.4 C 7.32 g/m*3 7.4 C 0 km/h
723 10-12-2009 00:32:03 7.4 C 7.32 g/m*3 7.4 C 0 km/h
724 10-12-2009 00:44:03 7.4 C 7.32 g/m*3 7.4 C 0 km/h
725 10-12-2009 00:56:03 7.5 C 7.44 g/m*3 7.5 C 0 km/h
Sensor: Nr:Datum:Temp:Abs-Feuchte:Windchill:Wind:
Aussen-T/F 726 10-12-2009 01:08:03 7.5 C 7.44 g/m*3 7.5 C 0 km/h
727 10-12-2009 01:20:03 7.5 C 7.44 g/m*3 7.5 C 0 km/h
728 10-12-2009 01:32:03 7.6 C 7.49 g/m*3 7.6 C 0 km/h
729 10-12-2009 01:44:04 7.6 C 7.49 g/m*3 7.6 C 0 km/h
730 10-12-2009 01:56:04 7.7 C 7.54 g/m*3 7.7 C 0 km/h
731 10-12-2009 02:08:04 7.7 C 7.54 g/m*3 7.7 C 0 km/h
732 10-12-2009 02:20:04 7.6 C 7.49 g/m*3 7.6 C 0 km/h
733 10-12-2009 02:32:04 7.6 C 7.49 g/m*3 7.6 C 0 km/h
734 10-12-2009 02:44:04 7.6 C 7.49 g/m*3 7.6 C 0 km/h
735 10-12-2009 02:56:04 7.7 C 7.54 g/m*3 7.7 C 0 km/h
736 10-12-2009 03:08:04 7.7 C 7.54 g/m*3 7.7 C 0 km/h
737 10-12-2009 03:20:04 7.7 C 7.54 g/m*3 7.7 C 0 km/h
738 10-12-2009 03:32:04 7.7 C 7.62 g/m*3 7.7 C 0 km/h
739 10-12-2009 03:44:04 7.8 C 7.67 g/m*3 7.8 C 0 km/h
740 10-12-2009 03:56:04 7.8 C 7.67 g/m*3 7.8 C 0 km/h
741 10-12-2009 04:08:04 7.8 C 7.67 g/m*3 7.8 C 0 km/h
742 10-12-2009 04:20:04 7.8 C 7.67 g/m*3 7.8 C 0 km/h
743 10-12-2009 04:32:04 7.8 C 7.67 g/m*3 7.8 C 0 km/h
744 10-12-2009 04:44:04 7.8 C 7.67 g/m*3 7.8 C 0 km/h
745 10-12-2009 04:56:04 7.8 C 7.67 g/m*3 7.8 C 0 km/h
746 10-12-2009 05:08:04 7.8 C 7.67 g/m*3 7.8 C 0 km/h
747 10-12-2009 05:20:04 7.9 C 7.72 g/m*3 7.9 C 0 km/h
748 10-12-2009 05:32:04 7.9 C 7.72 g/m*3 7.9 C 0 km/h
749 10-12-2009 05:44:04 7.8 C 7.67 g/m*3 7.8 C 0 km/h
750 10-12-2009 05:56:04 7.9 C 7.8 g/m*3 7.9 C 0 km/h
Sensor: Nr:Datum:Temp:Abs-Feuchte:Windchill:Wind:
Aussen-T/F 751 10-12-2009 06:08:05 8 C 7.77 g/m*3 8 C 0 km/h
752 10-12-2009 06:20:05 8.4 C 7.97 g/m*3 8.4 C 0 km/h
753 10-12-2009 06:32:05 8.5 C 8.11 g/m*3 8.5 C 0 km/h
754 10-12-2009 06:44:05 8.7 C 8.22 g/m*3 8.7 C 0 km/h
755 10-12-2009 06:56:05 8.9 C 8.32 g/m*3 8.9 C 0 km/h
756 10-12-2009 07:08:02 9 C 8.38 g/m*3 9 C 0 km/h
757 10-12-2009 07:20:02 8.9 C 8.32 g/m*3 8.9 C 0 km/h
758 10-12-2009 07:32:02 8.9 C 8.32 g/m*3 8.9 C 0 km/h
759 10-12-2009 07:44:02 8.8 C 8.27 g/m*3 8.8 C 0 km/h
760 10-12-2009 07:56:02 8.9 C 8.32 g/m*3 8.9 C 0 km/h
761 10-12-2009 08:08:01 8.9 C 8.32 g/m*3 8.9 C 0 km/h
762 10-12-2009 08:20:02 8.8 C 8.27 g/m*3 8.8 C 0 km/h
763 10-12-2009 08:32:02 8.5 C 8.11 g/m*3 8.5 C 0 km/h
764 10-12-2009 08:44:02 8.5 C 8.11 g/m*3 8.5 C 0 km/h
765 10-12-2009 08:56:01 8.4 C 8.06 g/m*3 8.4 C 0 km/h
766 10-12-2009 09:08:01 8.7 C 8.22 g/m*3 8.7 C 0 km/h
767 10-12-2009 09:20:01 8.7 C 8.22 g/m*3 8.7 C 0 km/h
768 10-12-2009 09:32:01 8.8 C 8.27 g/m*3 8.8 C 0 km/h
769 10-12-2009 09:44:01 8.9 C 8.32 g/m*3 8.9 C 0 km/h
770 10-12-2009 09:56:02 8.9 C 8.32 g/m*3 8.9 C 0 km/h
771 10-12-2009 10:08:02 8.9 C 8.32 g/m*3 8.9 C 0 km/h
772 10-12-2009 10:20:01 9 C 8.38 g/m*3 9 C 0 km/h
773 10-12-2009 10:32:02 9 C 8.29 g/m*3 9 C 0 km/h
774 10-12-2009 10:44:02 8.9 C 8.32 g/m*3 8.9 C 0 km/h
775 10-12-2009 10:56:02 9.1 C 8.34 g/m*3 9.1 C 0 km/h
Sensor: Nr:Datum:Temp:Abs-Feuchte:Windchill:Wind:
Aussen-T/F 776 10-12-2009 11:08:02 9.3 C 8.45 g/m*3 9.3 C 0 km/h
777 10-12-2009 11:20:01 9.7 C 8.57 g/m*3 9.7 C 0 km/h
778 10-12-2009 11:32:01 9.6 C 8.43 g/m*3 9.6 C 0 km/h
779 10-12-2009 11:44:01 9.8 C 8.35 g/m*3 9.8 C 0 km/h
780 10-12-2009 11:56:02 10 C 7.99 g/m*3 10 C 0 km/h
781 10-12-2009 12:08:02 10 C 7.52 g/m*3 10 C 0 km/h
782 10-12-2009 12:20:02 10 C 7.8 g/m*3 10 C 0 km/h
783 10-12-2009 12:32:01 10 C 7.61 g/m*3 10 C 0 km/h
784 10-12-2009 12:44:01 10.1 C 7.09 g/m*3 10.1 C 0 km/h
785 10-12-2009 12:56:03 10.1 C 6.71 g/m*3 10.1 C 0 km/h
786 10-12-2009 13:08:02 10.3 C 6.8 g/m*3 10.3 C 0 km/h
787 10-12-2009 13:20:03 10.4 C 6.46 g/m*3 10.4 C 0 km/h
788 10-12-2009 13:32:02 10.7 C 6.29 g/m*3 10.7 C 0 km/h
789 10-12-2009 13:44:02 10.8 C 6.13 g/m*3 10.8 C 0 km/h
790 10-12-2009 13:56:02 10.9 C 5.97 g/m*3 10.9 C 0 km/h
791 10-12-2009 14:08:01 10.8 C 6.03 g/m*3 10.8 C 0 km/h
792 10-12-2009 14:20:02 10.8 C 6.03 g/m*3 10.8 C 0 km/h
793 10-12-2009 14:32:02 10.8 C 6.03 g/m*3 10.8 C 0 km/h
794 10-12-2009 14:44:02 10.8 C 5.93 g/m*3 10.8 C 0 km/h
795 10-12-2009 14:56:02 11 C 5.71 g/m*3 11 C 0 km/h
796 10-12-2009 15:08:02 10.8 C 5.73 g/m*3 10.8 C 0 km/h
797 10-12-2009 15:20:02 10.8 C 5.63 g/m*3 10.8 C 0 km/h
798 10-12-2009 15:32:02 10.5 C 5.53 g/m*3 10.5 C 0 km/h
799 10-12-2009 15:44:02 10.4 C 5.3 g/m*3 10.4 C 0 km/h
800 10-12-2009 15:56:02 10.4 C 5.11 g/m*3 10.4 C 0 km/h
Sensor: Nr:Datum:Temp:Abs-Feuchte:Windchill:Wind:
Aussen-T/F 801 10-12-2009 16:08:02 10.2 C 5.14 g/m*3 10.2 C 0 km/h
802 10-12-2009 16:20:01 10.1 C 5.01 g/m*3 10.1 C 0 km/h
803 10-12-2009 16:32:02 9.9 C 5.04 g/m*3 9.9 C 0 km/h
804 10-12-2009 16:44:02 9.8 C 5.1 g/m*3 9.8 C 0 km/h
805 10-12-2009 16:56:02 9.8 C 5.2 g/m*3 9.8 C 0 km/h
806 10-12-2009 17:08:02 9.7 C 5.35 g/m*3 9.7 C 0 km/h
807 10-12-2009 17:20:02 9.5 C 5.37 g/m*3 9.5 C 0 km/h
808 10-12-2009 17:32:02 9.3 C 5.39 g/m*3 9.3 C 0 km/h
809 10-12-2009 17:44:03 9.1 C 5.5 g/m*3 9.1 C 0 km/h
810 10-12-2009 17:56:01 9 C 5.29 g/m*3 9 C 0 km/h
811 10-12-2009 18:08:02 8.7 C 5.28 g/m*3 8.7 C 0 km/h
812 10-12-2009 18:20:01 8.5 C 5.29 g/m*3 8.5 C 0 km/h
813 10-12-2009 18:32:02 8.7 C 5.45 g/m*3 8.7 C 0 km/h
814 10-12-2009 18:44:02 8.7 C 5.53 g/m*3 8.7 C 0 km/h
815 10-12-2009 18:56:01 8.7 C 5.53 g/m*3 8.7 C 0 km/h
816 10-12-2009 19:08:02 8.7 C 5.71 g/m*3 8.7 C 0 km/h
817 10-12-2009 19:20:02 8.2 C 5.95 g/m*3 8.2 C 0 km/h
818 10-12-2009 19:32:02 8.2 C 6.11 g/m*3 8.2 C 0 km/h
819 10-12-2009 19:44:02 8.1 C 6.16 g/m*3 8.1 C 0 km/h
820 10-12-2009 19:56:02 8.3 C 6.15 g/m*3 8.3 C 0 km/h
821 10-12-2009 20:08:03 8.3 C 6.15 g/m*3 8.3 C 0 km/h
822 10-12-2009 20:20:04 8.6 C 6.1 g/m*3 8.6 C 0 km/h
823 10-12-2009 20:32:02 8.6 C 6.02 g/m*3 8.6 C 0 km/h
824 10-12-2009 20:44:02 8.5 C 5.98 g/m*3 8.5 C 0 km/h
825 10-12-2009 20:56:02 8.6 C 5.93 g/m*3 8.6 C 0 km/h
Sensor: Nr:Datum:Temp:Abs-Feuchte:Windchill:Wind:
Aussen-T/F 826 10-12-2009 21:08:02 8.5 C 6.06 g/m*3 8.5 C 0 km/h
827 10-12-2009 21:20:02 7.9 C 6.24 g/m*3 7.9 C 0 km/h
828 10-12-2009 21:32:02 7.9 C 6.32 g/m*3 7.9 C 0 km/h
829 10-12-2009 21:44:02 7.9 C 6.32 g/m*3 7.9 C 0 km/h
830 10-12-2009 21:56:02 8.2 C 6.2 g/m*3 8.2 C 0 km/h
831 10-12-2009 22:08:01 8.5 C 6.06 g/m*3 8.5 C 0 km/h
832 10-12-2009 22:21:03 8.5 C 6.06 g/m*3 8.5 C 0 km/h
833 10-12-2009 22:33:03 8.4 C 6.11 g/m*3 8.4 C 0 km/h
834 10-12-2009 22:45:03 8.3 C 6.24 g/m*3 8.3 C 0 km/h
835 10-12-2009 22:57:03 8.3 C 6.32 g/m*3 8.3 C 0 km/h
836 10-12-2009 23:09:03 8.3 C 6.32 g/m*3 8.3 C 0 km/h
837 10-12-2009 23:21:03 8.1 C 6.41 g/m*3 8.1 C 0 km/h
838 10-12-2009 23:33:03 8 C 6.45 g/m*3 8 C 0 km/h
839 10-12-2009 23:45:03 7.9 C 6.74 g/m*3 7.9 C 0 km/h
840 10-12-2009 23:57:03 7.7 C 6.81 g/m*3 7.7 C 0 km/h
841 11-12-2009 00:09:03 7.6 C 6.93 g/m*3 7.6 C 0 km/h
842 11-12-2009 00:21:03 7.5 C 7.04 g/m*3 7.5 C 0 km/h
843 11-12-2009 00:33:03 7.6 C 7.09 g/m*3 7.6 C 0 km/h
844 11-12-2009 00:45:03 7.7 C 7.14 g/m*3 7.7 C 0 km/h
845 11-12-2009 00:57:03 7.8 C 7.1 g/m*3 7.8 C 0 km/h
846 11-12-2009 01:09:03 7.8 C 7.1 g/m*3 7.8 C 0 km/h
847 11-12-2009 01:21:03 7.8 C 7.1 g/m*3 7.8 C 0 km/h
848 11-12-2009 01:33:03 7.8 C 7.1 g/m*3 7.8 C 0 km/h
849 11-12-2009 01:45:03 7.9 C 7.06 g/m*3 7.9 C 0 km/h
850 11-12-2009 01:57:03 7.9 C 6.98 g/m*3 7.9 C 0 km/h
Sensor: Nr:Datum:Temp:Abs-Feuchte:Windchill:Wind:
Aussen-T/F 851 11-12-2009 02:09:04 8 C 6.86 g/m*3 8 C 0 km/h
852 11-12-2009 02:21:04 7.9 C 6.9 g/m*3 7.9 C 0 km/h
853 11-12-2009 02:33:04 7.8 C 6.94 g/m*3 7.8 C 0 km/h
854 11-12-2009 02:45:04 7.9 C 6.98 g/m*3 7.9 C 0 km/h
855 11-12-2009 02:57:04 8 C 6.94 g/m*3 8 C 0 km/h
856 11-12-2009 03:09:04 8 C 6.94 g/m*3 8 C 0 km/h
857 11-12-2009 03:21:04 8 C 6.86 g/m*3 8 C 0 km/h
858 11-12-2009 03:33:04 7.9 C 6.98 g/m*3 7.9 C 0 km/h
859 11-12-2009 03:45:04 7.9 C 7.06 g/m*3 7.9 C 0 km/h
860 11-12-2009 03:57:04 7.9 C 7.06 g/m*3 7.9 C 0 km/h
861 11-12-2009 04:09:04 8.1 C 6.91 g/m*3 8.1 C 0 km/h
862 11-12-2009 04:21:04 8.2 C 6.95 g/m*3 8.2 C 0 km/h
863 11-12-2009 04:33:04 8.1 C 6.91 g/m*3 8.1 C 0 km/h
864 11-12-2009 04:45:04 8.1 C 6.91 g/m*3 8.1 C 0 km/h
865 11-12-2009 04:57:04 8 C 6.86 g/m*3 8 C 0 km/h
866 11-12-2009 05:09:04 7.9 C 6.98 g/m*3 7.9 C 0 km/h
867 11-12-2009 05:21:04 7.8 C 7.02 g/m*3 7.8 C 0 km/h
868 11-12-2009 05:33:04 7.8 C 7.02 g/m*3 7.8 C 0 km/h
869 11-12-2009 05:45:04 7.9 C 7.06 g/m*3 7.9 C 0 km/h
870 11-12-2009 05:57:04 7.9 C 6.9 g/m*3 7.9 C 0 km/h
871 11-12-2009 06:09:04 8 C 6.7 g/m*3 8 C 0 km/h
872 11-12-2009 06:21:04 7.8 C 6.77 g/m*3 7.8 C 0 km/h
873 11-12-2009 06:33:05 7.6 C 6.93 g/m*3 7.6 C 0 km/h
874 11-12-2009 06:45:05 7.4 C 7 g/m*3 7.4 C 0 km/h
875 11-12-2009 06:57:05 7.3 C 6.95 g/m*3 7.3 C 0 km/h
Sensor: Nr:Datum:Temp:Abs-Feuchte:Windchill:Wind:
Aussen-T/F 876 11-12-2009 07:09:02 7 C 6.82 g/m*3 7 C 0 km/h
877 11-12-2009 07:21:03 7.3 C 7.03 g/m*3 7.3 C 0 km/h
878 11-12-2009 07:33:03 7.4 C 7.08 g/m*3 7.4 C 0 km/h
879 11-12-2009 07:45:02 7.4 C 7 g/m*3 7.4 C 0 km/h
880 11-12-2009 07:57:02 7.6 C 7.01 g/m*3 7.6 C 0 km/h
881 11-12-2009 08:09:02 7.6 C 6.77 g/m*3 7.6 C 0 km/h
882 11-12-2009 08:21:02 7.7 C 6.57 g/m*3 7.7 C 0 km/h
883 11-12-2009 08:33:03 7.7 C 6.49 g/m*3 7.7 C 0 km/h
884 11-12-2009 08:45:02 7.7 C 6.57 g/m*3 7.7 C 0 km/h
885 11-12-2009 08:57:02 7.8 C 6.61 g/m*3 7.8 C 0 km/h
886 11-12-2009 09:09:02 7.7 C 6.49 g/m*3 7.7 C 0 km/h
887 11-12-2009 09:21:01 7.7 C 6.41 g/m*3 7.7 C 0 km/h
888 11-12-2009 09:33:02 7.6 C 6.2 g/m*3 7.6 C 0 km/h
889 11-12-2009 09:45:02 7.6 C 6.04 g/m*3 7.6 C 0 km/h
890 11-12-2009 09:57:02 7.6 C 5.96 g/m*3 7.6 C 0 km/h
891 11-12-2009 10:09:02 7.4 C 5.73 g/m*3 7.4 C 0 km/h
892 11-12-2009 10:21:02 7.4 C 5.57 g/m*3 7.4 C 0 km/h
893 11-12-2009 10:33:02 7.3 C 5.45 g/m*3 7.3 C 0 km/h
894 11-12-2009 10:45:02 7.3 C 5.45 g/m*3 7.3 C 0 km/h
895 11-12-2009 10:57:02 7.5 C 5.44 g/m*3 7.5 C 0 km/h
896 11-12-2009 11:09:02 7.6 C 5.4 g/m*3 7.6 C 0 km/h
897 11-12-2009 11:21:02 7.5 C 5.44 g/m*3 7.5 C 0 km/h
898 11-12-2009 11:33:02 7.5 C 5.36 g/m*3 7.5 C 0 km/h
899 11-12-2009 11:45:02 7.9 C 5.42 g/m*3 7.9 C 0 km/h
900 11-12-2009 11:57:02 8.2 C 5.36 g/m*3 8.2 C 0 km/h
Sensor: Nr:Datum:Temp:Abs-Feuchte:Windchill:Wind:
Aussen-T/F 901 11-12-2009 12:09:02 8.3 C 5.31 g/m*3 8.3 C 0 km/h
902 11-12-2009 12:21:03 8 C 5.29 g/m*3 8 C 0 km/h
903 11-12-2009 12:33:02 7.8 C 5.3 g/m*3 7.8 C 0 km/h
904 11-12-2009 12:45:03 7.7 C 5.27 g/m*3 7.7 C 0 km/h
905 11-12-2009 12:57:03 7.7 C 5.27 g/m*3 7.7 C 0 km/h
906 11-12-2009 13:09:02 7.9 C 5.34 g/m*3 7.9 C 0 km/h
907 11-12-2009 13:21:02 7.9 C 5.42 g/m*3 7.9 C 0 km/h
908 11-12-2009 13:33:02 7.8 C 5.3 g/m*3 7.8 C 0 km/h
909 11-12-2009 13:45:02 7.7 C 5.27 g/m*3 7.7 C 0 km/h
910 11-12-2009 13:57:02 7.7 C 5.35 g/m*3 7.7 C 0 km/h
911 11-12-2009 14:09:02 7.6 C 5.32 g/m*3 7.6 C 0 km/h
912 11-12-2009 14:21:02 7.4 C 5.17 g/m*3 7.4 C 0 km/h
913 11-12-2009 14:33:02 7.3 C 5.14 g/m*3 7.3 C 0 km/h
914 11-12-2009 14:45:02 7.3 C 5.14 g/m*3 7.3 C 0 km/h
915 11-12-2009 14:57:03 7.3 C 5.21 g/m*3 7.3 C 0 km/h
916 11-12-2009 15:09:01 7.1 C 5.15 g/m*3 7.1 C 0 km/h
917 11-12-2009 15:21:01 7.1 C 5.15 g/m*3 7.1 C 0 km/h
918 11-12-2009 15:33:02 7 C 5.19 g/m*3 7 C 0 km/h
919 11-12-2009 15:45:02 7 C 5.27 g/m*3 7 C 0 km/h
920 11-12-2009 15:57:02 6.8 C 5.51 g/m*3 6.8 C 0 km/h
921 11-12-2009 16:09:02 6.5 C 5.55 g/m*3 6.5 C 0 km/h
922 11-12-2009 16:21:02 6.3 C 5.63 g/m*3 6.3 C 0 km/h
923 11-12-2009 16:33:02 6.4 C 5.74 g/m*3 6.4 C 0 km/h
924 11-12-2009 16:45:02 6.3 C 5.7 g/m*3 6.3 C 0 km/h
925 11-12-2009 16:57:02 6.3 C 5.7 g/m*3 6.3 C 0 km/h
Sensor: Nr:Datum:Temp:Abs-Feuchte:Windchill:Wind:
Aussen-T/F 926 11-12-2009 17:09:02 6.3 C 5.63 g/m*3 6.3 C 0 km/h
927 11-12-2009 17:21:02 6.2 C 5.66 g/m*3 6.2 C 0 km/h
928 11-12-2009 17:33:02 6 C 5.81 g/m*3 6 C 0 km/h
929 11-12-2009 17:45:02 5.8 C 6.02 g/m*3 5.8 C 0 km/h
930 11-12-2009 17:57:02 5.8 C 6.16 g/m*3 5.8 C 0 km/h
931 11-12-2009 18:09:02 5.8 C 6.23 g/m*3 5.8 C 0 km/h
932 11-12-2009 18:21:02 5.9 C 6.35 g/m*3 5.9 C 0 km/h
933 11-12-2009 18:33:02 5.7 C 6.33 g/m*3 5.7 C 0 km/h
934 11-12-2009 18:45:02 5.6 C 6.36 g/m*3 5.6 C 0 km/h
935 11-12-2009 18:57:02 5.4 C 6.28 g/m*3 5.4 C 0 km/h
936 11-12-2009 19:09:01 5.4 C 6.35 g/m*3 5.4 C 0 km/h
937 11-12-2009 19:21:02 5.4 C 6.35 g/m*3 5.4 C 0 km/h
938 11-12-2009 19:33:02 5.3 C 6.38 g/m*3 5.3 C 0 km/h
939 11-12-2009 19:45:02 5.1 C 6.29 g/m*3 5.1 C 0 km/h
940 11-12-2009 19:57:02 4.6 C 6.09 g/m*3 4.6 C 0 km/h
941 11-12-2009 20:09:02 4.3 C 5.9 g/m*3 4.3 C 0 km/h
942 11-12-2009 20:21:02 4 C 5.79 g/m*3 4 C 0 km/h
943 11-12-2009 20:33:02 3.9 C 5.75 g/m*3 3.9 C 0 km/h
944 11-12-2009 20:45:01 3.7 C 5.73 g/m*3 3.7 C 0 km/h
945 11-12-2009 20:57:01 3.5 C 5.6 g/m*3 3.5 C 0 km/h
946 11-12-2009 21:09:01 3.4 C 5.56 g/m*3 3.4 C 0 km/h
947 11-12-2009 21:21:02 3.2 C 5.54 g/m*3 3.2 C 0 km/h
948 11-12-2009 21:33:01 3.3 C 5.58 g/m*3 3.3 C 0 km/h
949 11-12-2009 21:45:02 3.4 C 5.68 g/m*3 3.4 C 0 km/h
950 11-12-2009 21:57:02 3.4 C 5.68 g/m*3 3.4 C 0 km/h
Sensor: Nr:Datum:Temp:Abs-Feuchte:Windchill:Wind:
Aussen-T/F 951 11-12-2009 22:09:02 3.4 C 5.68 g/m*3 3.4 C 0 km/h
952 11-12-2009 22:21:02 3.4 C 5.68 g/m*3 3.4 C 0 km/h
953 11-12-2009 22:33:02 3.3 C 5.64 g/m*3 3.3 C 0 km/h
954 11-12-2009 22:45:02 3.4 C 5.68 g/m*3 3.4 C 0 km/h
955 11-12-2009 22:57:02 3.4 C 5.68 g/m*3 3.4 C 0 km/h
956 11-12-2009 23:09:01 3.4 C 5.68 g/m*3 3.4 C 0 km/h
957 11-12-2009 23:21:02 3.4 C 5.68 g/m*3 3.4 C 0 km/h
958 11-12-2009 23:33:02 3.4 C 5.68 g/m*3 3.4 C 0 km/h
959 11-12-2009 23:45:02 3.2 C 5.6 g/m*3 3.2 C 0 km/h
960 11-12-2009 23:57:02 3.3 C 5.64 g/m*3 3.3 C 0 km/h
961 12-12-2009 00:09:03 3.4 C 5.68 g/m*3 3.4 C 0 km/h
962 12-12-2009 00:21:02 3.4 C 5.68 g/m*3 3.4 C 0 km/h
963 12-12-2009 00:33:02 3.1 C 5.57 g/m*3 3.1 C 0 km/h
964 12-12-2009 00:45:01 3.1 C 5.63 g/m*3 3.1 C 0 km/h
965 12-12-2009 00:57:01 3.3 C 5.7 g/m*3 3.3 C 0 km/h
966 12-12-2009 01:09:02 3.4 C 5.74 g/m*3 3.4 C 0 km/h
967 12-12-2009 01:21:01 3.2 C 5.66 g/m*3 3.2 C 0 km/h
968 12-12-2009 01:33:01 3.2 C 5.66 g/m*3 3.2 C 0 km/h
969 12-12-2009 01:45:01 3.1 C 5.63 g/m*3 3.1 C 0 km/h
970 12-12-2009 01:57:01 3.3 C 5.7 g/m*3 3.3 C 0 km/h
971 12-12-2009 02:09:02 3.3 C 5.7 g/m*3 3.3 C 0 km/h
972 12-12-2009 02:21:02 3.2 C 5.66 g/m*3 3.2 C 0 km/h
973 12-12-2009 02:33:01 3.1 C 5.63 g/m*3 3.1 C 0 km/h
974 12-12-2009 02:46:03 3.2 C 5.72 g/m*3 3.2 C 0 km/h
975 12-12-2009 02:58:03 3.4 C 5.8 g/m*3 3.4 C 0 km/h
Sensor: Nr:Datum:Temp:Abs-Feuchte:Windchill:Wind:
Aussen-T/F 976 12-12-2009 03:10:03 3.4 C 5.8 g/m*3 3.4 C 0 km/h
977 12-12-2009 03:22:03 3.3 C 5.7 g/m*3 3.3 C 0 km/h
978 12-12-2009 03:34:02 3.4 C 5.74 g/m*3 3.4 C 0 km/h
979 12-12-2009 03:46:02 3.2 C 5.6 g/m*3 3.2 C 0 km/h
980 12-12-2009 03:58:02 3.1 C 5.57 g/m*3 3.1 C 0 km/h
981 12-12-2009 04:10:02 3.1 C 5.51 g/m*3 3.1 C 0 km/h
982 12-12-2009 04:22:02 3.1 C 5.51 g/m*3 3.1 C 0 km/h
983 12-12-2009 04:34:02 2.9 C 5.49 g/m*3 2.9 C 0 km/h
984 12-12-2009 04:46:02 2.9 C 5.49 g/m*3 2.9 C 0 km/h
985 12-12-2009 04:58:02 2.9 C 5.49 g/m*3 2.9 C 0 km/h
986 12-12-2009 05:10:02 3 C 5.47 g/m*3 3 C 0 km/h
987 12-12-2009 05:22:02 2.9 C 5.49 g/m*3 2.9 C 0 km/h
988 12-12-2009 05:34:02 2.9 C 5.49 g/m*3 2.9 C 0 km/h
989 12-12-2009 05:46:02 3 C 5.47 g/m*3 3 C 0 km/h
990 12-12-2009 05:58:02 2.9 C 5.49 g/m*3 2.9 C 0 km/h
991 12-12-2009 06:10:02 2.9 C 5.49 g/m*3 2.9 C 0 km/h
992 12-12-2009 06:22:02 3 C 5.47 g/m*3 3 C 0 km/h
993 12-12-2009 06:34:02 3 C 5.47 g/m*3 3 C 0 km/h
994 12-12-2009 06:46:02 3.1 C 5.51 g/m*3 3.1 C 0 km/h
995 12-12-2009 06:58:02 3.1 C 5.51 g/m*3 3.1 C 0 km/h
996 12-12-2009 07:10:01 3.1 C 5.51 g/m*3 3.1 C 0 km/h
997 12-12-2009 07:22:02 3.1 C 5.51 g/m*3 3.1 C 0 km/h
998 12-12-2009 07:34:01 3.1 C 5.51 g/m*3 3.1 C 0 km/h
999 12-12-2009 07:46:02 3.1 C 5.51 g/m*3 3.1 C 0 km/h
1000 12-12-2009 07:58:02 3.1 C 5.51 g/m*3 3.1 C 0 km/h
Sensor: Nr:Datum:Temp:Abs-Feuchte:Windchill:Wind:
Aussen-T/F 1001 12-12-2009 08:10:02 3.1 C 5.51 g/m*3 3.1 C 0 km/h
1002 12-12-2009 08:22:02 3.1 C 5.51 g/m*3 3.1 C 0 km/h
1003 12-12-2009 08:34:02 3.4 C 5.62 g/m*3 3.4 C 0 km/h
1004 12-12-2009 08:46:02 3.1 C 5.51 g/m*3 3.1 C 0 km/h
1005 12-12-2009 08:58:02 3.1 C 5.51 g/m*3 3.1 C 0 km/h
1006 12-12-2009 09:10:02 3.2 C 5.54 g/m*3 3.2 C 0 km/h
1007 12-12-2009 09:22:01 3.2 C 5.54 g/m*3 3.2 C 0 km/h
1008 12-12-2009 09:34:02 3.3 C 5.58 g/m*3 3.3 C 0 km/h
1009 12-12-2009 09:46:02 3.4 C 5.62 g/m*3 3.4 C 0 km/h
1010 12-12-2009 09:58:02 3.4 C 5.62 g/m*3 3.4 C 0 km/h
1011 12-12-2009 10:10:02 3.4 C 5.56 g/m*3 3.4 C 0 km/h
1012 12-12-2009 10:22:01 3.5 C 5.6 g/m*3 3.5 C 0 km/h
1013 12-12-2009 10:34:02 3.4 C 5.56 g/m*3 3.4 C 0 km/h
1014 12-12-2009 10:46:02 3.3 C 5.52 g/m*3 3.3 C 0 km/h
1015 12-12-2009 10:58:02 3.4 C 5.56 g/m*3 3.4 C 0 km/h
1016 12-12-2009 11:10:02 3.6 C 5.63 g/m*3 3.6 C 0 km/h
1017 12-12-2009 11:22:02 3.6 C 5.63 g/m*3 3.6 C 0 km/h
1018 12-12-2009 11:34:02 3.6 C 5.63 g/m*3 3.6 C 0 km/h
1019 12-12-2009 11:46:02 3.7 C 5.61 g/m*3 3.7 C 0 km/h
1020 12-12-2009 11:58:02 3.8 C 5.65 g/m*3 3.8 C 0 km/h
1021 12-12-2009 12:10:02 3.8 C 5.58 g/m*3 3.8 C 0 km/h
1022 12-12-2009 12:22:01 3.8 C 5.58 g/m*3 3.8 C 0 km/h
1023 12-12-2009 12:34:02 3.8 C 5.58 g/m*3 3.8 C 0 km/h
1024 12-12-2009 12:46:01 3.8 C 5.52 g/m*3 3.8 C 0 km/h
1025 12-12-2009 12:58:01 4 C 5.53 g/m*3 4 C 0 km/h
Sensor: Nr:Datum:Temp:Abs-Feuchte:Windchill:Wind:
Aussen-T/F 1026 12-12-2009 13:10:02 4.2 C 5.54 g/m*3 4.2 C 0 km/h
1027 12-12-2009 13:22:02 4.2 C 5.54 g/m*3 4.2 C 0 km/h
1028 12-12-2009 13:34:01 4.4 C 5.55 g/m*3 4.4 C 0 km/h
1029 12-12-2009 13:46:02 4.5 C 5.52 g/m*3 4.5 C 0 km/h
1030 12-12-2009 13:58:02 4.5 C 5.46 g/m*3 4.5 C 0 km/h
1031 12-12-2009 14:10:01 4.5 C 5.39 g/m*3 4.5 C 0 km/h
1032 12-12-2009 14:22:02 4.6 C 5.43 g/m*3 4.6 C 0 km/h
1033 12-12-2009 14:34:01 4.7 C 5.46 g/m*3 4.7 C 0 km/h
1034 12-12-2009 14:46:03 4.6 C 5.43 g/m*3 4.6 C 0 km/h
1035 12-12-2009 14:58:03 4.5 C 5.39 g/m*3 4.5 C 0 km/h
1036 12-12-2009 15:10:02 4.4 C 5.29 g/m*3 4.4 C 0 km/h
1037 12-12-2009 15:22:02 4.4 C 5.22 g/m*3 4.4 C 0 km/h
1038 12-12-2009 15:34:02 4.4 C 5.22 g/m*3 4.4 C 0 km/h
1039 12-12-2009 15:46:02 4.4 C 5.03 g/m*3 4.4 C 0 km/h
1040 12-12-2009 15:58:02 4.4 C 4.9 g/m*3 4.4 C 0 km/h
1041 12-12-2009 16:10:01 4.4 C 4.83 g/m*3 4.4 C 0 km/h
1042 12-12-2009 16:22:02 4.3 C 4.74 g/m*3 4.3 C 0 km/h
1043 12-12-2009 16:34:02 4.2 C 4.77 g/m*3 4.2 C 0 km/h
1044 12-12-2009 16:46:02 4.2 C 4.9 g/m*3 4.2 C 0 km/h
1045 12-12-2009 16:58:03 4.1 C 4.86 g/m*3 4.1 C 0 km/h
1046 12-12-2009 17:10:01 4.1 C 4.8 g/m*3 4.1 C 0 km/h
1047 12-12-2009 17:22:01 4.1 C 4.74 g/m*3 4.1 C 0 km/h
1048 12-12-2009 17:34:02 4 C 4.77 g/m*3 4 C 0 km/h
1049 12-12-2009 17:46:02 4 C 4.77 g/m*3 4 C 0 km/h
1050 12-12-2009 17:58:02 4 C 4.77 g/m*3 4 C 0 km/h
Sensor: Nr:Datum:Temp:Abs-Feuchte:Windchill:Wind:
Aussen-T/F 1051 12-12-2009 18:10:01 3.9 C 4.86 g/m*3 3.9 C 0 km/h
1052 12-12-2009 18:22:02 3.9 C 4.86 g/m*3 3.9 C 0 km/h
1053 12-12-2009 18:34:02 3.8 C 4.83 g/m*3 3.8 C 0 km/h
1054 12-12-2009 18:46:01 3.9 C 4.8 g/m*3 3.9 C 0 km/h
1055 12-12-2009 18:58:01 3.9 C 4.86 g/m*3 3.9 C 0 km/h
1056 12-12-2009 19:10:02 3.8 C 4.83 g/m*3 3.8 C 0 km/h
1057 12-12-2009 19:22:01 3.8 C 4.77 g/m*3 3.8 C 0 km/h
1058 12-12-2009 19:34:02 3.5 C 4.67 g/m*3 3.5 C 0 km/h
1059 12-12-2009 19:46:02 3.1 C 4.61 g/m*3 3.1 C 0 km/h
1060 12-12-2009 19:58:02 2.8 C 4.69 g/m*3 2.8 C 0 km/h
1061 12-12-2009 20:10:02 2.7 C 4.72 g/m*3 2.7 C 0 km/h
1062 12-12-2009 20:22:01 2.8 C 4.81 g/m*3 2.8 C 0 km/h
1063 12-12-2009 20:34:02 3 C 4.82 g/m*3 3 C 0 km/h
1064 12-12-2009 20:46:02 3 C 4.82 g/m*3 3 C 0 km/h
1065 12-12-2009 20:58:02 3.2 C 4.76 g/m*3 3.2 C 0 km/h
1066 12-12-2009 21:10:02 3.1 C 4.73 g/m*3 3.1 C 0 km/h
1067 12-12-2009 21:22:02 3.2 C 4.82 g/m*3 3.2 C 0 km/h
1068 12-12-2009 21:34:01 3.1 C 4.79 g/m*3 3.1 C 0 km/h
1069 12-12-2009 21:46:02 3 C 4.76 g/m*3 3 C 0 km/h
1070 12-12-2009 21:58:02 3.1 C 4.85 g/m*3 3.1 C 0 km/h
1071 12-12-2009 22:10:01 3.1 C 4.85 g/m*3 3.1 C 0 km/h
1072 12-12-2009 22:22:02 3 C 4.82 g/m*3 3 C 0 km/h
1073 12-12-2009 22:34:01 3 C 4.82 g/m*3 3 C 0 km/h
1074 12-12-2009 22:46:02 3 C 4.82 g/m*3 3 C 0 km/h
1075 12-12-2009 22:58:02 3 C 4.82 g/m*3 3 C 0 km/h
Sensor: Nr:Datum:Temp:Abs-Feuchte:Windchill:Wind:
Aussen-T/F 1076 12-12-2009 23:10:02 3 C 4.76 g/m*3 3 C 0 km/h
1077 12-12-2009 23:22:02 3.1 C 4.73 g/m*3 3.1 C 0 km/h
1078 12-12-2009 23:34:03 3.1 C 4.67 g/m*3 3.1 C 0 km/h
1079 12-12-2009 23:46:02 3.2 C 4.7 g/m*3 3.2 C 0 km/h
1080 12-12-2009 23:58:02 3.1 C 4.67 g/m*3 3.1 C 0 km/h
1081 13-12-2009 00:10:01 3.1 C 4.61 g/m*3 3.1 C 0 km/h
1082 13-12-2009 00:22:01 3.1 C 4.61 g/m*3 3.1 C 0 km/h
1083 13-12-2009 00:34:02 3.1 C 4.61 g/m*3 3.1 C 0 km/h
1084 13-12-2009 00:46:01 3.1 C 4.67 g/m*3 3.1 C 0 km/h
1085 13-12-2009 00:58:01 3.1 C 4.67 g/m*3 3.1 C 0 km/h
1086 13-12-2009 01:10:02 3.1 C 4.67 g/m*3 3.1 C 0 km/h
1087 13-12-2009 01:22:02 3 C 4.58 g/m*3 3 C 0 km/h
1088 13-12-2009 01:34:02 2.9 C 4.61 g/m*3 2.9 C 0 km/h
1089 13-12-2009 01:46:02 2.8 C 4.63 g/m*3 2.8 C 0 km/h
1090 13-12-2009 01:58:02 2.6 C 4.63 g/m*3 2.6 C 0 km/h
1091 13-12-2009 02:10:02 2.6 C 4.69 g/m*3 2.6 C 0 km/h
1092 13-12-2009 02:22:02 2.4 C 4.68 g/m*3 2.4 C 0 km/h
1093 13-12-2009 02:34:01 2.4 C 4.74 g/m*3 2.4 C 0 km/h
1094 13-12-2009 02:47:04 2.2 C 4.79 g/m*3 2.2 C 0 km/h
1095 13-12-2009 02:59:04 2.2 C 4.79 g/m*3 2.2 C 0 km/h
1096 13-12-2009 03:11:03 2.1 C 4.81 g/m*3 2.1 C 0 km/h
1097 13-12-2009 03:23:03 2.1 C 4.87 g/m*3 2.1 C 0 km/h
1098 13-12-2009 03:35:01 2.2 C 4.9 g/m*3 2.2 C 0 km/h
1099 13-12-2009 03:47:01 2.3 C 4.99 g/m*3 2.3 C 0 km/h
1100 13-12-2009 03:59:01 2.2 C 4.96 g/m*3 2.2 C 0 km/h
Sensor: Nr:Datum:Temp:Abs-Feuchte:Windchill:Wind:
Aussen-T/F 1101 13-12-2009 04:11:02 2.2 C 4.96 g/m*3 2.2 C 0 km/h
1102 13-12-2009 04:23:01 2.2 C 4.96 g/m*3 2.2 C 0 km/h
1103 13-12-2009 04:35:01 2.2 C 4.96 g/m*3 2.2 C 0 km/h
1104 13-12-2009 04:47:01 2.2 C 4.9 g/m*3 2.2 C 0 km/h
1105 13-12-2009 04:59:01 2.2 C 4.9 g/m*3 2.2 C 0 km/h
1106 13-12-2009 05:11:01 2.2 C 4.9 g/m*3 2.2 C 0 km/h
1107 13-12-2009 05:23:02 2.2 C 4.84 g/m*3 2.2 C 0 km/h
1108 13-12-2009 05:35:01 2.2 C 4.84 g/m*3 2.2 C 0 km/h
1109 13-12-2009 05:47:03 2.2 C 4.84 g/m*3 2.2 C 0 km/h
1110 13-12-2009 05:59:03 2.2 C 4.84 g/m*3 2.2 C 0 km/h
1111 13-12-2009 06:11:02 2.2 C 4.79 g/m*3 2.2 C 0 km/h
1112 13-12-2009 06:23:02 2.2 C 4.79 g/m*3 2.2 C 0 km/h
1113 13-12-2009 06:35:02 2.2 C 4.79 g/m*3 2.2 C 0 km/h
1114 13-12-2009 06:47:02 2 C 4.56 g/m*3 2 C 0 km/h
1115 13-12-2009 06:59:02 2.1 C 4.25 g/m*3 2.1 C 0 km/h
1116 13-12-2009 07:11:01 2 C 4.06 g/m*3 2 C 0 km/h
1117 13-12-2009 07:23:02 1.7 C 4.03 g/m*3 1.7 C 0 km/h
1118 13-12-2009 07:35:02 1.7 C 4.08 g/m*3 1.7 C 0 km/h
1119 13-12-2009 07:47:02 1.7 C 4.03 g/m*3 1.7 C 0 km/h
1120 13-12-2009 07:59:02 1.7 C 3.97 g/m*3 1.7 C 0 km/h
1121 13-12-2009 08:11:03 1.7 C 4.03 g/m*3 1.7 C 0 km/h
1122 13-12-2009 08:23:02 1.7 C 4.08 g/m*3 1.7 C 0 km/h
1123 13-12-2009 08:35:02 1.7 C 4.08 g/m*3 1.7 C 0 km/h
1124 13-12-2009 08:47:01 1.7 C 4.08 g/m*3 1.7 C 0 km/h
1125 13-12-2009 08:59:01 1.8 C 4.11 g/m*3 1.8 C 0 km/h
Sensor: Nr:Datum:Temp:Abs-Feuchte:Windchill:Wind:
Aussen-T/F 1126 13-12-2009 09:11:02 1.8 C 4.11 g/m*3 1.8 C 0 km/h
1127 13-12-2009 09:23:01 1.9 C 4.14 g/m*3 1.9 C 0 km/h
1128 13-12-2009 09:35:01 2 C 4.11 g/m*3 2 C 0 km/h
1129 13-12-2009 09:47:01 2.1 C 4.14 g/m*3 2.1 C 0 km/h
1130 13-12-2009 09:59:01 2.1 C 4.08 g/m*3 2.1 C 0 km/h
1131 13-12-2009 10:11:02 2.1 C 3.97 g/m*3 2.1 C 0 km/h
1132 13-12-2009 10:23:01 2.1 C 3.92 g/m*3 2.1 C 0 km/h
1133 13-12-2009 10:35:02 2.1 C 3.75 g/m*3 2.1 C 0 km/h
1134 13-12-2009 10:47:01 2.3 C 3.69 g/m*3 2.3 C 0 km/h
1135 13-12-2009 10:59:01 2.3 C 3.52 g/m*3 2.3 C 0 km/h
1136 13-12-2009 11:11:02 2.3 C 3.52 g/m*3 2.3 C 0 km/h
1137 13-12-2009 11:23:01 2.3 C 3.52 g/m*3 2.3 C 0 km/h
1138 13-12-2009 11:35:01 2.7 C 3.67 g/m*3 2.7 C 0 km/h
1139 13-12-2009 11:47:01 2.8 C 3.7 g/m*3 2.8 C 0 km/h
1140 13-12-2009 11:59:01 2.5 C 3.56 g/m*3 2.5 C 0 km/h
1141 13-12-2009 12:11:01 2.5 C 3.56 g/m*3 2.5 C 0 km/h
1142 13-12-2009 12:23:02 2.6 C 3.59 g/m*3 2.6 C 0 km/h
1143 13-12-2009 12:35:01 2.6 C 3.59 g/m*3 2.6 C 0 km/h
1144 13-12-2009 12:47:02 2.9 C 3.48 g/m*3 2.9 C 0 km/h
1145 13-12-2009 12:59:02 2.8 C 3.4 g/m*3 2.8 C 0 km/h
1146 13-12-2009 13:11:02 2.6 C 3.47 g/m*3 2.6 C 0 km/h
1147 13-12-2009 13:23:02 2.6 C 3.47 g/m*3 2.6 C 0 km/h
1148 13-12-2009 13:35:02 2.7 C 3.5 g/m*3 2.7 C 0 km/h
1149 13-12-2009 13:47:02 2.8 C 3.58 g/m*3 2.8 C 0 km/h
1150 13-12-2009 13:59:02 2.8 C 3.28 g/m*3 2.8 C 0 km/h
Sensor: Nr:Datum:Temp:Abs-Feuchte:Windchill:Wind:
Aussen-T/F 1151 13-12-2009 14:11:02 2.6 C 3.07 g/m*3 2.6 C 0 km/h
1152 13-12-2009 14:23:02 2.3 C 3.01 g/m*3 2.3 C 0 km/h
1153 13-12-2009 14:35:01 2 C 2.95 g/m*3 2 C 0 km/h
1154 13-12-2009 14:47:02 1.7 C 2.99 g/m*3 1.7 C 0 km/h
1155 13-12-2009 14:59:02 1.6 C 2.97 g/m*3 1.6 C 0 km/h
1156 13-12-2009 15:11:02 1.6 C 2.97 g/m*3 1.6 C 0 km/h
1157 13-12-2009 15:23:02 1.5 C 3.01 g/m*3 1.5 C 0 km/h
1158 13-12-2009 15:35:03 1.4 C 2.72 g/m*3 1.4 C 0 km/h
1159 13-12-2009 15:47:02 1.4 C 2.72 g/m*3 1.4 C 0 km/h
1160 13-12-2009 15:59:02 1.3 C 2.7 g/m*3 1.3 C 0 km/h
1161 13-12-2009 16:11:01 1.2 C 2.63 g/m*3 1.2 C 0 km/h
1162 13-12-2009 16:23:02 1.1 C 2.67 g/m*3 1.1 C 0 km/h
1163 13-12-2009 16:35:01 1 C 2.7 g/m*3 1 C 0 km/h
1164 13-12-2009 16:47:02 1 C 2.8 g/m*3 1 C 0 km/h
1165 13-12-2009 16:59:02 0.9 C 2.73 g/m*3 0.9 C 0 km/h
1166 13-12-2009 17:11:01 0.8 C 2.61 g/m*3 0.8 C 0 km/h
1167 13-12-2009 17:23:01 0.8 C 2.61 g/m*3 0.8 C 0 km/h
1168 13-12-2009 17:35:02 0.8 C 2.51 g/m*3 0.8 C 0 km/h
1169 13-12-2009 17:47:02 0.6 C 2.42 g/m*3 0.6 C 0 km/h
1170 13-12-2009 17:59:02 0.6 C 2.42 g/m*3 0.6 C 0 km/h
1171 13-12-2009 18:11:02 0.5 C 2.41 g/m*3 0.5 C 0 km/h
1172 13-12-2009 18:23:02 0.5 C 2.46 g/m*3 0.5 C 0 km/h
1173 13-12-2009 18:35:02 0.4 C 2.39 g/m*3 0.4 C 0 km/h
1174 13-12-2009 18:47:01 0.3 C 2.37 g/m*3 0.3 C 0 km/h
1175 13-12-2009 18:59:01 0.2 C 2.41 g/m*3 0.2 C 0 km/h
Sensor: Nr:Datum:Temp:Abs-Feuchte:Windchill:Wind:
Aussen-T/F 1176 13-12-2009 19:11:02 0.2 C 2.36 g/m*3 0.2 C 0 km/h
1177 13-12-2009 19:23:01 0 C 2.37 g/m*3 0 C 0 km/h
1178 13-12-2009 19:35:02 -0.2 C 2.39 g/m*3 -0.2 C 0 km/h
1179 13-12-2009 19:47:02 -0.4 C 2.4 g/m*3 -0.4 C 0 km/h
1180 13-12-2009 19:59:02 -0.5 C 2.43 g/m*3 -0.5 C 0 km/h
1181 13-12-2009 20:11:02 -0.6 C 2.42 g/m*3 -0.6 C 0 km/h
1182 13-12-2009 20:23:02 -0.6 C 2.46 g/m*3 -0.6 C 0 km/h
1183 13-12-2009 20:35:02 -0.7 C 2.45 g/m*3 -0.7 C 0 km/h
1184 13-12-2009 20:47:02 -0.7 C 2.45 g/m*3 -0.7 C 0 km/h
1185 13-12-2009 20:59:02 -0.8 C 2.43 g/m*3 -0.8 C 0 km/h
1186 13-12-2009 21:11:02 -0.9 C 2.46 g/m*3 -0.9 C 0 km/h
1187 13-12-2009 21:23:02 -0.9 C 2.5 g/m*3 -0.9 C 0 km/h
1188 13-12-2009 21:35:02 -0.9 C 2.5 g/m*3 -0.9 C 0 km/h
1189 13-12-2009 21:47:02 -0.7 C 2.54 g/m*3 -0.7 C 0 km/h
1190 13-12-2009 21:59:02 -0.5 C 2.57 g/m*3 -0.5 C 0 km/h
1191 13-12-2009 22:11:02 -0.5 C 2.57 g/m*3 -0.5 C 0 km/h
1192 13-12-2009 22:24:02 -0.4 C 2.59 g/m*3 -0.4 C 0 km/h
1193 13-12-2009 22:36:02 -0.5 C 2.57 g/m*3 -0.5 C 0 km/h
1194 13-12-2009 22:48:02 -0.4 C 2.59 g/m*3 -0.4 C 0 km/h
1195 13-12-2009 23:00:02 -0.3 C 2.56 g/m*3 -0.3 C 0 km/h
1196 13-12-2009 23:12:02 -0.3 C 2.56 g/m*3 -0.3 C 0 km/h
1197 13-12-2009 23:24:02 -0.3 C 2.56 g/m*3 -0.3 C 0 km/h
1198 13-12-2009 23:36:02 -0.3 C 2.61 g/m*3 -0.3 C 0 km/h
1199 13-12-2009 23:48:02 -0.3 C 2.61 g/m*3 -0.3 C 0 km/h
1200 14-12-2009 00:00:02 -0.3 C 2.66 g/m*3 -0.3 C 0 km/h
Sensor: Nr:Datum:Temp:Abs-Feuchte:Windchill:Wind:
Aussen-T/F 1201 14-12-2009 00:12:02 -0.3 C 2.71 g/m*3 -0.3 C 0 km/h
1202 14-12-2009 00:24:02 -0.4 C 2.73 g/m*3 -0.4 C 0 km/h
1203 14-12-2009 00:36:02 -0.4 C 2.83 g/m*3 -0.4 C 0 km/h
1204 14-12-2009 00:48:02 -0.5 C 2.86 g/m*3 -0.5 C 0 km/h
1205 14-12-2009 01:00:02 -0.7 C 2.86 g/m*3 -0.7 C 0 km/h
1206 14-12-2009 01:12:02 -1.1 C 2.83 g/m*3 -1.1 C 0 km/h
1207 14-12-2009 01:24:02 -1.4 C 2.86 g/m*3 -1.4 C 0 km/h
1208 14-12-2009 01:36:02 -1.7 C 2.84 g/m*3 -1.7 C 0 km/h
1209 14-12-2009 01:48:02 -2 C 2.78 g/m*3 -2 C 0 km/h
1210 14-12-2009 02:00:03 -2.2 C 2.78 g/m*3 -2.2 C 0 km/h
1211 14-12-2009 02:12:03 -2.3 C 2.81 g/m*3 -2.3 C 0 km/h
1212 14-12-2009 02:24:03 -2.4 C 2.79 g/m*3 -2.4 C 0 km/h
1213 14-12-2009 02:36:03 -2.4 C 2.83 g/m*3 -2.4 C 0 km/h
1214 14-12-2009 02:48:03 -2.5 C 2.85 g/m*3 -2.5 C 0 km/h
1215 14-12-2009 03:00:03 -2.5 C 2.85 g/m*3 -2.5 C 0 km/h
1216 14-12-2009 03:12:03 -2.7 C 2.85 g/m*3 -2.7 C 0 km/h
1217 14-12-2009 03:24:03 -2.5 C 2.93 g/m*3 -2.5 C 0 km/h
1218 14-12-2009 03:36:03 -2.1 C 3.01 g/m*3 -2.1 C 0 km/h
1219 14-12-2009 03:48:03 -1.8 C 3.08 g/m*3 -1.8 C 0 km/h
1220 14-12-2009 04:00:03 -1.7 C 3.06 g/m*3 -1.7 C 0 km/h
1221 14-12-2009 04:12:03 -1.5 C 3.06 g/m*3 -1.5 C 0 km/h
1222 14-12-2009 04:24:03 -1.4 C 3.08 g/m*3 -1.4 C 0 km/h
1223 14-12-2009 04:36:03 -1.3 C 3.01 g/m*3 -1.3 C 0 km/h
1224 14-12-2009 04:48:03 -1.2 C 2.99 g/m*3 -1.2 C 0 km/h
1225 14-12-2009 05:00:03 -1.1 C 2.96 g/m*3 -1.1 C 0 km/h
Sensor: Nr:Datum:Temp:Abs-Feuchte:Windchill:Wind:
Aussen-T/F 1226 14-12-2009 05:12:03 -0.9 C 2.87 g/m*3 -0.9 C 0 km/h
1227 14-12-2009 05:24:03 -0.9 C 2.82 g/m*3 -0.9 C 0 km/h
1228 14-12-2009 05:36:03 -0.9 C 2.78 g/m*3 -0.9 C 0 km/h
1229 14-12-2009 05:48:03 -0.8 C 2.75 g/m*3 -0.8 C 0 km/h
1230 14-12-2009 06:00:03 -0.8 C 2.66 g/m*3 -0.8 C 0 km/h
1231 14-12-2009 06:12:04 -0.7 C 2.68 g/m*3 -0.7 C 0 km/h
1232 14-12-2009 06:24:04 -0.7 C 2.63 g/m*3 -0.7 C 0 km/h
1233 14-12-2009 06:36:04 -0.7 C 2.58 g/m*3 -0.7 C 0 km/h
1234 14-12-2009 06:48:04 -0.8 C 2.57 g/m*3 -0.8 C 0 km/h
1235 14-12-2009 07:00:04 -0.8 C 2.57 g/m*3 -0.8 C 0 km/h
1236 14-12-2009 07:12:04 -0.8 C 2.52 g/m*3 -0.8 C 0 km/h
1237 14-12-2009 07:24:04 -0.8 C 2.52 g/m*3 -0.8 C 0 km/h
1238 14-12-2009 07:36:04 -0.7 C 2.58 g/m*3 -0.7 C 0 km/h
1239 14-12-2009 07:48:02 -0.7 C 2.63 g/m*3 -0.7 C 0 km/h
1240 14-12-2009 08:00:02 -0.7 C 2.63 g/m*3 -0.7 C 0 km/h
1241 14-12-2009 08:12:02 -0.7 C 2.63 g/m*3 -0.7 C 0 km/h
1242 14-12-2009 08:24:02 -0.7 C 2.58 g/m*3 -0.7 C 0 km/h
1243 14-12-2009 08:36:01 -0.7 C 2.63 g/m*3 -0.7 C 0 km/h
1244 14-12-2009 08:48:02 -0.7 C 2.63 g/m*3 -0.7 C 0 km/h
1245 14-12-2009 09:00:02 -0.7 C 2.63 g/m*3 -0.7 C 0 km/h
1246 14-12-2009 09:12:02 -0.7 C 2.63 g/m*3 -0.7 C 0 km/h
1247 14-12-2009 09:24:02 -0.7 C 2.63 g/m*3 -0.7 C 0 km/h
1248 14-12-2009 09:36:03 -0.7 C 2.58 g/m*3 -0.7 C 0 km/h
1249 14-12-2009 09:48:02 -0.7 C 2.54 g/m*3 -0.7 C 0 km/h
1250 14-12-2009 10:00:02 -0.6 C 2.51 g/m*3 -0.6 C 0 km/h
Sensor: Nr:Datum:Temp:Abs-Feuchte:Windchill:Wind:
Aussen-T/F 1251 14-12-2009 10:12:03 -0.5 C 2.48 g/m*3 -0.5 C 0 km/h
1252 14-12-2009 10:24:02 -0.4 C 2.5 g/m*3 -0.4 C 0 km/h
1253 14-12-2009 10:36:03 -0.5 C 2.43 g/m*3 -0.5 C 0 km/h
1254 14-12-2009 10:48:02 -0.2 C 2.53 g/m*3 -0.2 C 0 km/h
1255 14-12-2009 11:00:02 -0.2 C 2.48 g/m*3 -0.2 C 0 km/h
1256 14-12-2009 11:12:02 -0.2 C 2.48 g/m*3 -0.2 C 0 km/h
1257 14-12-2009 11:24:01 0 C 2.52 g/m*3 0 C 0 km/h
1258 14-12-2009 11:36:02 0.1 C 2.49 g/m*3 0.1 C 0 km/h
1259 14-12-2009 11:48:01 0.3 C 2.52 g/m*3 0.3 C 0 km/h
1260 14-12-2009 12:00:01 0.2 C 2.46 g/m*3 0.2 C 0 km/h
1261 14-12-2009 12:12:02 0.1 C 2.44 g/m*3 0.1 C 0 km/h
1262 14-12-2009 12:24:01 0.1 C 2.44 g/m*3 0.1 C 0 km/h
1263 14-12-2009 12:36:02 0.1 C 2.44 g/m*3 0.1 C 0 km/h
1264 14-12-2009 12:48:01 0 C 2.42 g/m*3 0 C 0 km/h
1265 14-12-2009 13:00:01 0 C 2.42 g/m*3 0 C 0 km/h
1266 14-12-2009 13:12:02 0 C 2.42 g/m*3 0 C 0 km/h
1267 14-12-2009 13:24:01 0.1 C 2.44 g/m*3 0.1 C 0 km/h
1268 14-12-2009 13:36:01 0.2 C 2.46 g/m*3 0.2 C 0 km/h
1269 14-12-2009 13:48:01 0.4 C 2.49 g/m*3 0.4 C 0 km/h
1270 14-12-2009 14:00:01 0.6 C 2.58 g/m*3 0.6 C 0 km/h
1271 14-12-2009 14:12:01 0.6 C 2.63 g/m*3 0.6 C 0 km/h
1272 14-12-2009 14:24:02 0.3 C 2.57 g/m*3 0.3 C 0 km/h
1273 14-12-2009 14:36:01 0.2 C 2.6 g/m*3 0.2 C 0 km/h
1274 14-12-2009 14:48:02 0.1 C 2.63 g/m*3 0.1 C 0 km/h
1275 14-12-2009 15:00:02 0 C 2.62 g/m*3 0 C 0 km/h
Sensor: Nr:Datum:Temp:Abs-Feuchte:Windchill:Wind:
Aussen-T/F 1276 14-12-2009 15:12:01 -0.1 C 2.65 g/m*3 -0.1 C 0 km/h
1277 14-12-2009 15:24:02 -0.3 C 2.56 g/m*3 -0.3 C 0 km/h
1278 14-12-2009 15:36:01 -0.4 C 2.59 g/m*3 -0.4 C 0 km/h
1279 14-12-2009 15:48:02 -0.5 C 2.57 g/m*3 -0.5 C 0 km/h
1280 14-12-2009 16:00:02 -0.4 C 2.64 g/m*3 -0.4 C 0 km/h
1281 14-12-2009 16:12:02 -0.5 C 2.62 g/m*3 -0.5 C 0 km/h
1282 14-12-2009 16:24:02 -0.5 C 2.67 g/m*3 -0.5 C 0 km/h
1283 14-12-2009 16:36:02 -0.5 C 2.67 g/m*3 -0.5 C 0 km/h
1284 14-12-2009 16:48:02 -0.6 C 2.65 g/m*3 -0.6 C 0 km/h
1285 14-12-2009 17:00:03 -0.4 C 2.73 g/m*3 -0.4 C 0 km/h
1286 14-12-2009 17:12:01 -0.5 C 2.71 g/m*3 -0.5 C 0 km/h
1287 14-12-2009 17:24:01 -0.6 C 2.65 g/m*3 -0.6 C 0 km/h
1288 14-12-2009 17:36:02 -0.6 C 2.65 g/m*3 -0.6 C 0 km/h
1289 14-12-2009 17:48:02 -0.6 C 2.65 g/m*3 -0.6 C 0 km/h
1290 14-12-2009 18:00:02 -0.6 C 2.7 g/m*3 -0.6 C 0 km/h
1291 14-12-2009 18:12:02 -0.6 C 2.65 g/m*3 -0.6 C 0 km/h
1292 14-12-2009 18:24:02 -0.7 C 2.58 g/m*3 -0.7 C 0 km/h
1293 14-12-2009 18:36:02 -0.7 C 2.54 g/m*3 -0.7 C 0 km/h
1294 14-12-2009 18:48:02 -0.8 C 2.57 g/m*3 -0.8 C 0 km/h
1295 14-12-2009 19:00:02 -0.8 C 2.61 g/m*3 -0.8 C 0 km/h
1296 14-12-2009 19:12:02 -0.7 C 2.63 g/m*3 -0.7 C 0 km/h
1297 14-12-2009 19:24:02 -0.7 C 2.68 g/m*3 -0.7 C 0 km/h
1298 14-12-2009 19:36:02 -0.7 C 2.68 g/m*3 -0.7 C 0 km/h
1299 14-12-2009 19:48:01 -0.7 C 2.68 g/m*3 -0.7 C 0 km/h
1300 14-12-2009 20:00:01 -0.6 C 2.7 g/m*3 -0.6 C 0 km/h
Sensor: Nr:Datum:Temp:Abs-Feuchte:Windchill:Wind:
Aussen-T/F 1301 14-12-2009 20:12:02 -0.6 C 2.7 g/m*3 -0.6 C 0 km/h
1302 14-12-2009 20:24:02 -0.6 C 2.7 g/m*3 -0.6 C 0 km/h
1303 14-12-2009 20:36:02 -0.6 C 2.7 g/m*3 -0.6 C 0 km/h
1304 14-12-2009 20:48:02 -0.6 C 2.65 g/m*3 -0.6 C 0 km/h
1305 14-12-2009 21:00:02 -0.5 C 2.71 g/m*3 -0.5 C 0 km/h
1306 14-12-2009 21:12:02 -0.5 C 2.71 g/m*3 -0.5 C 0 km/h
1307 14-12-2009 21:24:02 -0.5 C 2.76 g/m*3 -0.5 C 0 km/h
1308 14-12-2009 21:36:02 -0.5 C 2.71 g/m*3 -0.5 C 0 km/h
1309 14-12-2009 21:49:04 -0.5 C 2.67 g/m*3 -0.5 C 0 km/h
1310 14-12-2009 22:01:04 -1.1 C 2.6 g/m*3 -1.1 C 0 km/h
1311 14-12-2009 22:13:04 -1.6 C 2.6 g/m*3 -1.6 C 0 km/h
1312 14-12-2009 22:25:04 -1.8 C 2.61 g/m*3 -1.8 C 0 km/h
1313 14-12-2009 22:37:04 -2 C 2.61 g/m*3 -2 C 0 km/h
1314 14-12-2009 22:49:04 -2 C 2.66 g/m*3 -2 C 0 km/h
1315 14-12-2009 23:01:04 -2.1 C 2.64 g/m*3 -2.1 C 0 km/h
1316 14-12-2009 23:13:04 -2.2 C 2.66 g/m*3 -2.2 C 0 km/h
1317 14-12-2009 23:25:05 -2.3 C 2.64 g/m*3 -2.3 C 0 km/h
1318 14-12-2009 23:37:05 -2.4 C 2.62 g/m*3 -2.4 C 0 km/h
1319 14-12-2009 23:49:05 -2.7 C 2.65 g/m*3 -2.7 C 0 km/h
1320 15-12-2009 00:01:05 -2.7 C 2.69 g/m*3 -2.7 C 0 km/h
1321 15-12-2009 00:13:05 -2.7 C 2.73 g/m*3 -2.7 C 0 km/h
1322 15-12-2009 00:25:05 -2.9 C 2.69 g/m*3 -2.9 C 0 km/h
1323 15-12-2009 00:37:05 -3 C 2.67 g/m*3 -3 C 0 km/h
1324 15-12-2009 00:49:05 -3.2 C 2.67 g/m*3 -3.2 C 0 km/h
1325 15-12-2009 01:01:05 -3.3 C 2.69 g/m*3 -3.3 C 0 km/h
Sensor: Nr:Datum:Temp:Abs-Feuchte:Windchill:Wind:
Aussen-T/F 1326 15-12-2009 01:13:05 -3.3 C 2.73 g/m*3 -3.3 C 0 km/h
1327 15-12-2009 01:25:05 -3.3 C 2.73 g/m*3 -3.3 C 0 km/h
1328 15-12-2009 01:37:05 -3.4 C 2.71 g/m*3 -3.4 C 0 km/h
1329 15-12-2009 01:49:05 -3.5 C 2.73 g/m*3 -3.5 C 0 km/h
1330 15-12-2009 02:01:05 -3.5 C 2.73 g/m*3 -3.5 C 0 km/h
1331 15-12-2009 02:13:05 -3.5 C 2.77 g/m*3 -3.5 C 0 km/h
1332 15-12-2009 02:25:05 -3.2 C 2.83 g/m*3 -3.2 C 0 km/h
1333 15-12-2009 02:37:05 -3 C 2.87 g/m*3 -3 C 0 km/h
1334 15-12-2009 02:49:05 -2.7 C 2.93 g/m*3 -2.7 C 0 km/h
1335 15-12-2009 03:01:06 -2.6 C 2.91 g/m*3 -2.6 C 0 km/h
1336 15-12-2009 03:13:06 -2.4 C 2.91 g/m*3 -2.4 C 0 km/h
1337 15-12-2009 03:25:06 -2.3 C 2.89 g/m*3 -2.3 C 0 km/h
1338 15-12-2009 03:37:06 -2.3 C 2.89 g/m*3 -2.3 C 0 km/h
1339 15-12-2009 03:49:06 -2.2 C 2.91 g/m*3 -2.2 C 0 km/h
1340 15-12-2009 04:01:06 -2.1 C 2.93 g/m*3 -2.1 C 0 km/h
1341 15-12-2009 04:13:06 -2 C 2.95 g/m*3 -2 C 0 km/h
1342 15-12-2009 04:25:06 -1.9 C 2.97 g/m*3 -1.9 C 0 km/h
1343 15-12-2009 04:37:06 -1.9 C 2.97 g/m*3 -1.9 C 0 km/h
1344 15-12-2009 04:49:06 -1.9 C 2.97 g/m*3 -1.9 C 0 km/h
1345 15-12-2009 05:01:06 -1.9 C 2.97 g/m*3 -1.9 C 0 km/h
1346 15-12-2009 05:13:06 -1.9 C 2.97 g/m*3 -1.9 C 0 km/h
1347 15-12-2009 05:25:06 -1.8 C 3.04 g/m*3 -1.8 C 0 km/h
1348 15-12-2009 05:37:06 -1.8 C 3.04 g/m*3 -1.8 C 0 km/h
1349 15-12-2009 05:49:06 -1.8 C 3.08 g/m*3 -1.8 C 0 km/h
1350 15-12-2009 06:01:06 -1.7 C 3.1 g/m*3 -1.7 C 0 km/h
Sensor: Nr:Datum:Temp:Abs-Feuchte:Windchill:Wind:
Aussen-T/F 1351 15-12-2009 06:13:06 -1.6 C 3.12 g/m*3 -1.6 C 0 km/h
1352 15-12-2009 06:25:06 -1.5 C 3.14 g/m*3 -1.5 C 0 km/h
1353 15-12-2009 06:37:06 -1.6 C 3.12 g/m*3 -1.6 C 0 km/h
1354 15-12-2009 06:49:06 -1.6 C 3.12 g/m*3 -1.6 C 0 km/h
1355 15-12-2009 07:01:07 -1.7 C 3.1 g/m*3 -1.7 C 0 km/h
1356 15-12-2009 07:13:07 -1.7 C 3.14 g/m*3 -1.7 C 0 km/h
1357 15-12-2009 07:25:02 -1.6 C 3.16 g/m*3 -1.6 C 0 km/h
1358 15-12-2009 07:37:02 -1.6 C 3.16 g/m*3 -1.6 C 0 km/h
1359 15-12-2009 07:49:02 -1.5 C 3.19 g/m*3 -1.5 C 0 km/h
1360 15-12-2009 08:01:01 -1.3 C 3.19 g/m*3 -1.3 C 0 km/h
1361 15-12-2009 08:13:01 -1.2 C 3.21 g/m*3 -1.2 C 0 km/h
1362 15-12-2009 08:25:02 -1.2 C 3.21 g/m*3 -1.2 C 0 km/h
1363 15-12-2009 08:37:02 -1.1 C 3.23 g/m*3 -1.1 C 0 km/h
1364 15-12-2009 08:49:02 -1 C 3.25 g/m*3 -1 C 0 km/h
1365 15-12-2009 09:01:02 -0.9 C 3.28 g/m*3 -0.9 C 0 km/h
1366 15-12-2009 09:13:02 -0.9 C 3.23 g/m*3 -0.9 C 0 km/h
1367 15-12-2009 09:25:01 -0.7 C 3.28 g/m*3 -0.7 C 0 km/h
1368 15-12-2009 09:37:02 -0.5 C 3.28 g/m*3 -0.5 C 0 km/h
1369 15-12-2009 09:49:02 -0.4 C 3.2 g/m*3 -0.4 C 0 km/h
1370 15-12-2009 10:01:02 -0.2 C 3.15 g/m*3 -0.2 C 0 km/h
1371 15-12-2009 10:13:02 0 C 3.15 g/m*3 0 C 0 km/h
1372 15-12-2009 10:25:02 0.1 C 3.17 g/m*3 0.1 C 0 km/h
1373 15-12-2009 10:37:02 0.2 C 3.14 g/m*3 0.2 C 0 km/h
1374 15-12-2009 10:49:02 0.3 C 3.17 g/m*3 0.3 C 0 km/h
1375 15-12-2009 11:01:02 0.3 C 3.12 g/m*3 0.3 C 0 km/h
Sensor: Nr:Datum:Temp:Abs-Feuchte:Windchill:Wind:
Aussen-T/F 1376 15-12-2009 11:13:03 0.4 C 3.14 g/m*3 0.4 C 0 km/h
1377 15-12-2009 11:25:02 0.3 C 3.12 g/m*3 0.3 C 0 km/h
1378 15-12-2009 11:37:02 0.5 C 3.11 g/m*3 0.5 C 0 km/h
1379 15-12-2009 11:49:01 0.7 C 3.05 g/m*3 0.7 C 0 km/h
1380 15-12-2009 12:01:01 0.9 C 3.04 g/m*3 0.9 C 0 km/h
1381 15-12-2009 12:13:01 1 C 2.91 g/m*3 1 C 0 km/h
1382 15-12-2009 12:25:02 1 C 2.91 g/m*3 1 C 0 km/h
1383 15-12-2009 12:37:01 0.8 C 2.92 g/m*3 0.8 C 0 km/h
1384 15-12-2009 12:49:01 0.7 C 2.85 g/m*3 0.7 C 0 km/h
1385 15-12-2009 13:01:01 0.8 C 2.87 g/m*3 0.8 C 0 km/h
1386 15-12-2009 13:13:01 1.1 C 2.87 g/m*3 1.1 C 0 km/h
1387 15-12-2009 13:25:02 1.6 C 2.87 g/m*3 1.6 C 0 km/h
1388 15-12-2009 13:37:01 1.6 C 2.81 g/m*3 1.6 C 0 km/h
1389 15-12-2009 13:49:02 1.6 C 2.76 g/m*3 1.6 C 0 km/h
1390 15-12-2009 14:01:02 1.6 C 2.7 g/m*3 1.6 C 0 km/h
1391 15-12-2009 14:13:02 1.6 C 2.65 g/m*3 1.6 C 0 km/h
1392 15-12-2009 14:25:02 1.5 C 2.69 g/m*3 1.5 C 0 km/h
1393 15-12-2009 14:37:02 1.4 C 2.67 g/m*3 1.4 C 0 km/h
1394 15-12-2009 14:49:02 1.3 C 2.65 g/m*3 1.3 C 0 km/h
1395 15-12-2009 15:01:01 1.2 C 2.63 g/m*3 1.2 C 0 km/h
1396 15-12-2009 15:13:01 1.2 C 2.63 g/m*3 1.2 C 0 km/h
1397 15-12-2009 15:25:02 1.2 C 2.63 g/m*3 1.2 C 0 km/h
1398 15-12-2009 15:37:02 1.1 C 2.67 g/m*3 1.1 C 0 km/h
1399 15-12-2009 15:49:02 1 C 2.65 g/m*3 1 C 0 km/h
1400 15-12-2009 16:01:02 1 C 2.65 g/m*3 1 C 0 km/h
Sensor: Nr:Datum:Temp:Abs-Feuchte:Windchill:Wind:
Aussen-T/F 1401 15-12-2009 16:13:02 1 C 2.6 g/m*3 1 C 0 km/h
1402 15-12-2009 16:25:02 0.9 C 2.63 g/m*3 0.9 C 0 km/h
1403 15-12-2009 16:37:02 0.9 C 2.68 g/m*3 0.9 C 0 km/h
1404 15-12-2009 16:49:02 0.8 C 2.66 g/m*3 0.8 C 0 km/h
1405 15-12-2009 17:01:02 0.7 C 2.64 g/m*3 0.7 C 0 km/h
1406 15-12-2009 17:13:02 0.7 C 2.64 g/m*3 0.7 C 0 km/h
1407 15-12-2009 17:25:02 0.6 C 2.68 g/m*3 0.6 C 0 km/h
1408 15-12-2009 17:37:02 0.6 C 2.73 g/m*3 0.6 C 0 km/h
1409 15-12-2009 17:49:01 0.6 C 2.68 g/m*3 0.6 C 0 km/h
1410 15-12-2009 18:01:01 0.6 C 2.68 g/m*3 0.6 C 0 km/h
1411 15-12-2009 18:13:01 0.6 C 2.63 g/m*3 0.6 C 0 km/h
1412 15-12-2009 18:25:02 0.6 C 2.63 g/m*3 0.6 C 0 km/h
1413 15-12-2009 18:37:02 0.6 C 2.63 g/m*3 0.6 C 0 km/h
1414 15-12-2009 18:49:02 0.6 C 2.68 g/m*3 0.6 C 0 km/h
1415 15-12-2009 19:01:02 0.5 C 2.71 g/m*3 0.5 C 0 km/h
1416 15-12-2009 19:13:02 0.4 C 2.69 g/m*3 0.4 C 0 km/h
1417 15-12-2009 19:25:05 0.4 C 2.74 g/m*3 0.4 C 0 km/h
1418 15-12-2009 19:37:02 0.4 C 2.69 g/m*3 0.4 C 0 km/h
1419 15-12-2009 19:49:02 0.4 C 2.74 g/m*3 0.4 C 0 km/h
1420 15-12-2009 20:01:56 0.5 C 2.71 g/m*3 0.5 C 0 km/h
1421 15-12-2009 20:13:56 0.5 C 2.76 g/m*3 0.5 C 0 km/h
1422 15-12-2009 20:25:02 0.4 C 2.69 g/m*3 0.4 C 0 km/h
1423 15-12-2009 20:37:02 0.5 C 2.66 g/m*3 0.5 C 0 km/h
1424 15-12-2009 20:49:02 0.5 C 2.71 g/m*3 0.5 C 0 km/h
1425 15-12-2009 21:01:01 0.5 C 2.71 g/m*3 0.5 C 0 km/h
Sensor: Nr:Datum:Temp:Abs-Feuchte:Windchill:Wind:
Aussen-T/F 1426 15-12-2009 21:13:01 0.5 C 2.71 g/m*3 0.5 C 0 km/h
1427 15-12-2009 21:25:01 0.3 C 2.67 g/m*3 0.3 C 0 km/h
1428 15-12-2009 21:37:02 0.2 C 2.65 g/m*3 0.2 C 0 km/h
1429 15-12-2009 21:49:02 0.2 C 2.65 g/m*3 0.2 C 0 km/h
1430 15-12-2009 22:01:02 0.1 C 2.63 g/m*3 0.1 C 0 km/h
1431 15-12-2009 22:13:02 0.1 C 2.68 g/m*3 0.1 C 0 km/h
1432 15-12-2009 22:25:02 0.1 C 2.68 g/m*3 0.1 C 0 km/h
1433 15-12-2009 22:38:02 0 C 2.66 g/m*3 0 C 0 km/h
1434 15-12-2009 22:50:02 0 C 2.66 g/m*3 0 C 0 km/h
1435 15-12-2009 23:02:02 -0.1 C 2.69 g/m*3 -0.1 C 0 km/h
1436 15-12-2009 23:14:02 -0.2 C 2.72 g/m*3 -0.2 C 0 km/h
1437 15-12-2009 23:26:03 -0.2 C 2.72 g/m*3 -0.2 C 0 km/h
1438 15-12-2009 23:38:03 -0.2 C 2.72 g/m*3 -0.2 C 0 km/h
1439 15-12-2009 23:50:03 -0.2 C 2.72 g/m*3 -0.2 C 0 km/h
1440 16-12-2009 00:02:03 -0.2 C 2.77 g/m*3 -0.2 C 0 km/h
1441 16-12-2009 00:14:03 -0.2 C 2.77 g/m*3 -0.2 C 0 km/h
1442 16-12-2009 00:26:03 -0.3 C 2.75 g/m*3 -0.3 C 0 km/h
1443 16-12-2009 00:38:03 -0.4 C 2.78 g/m*3 -0.4 C 0 km/h
1444 16-12-2009 00:50:03 -0.5 C 2.76 g/m*3 -0.5 C 0 km/h
1445 16-12-2009 01:02:03 -0.9 C 2.73 g/m*3 -0.9 C 0 km/h
1446 16-12-2009 01:14:03 -1 C 2.76 g/m*3 -1 C 0 km/h
1447 16-12-2009 01:26:03 -1.1 C 2.78 g/m*3 -1.1 C 0 km/h
1448 16-12-2009 01:38:03 -1.1 C 2.74 g/m*3 -1.1 C 0 km/h
1449 16-12-2009 01:50:03 -1.1 C 2.74 g/m*3 -1.1 C 0 km/h
1450 16-12-2009 02:02:03 -1.2 C 2.76 g/m*3 -1.2 C 0 km/h
Sensor: Nr:Datum:Temp:Abs-Feuchte:Windchill:Wind:
Aussen-T/F 1451 16-12-2009 02:14:03 -1.3 C 2.74 g/m*3 -1.3 C 0 km/h
1452 16-12-2009 02:26:03 -1.3 C 2.79 g/m*3 -1.3 C 0 km/h
1453 16-12-2009 02:38:03 -1.2 C 2.81 g/m*3 -1.2 C 0 km/h
1454 16-12-2009 02:50:03 -1.1 C 2.83 g/m*3 -1.1 C 0 km/h
1455 16-12-2009 03:02:03 -1.1 C 2.78 g/m*3 -1.1 C 0 km/h
1456 16-12-2009 03:14:04 -1.1 C 2.78 g/m*3 -1.1 C 0 km/h
1457 16-12-2009 03:26:04 -1.1 C 2.78 g/m*3 -1.1 C 0 km/h
1458 16-12-2009 03:38:04 -1 C 2.85 g/m*3 -1 C 0 km/h
1459 16-12-2009 03:50:04 -1 C 2.85 g/m*3 -1 C 0 km/h
1460 16-12-2009 04:02:04 -1 C 2.8 g/m*3 -1 C 0 km/h
1461 16-12-2009 04:14:04 -1 C 2.8 g/m*3 -1 C 0 km/h
1462 16-12-2009 04:26:04 -1 C 2.8 g/m*3 -1 C 0 km/h
1463 16-12-2009 04:38:04 -1.1 C 2.78 g/m*3 -1.1 C 0 km/h
1464 16-12-2009 04:50:04 -1.1 C 2.78 g/m*3 -1.1 C 0 km/h
1465 16-12-2009 05:02:04 -1.1 C 2.83 g/m*3 -1.1 C 0 km/h
1466 16-12-2009 05:14:04 -1.2 C 2.81 g/m*3 -1.2 C 0 km/h
1467 16-12-2009 05:26:04 -1.2 C 2.85 g/m*3 -1.2 C 0 km/h
1468 16-12-2009 05:38:04 -1.2 C 2.85 g/m*3 -1.2 C 0 km/h
1469 16-12-2009 05:50:04 -1.1 C 2.92 g/m*3 -1.1 C 0 km/h
1470 16-12-2009 06:02:04 -1.1 C 2.87 g/m*3 -1.1 C 0 km/h
1471 16-12-2009 06:14:04 -1.1 C 2.87 g/m*3 -1.1 C 0 km/h
1472 16-12-2009 06:26:04 -1.2 C 2.85 g/m*3 -1.2 C 0 km/h
1473 16-12-2009 06:38:04 -1.2 C 2.85 g/m*3 -1.2 C 0 km/h
1474 16-12-2009 06:50:04 -1.2 C 2.85 g/m*3 -1.2 C 0 km/h
1475 16-12-2009 07:02:03 -1.2 C 2.85 g/m*3 -1.2 C 0 km/h
Sensor: Nr:Datum:Temp:Abs-Feuchte:Windchill:Wind:
Aussen-T/F 1476 16-12-2009 07:14:03 -1.2 C 2.85 g/m*3 -1.2 C 0 km/h
1477 16-12-2009 07:26:02 -1.2 C 2.85 g/m*3 -1.2 C 0 km/h
1478 16-12-2009 07:38:02 -1.2 C 2.9 g/m*3 -1.2 C 0 km/h
1479 16-12-2009 07:50:01 -1.2 C 2.9 g/m*3 -1.2 C 0 km/h
1480 16-12-2009 08:02:02 -1.2 C 2.9 g/m*3 -1.2 C 0 km/h
1481 16-12-2009 08:14:02 -1.2 C 2.9 g/m*3 -1.2 C 0 km/h
1482 16-12-2009 08:26:02 -1.2 C 2.9 g/m*3 -1.2 C 0 km/h
1483 16-12-2009 08:38:02 -1.2 C 2.9 g/m*3 -1.2 C 0 km/h
1484 16-12-2009 08:50:03 -1.2 C 2.9 g/m*3 -1.2 C 0 km/h
1485 16-12-2009 09:02:02 -1.2 C 2.94 g/m*3 -1.2 C 0 km/h
1486 16-12-2009 09:14:02 -1.2 C 2.94 g/m*3 -1.2 C 0 km/h
1487 16-12-2009 09:26:03 -1.1 C 2.96 g/m*3 -1.1 C 0 km/h
1488 16-12-2009 09:38:02 -1 C 2.98 g/m*3 -1 C 0 km/h
1489 16-12-2009 09:50:02 -0.8 C 2.98 g/m*3 -0.8 C 0 km/h
1490 16-12-2009 10:02:02 -0.6 C 3.02 g/m*3 -0.6 C 0 km/h
1491 16-12-2009 10:14:02 -0.4 C 3.02 g/m*3 -0.4 C 0 km/h
1492 16-12-2009 10:26:02 -0.2 C 3.01 g/m*3 -0.2 C 0 km/h
1493 16-12-2009 10:38:02 -0.2 C 2.91 g/m*3 -0.2 C 0 km/h
1494 16-12-2009 10:50:02 0 C 2.96 g/m*3 0 C 0 km/h
1495 16-12-2009 11:02:02 0.1 C 2.98 g/m*3 0.1 C 0 km/h
1496 16-12-2009 11:14:02 0.2 C 2.95 g/m*3 0.2 C 0 km/h
1497 16-12-2009 11:26:02 0.1 C 2.88 g/m*3 0.1 C 0 km/h
1498 16-12-2009 11:38:03 0.2 C 2.9 g/m*3 0.2 C 0 km/h
1499 16-12-2009 11:50:02 0.4 C 2.89 g/m*3 0.4 C 0 km/h
1500 16-12-2009 12:02:02 0.6 C 2.98 g/m*3 0.6 C 0 km/h
Sensor: Nr:Datum:Temp:Abs-Feuchte:Windchill:Wind:
Aussen-T/F 1501 16-12-2009 12:14:02 0.8 C 2.97 g/m*3 0.8 C 0 km/h
1502 16-12-2009 12:26:02 0.7 C 2.9 g/m*3 0.7 C 0 km/h
1503 16-12-2009 12:38:02 1 C 2.96 g/m*3 1 C 0 km/h
1504 16-12-2009 12:50:02 1.1 C 2.93 g/m*3 1.1 C 0 km/h
1505 16-12-2009 13:02:03 1.1 C 2.93 g/m*3 1.1 C 0 km/h
1506 16-12-2009 13:14:03 1.2 C 2.89 g/m*3 1.2 C 0 km/h
1507 16-12-2009 13:26:02 1.1 C 2.82 g/m*3 1.1 C 0 km/h
1508 16-12-2009 13:38:03 0.6 C 2.78 g/m*3 0.6 C 0 km/h
1509 16-12-2009 13:50:02 0.6 C 2.78 g/m*3 0.6 C 0 km/h
1510 16-12-2009 14:02:02 0.8 C 2.76 g/m*3 0.8 C 0 km/h
1511 16-12-2009 14:14:02 0.9 C 2.84 g/m*3 0.9 C 0 km/h
1512 16-12-2009 14:26:01 1 C 2.7 g/m*3 1 C 0 km/h
1513 16-12-2009 14:38:02 1.3 C 2.75 g/m*3 1.3 C 0 km/h
1514 16-12-2009 14:50:02 1.1 C 2.72 g/m*3 1.1 C 0 km/h
1515 16-12-2009 15:02:02 0.7 C 2.69 g/m*3 0.7 C 0 km/h
1516 16-12-2009 15:14:03 0.4 C 2.59 g/m*3 0.4 C 0 km/h
1517 16-12-2009 15:26:01 0 C 2.62 g/m*3 0 C 0 km/h
1518 16-12-2009 15:38:02 -0.3 C 2.61 g/m*3 -0.3 C 0 km/h
1519 16-12-2009 15:50:02 -0.5 C 2.62 g/m*3 -0.5 C 0 km/h
1520 16-12-2009 16:02:02 -0.6 C 2.6 g/m*3 -0.6 C 0 km/h
1521 16-12-2009 16:14:02 -0.7 C 2.58 g/m*3 -0.7 C 0 km/h
1522 16-12-2009 16:26:02 -0.9 C 2.55 g/m*3 -0.9 C 0 km/h
1523 16-12-2009 16:38:02 -1.1 C 2.51 g/m*3 -1.1 C 0 km/h
1524 16-12-2009 16:50:01 -1.3 C 2.48 g/m*3 -1.3 C 0 km/h
1525 16-12-2009 17:02:02 -1.5 C 2.49 g/m*3 -1.5 C 0 km/h
Sensor: Nr:Datum:Temp:Abs-Feuchte:Windchill:Wind:
Aussen-T/F 1526 16-12-2009 17:14:02 -1.7 C 2.5 g/m*3 -1.7 C 0 km/h
1527 16-12-2009 17:26:02 -1.7 C 2.58 g/m*3 -1.7 C 0 km/h
1528 16-12-2009 17:38:02 -1.8 C 2.61 g/m*3 -1.8 C 0 km/h
1529 16-12-2009 17:50:02 -1.9 C 2.63 g/m*3 -1.9 C 0 km/h
1530 16-12-2009 18:02:02 -2 C 2.66 g/m*3 -2 C 0 km/h
1531 16-12-2009 18:14:02 -2.1 C 2.68 g/m*3 -2.1 C 0 km/h
1532 16-12-2009 18:26:02 -2 C 2.7 g/m*3 -2 C 0 km/h
1533 16-12-2009 18:38:03 -2 C 2.7 g/m*3 -2 C 0 km/h
1534 16-12-2009 18:50:02 -2 C 2.7 g/m*3 -2 C 0 km/h
1535 16-12-2009 19:02:01 -1.9 C 2.76 g/m*3 -1.9 C 0 km/h
1536 16-12-2009 19:14:01 -1.9 C 2.76 g/m*3 -1.9 C 0 km/h
1537 16-12-2009 19:26:01 -2.1 C 2.72 g/m*3 -2.1 C 0 km/h
1538 16-12-2009 19:38:02 -2.3 C 2.68 g/m*3 -2.3 C 0 km/h
1539 16-12-2009 19:50:02 -2.5 C 2.65 g/m*3 -2.5 C 0 km/h
1540 16-12-2009 20:02:02 -2.6 C 2.67 g/m*3 -2.6 C 0 km/h
1541 16-12-2009 20:14:02 -2.8 C 2.67 g/m*3 -2.8 C 0 km/h
1542 16-12-2009 20:26:01 -2.9 C 2.69 g/m*3 -2.9 C 0 km/h
1543 16-12-2009 20:38:02 -3 C 2.71 g/m*3 -3 C 0 km/h
1544 16-12-2009 20:50:02 -3.1 C 2.69 g/m*3 -3.1 C 0 km/h
1545 16-12-2009 21:02:02 -3.2 C 2.71 g/m*3 -3.2 C 0 km/h
1546 16-12-2009 21:14:02 -3.2 C 2.75 g/m*3 -3.2 C 0 km/h
1547 16-12-2009 21:26:02 -3.3 C 2.73 g/m*3 -3.3 C 0 km/h
1548 16-12-2009 21:38:02 -3.5 C 2.69 g/m*3 -3.5 C 0 km/h
1549 16-12-2009 21:50:02 -3.7 C 2.69 g/m*3 -3.7 C 0 km/h
1550 16-12-2009 22:02:02 -3.7 C 2.73 g/m*3 -3.7 C 0 km/h
Sensor: Nr:Datum:Temp:Abs-Feuchte:Windchill:Wind:
Aussen-T/F 1551 16-12-2009 22:14:02 -3.8 C 2.71 g/m*3 -3.8 C 0 km/h
1552 16-12-2009 22:27:05 -3.9 C 2.69 g/m*3 -3.9 C 0 km/h
1553 16-12-2009 22:39:05 -3.9 C 2.73 g/m*3 -3.9 C 0 km/h
1554 16-12-2009 22:51:05 -3.8 C 2.78 g/m*3 -3.8 C 0 km/h
1555 16-12-2009 23:03:05 -3.8 C 2.78 g/m*3 -3.8 C 0 km/h
1556 16-12-2009 23:15:06 -4.1 C 2.72 g/m*3 -4.1 C 0 km/h
1557 16-12-2009 23:27:06 -4.3 C 2.69 g/m*3 -4.3 C 0 km/h
1558 16-12-2009 23:39:06 -4.4 C 2.67 g/m*3 -4.4 C 0 km/h
1559 16-12-2009 23:51:06 -4.4 C 2.67 g/m*3 -4.4 C 0 km/h
1560 17-12-2009 00:03:06 -4.6 C 2.66 g/m*3 -4.6 C 0 km/h
1561 17-12-2009 00:15:06 -4.7 C 2.64 g/m*3 -4.7 C 0 km/h
1562 17-12-2009 00:27:06 -4.8 C 2.66 g/m*3 -4.8 C 0 km/h
1563 17-12-2009 00:39:06 -5.1 C 2.6 g/m*3 -5.1 C 0 km/h
1564 17-12-2009 00:51:06 -5.3 C 2.57 g/m*3 -5.3 C 0 km/h
1565 17-12-2009 01:03:06 -5.2 C 2.62 g/m*3 -5.2 C 0 km/h
1566 17-12-2009 01:15:06 -5.4 C 2.58 g/m*3 -5.4 C 0 km/h
1567 17-12-2009 01:27:06 -5.3 C 2.63 g/m*3 -5.3 C 0 km/h
1568 17-12-2009 01:39:06 -5.3 C 2.63 g/m*3 -5.3 C 0 km/h
1569 17-12-2009 01:51:06 -5.6 C 2.58 g/m*3 -5.6 C 0 km/h
1570 17-12-2009 02:03:06 -5.6 C 2.58 g/m*3 -5.6 C 0 km/h
1571 17-12-2009 02:15:06 -5.5 C 2.63 g/m*3 -5.5 C 0 km/h
1572 17-12-2009 02:27:06 -5.6 C 2.64 g/m*3 -5.6 C 0 km/h
1573 17-12-2009 02:39:06 -5.7 C 2.62 g/m*3 -5.7 C 0 km/h
1574 17-12-2009 02:51:06 -5.9 C 2.58 g/m*3 -5.9 C 0 km/h
1575 17-12-2009 03:03:06 -5.9 C 2.58 g/m*3 -5.9 C 0 km/h
Sensor: Nr:Datum:Temp:Abs-Feuchte:Windchill:Wind:
Aussen-T/F 1576 17-12-2009 03:15:06 -5.6 C 2.67 g/m*3 -5.6 C 0 km/h
1577 17-12-2009 03:27:07 -5.4 C 2.75 g/m*3 -5.4 C 0 km/h
1578 17-12-2009 03:39:07 -5.3 C 2.77 g/m*3 -5.3 C 0 km/h
1579 17-12-2009 03:51:07 -5.4 C 2.75 g/m*3 -5.4 C 0 km/h
1580 17-12-2009 04:03:07 -5.3 C 2.77 g/m*3 -5.3 C 0 km/h
1581 17-12-2009 04:15:07 -5.4 C 2.75 g/m*3 -5.4 C 0 km/h
1582 17-12-2009 04:27:07 -5.5 C 2.73 g/m*3 -5.5 C 0 km/h
1583 17-12-2009 04:39:07 -5.6 C 2.71 g/m*3 -5.6 C 0 km/h
1584 17-12-2009 04:51:07 -5.9 C 2.65 g/m*3 -5.9 C 0 km/h
1585 17-12-2009 05:03:07 -5.9 C 2.65 g/m*3 -5.9 C 0 km/h
1586 17-12-2009 05:15:07 -6 C 2.63 g/m*3 -6 C 0 km/h
1587 17-12-2009 05:27:07 -5.8 C 2.67 g/m*3 -5.8 C 0 km/h
1588 17-12-2009 05:39:07 -5.9 C 2.65 g/m*3 -5.9 C 0 km/h
1589 17-12-2009 05:51:07 -6 C 2.63 g/m*3 -6 C 0 km/h
1590 17-12-2009 06:03:07 -6 C 2.63 g/m*3 -6 C 0 km/h
1591 17-12-2009 06:15:07 -6.1 C 2.61 g/m*3 -6.1 C 0 km/h
1592 17-12-2009 06:27:07 -6 C 2.63 g/m*3 -6 C 0 km/h
1593 17-12-2009 06:39:07 -6.2 C 2.59 g/m*3 -6.2 C 0 km/h
1594 17-12-2009 06:51:02 -6.2 C 2.59 g/m*3 -6.2 C 0 km/h
1595 17-12-2009 07:03:02 -6.1 C 2.61 g/m*3 -6.1 C 0 km/h
1596 17-12-2009 07:15:02 -6.2 C 2.59 g/m*3 -6.2 C 0 km/h
1597 17-12-2009 07:27:02 -6.4 C 2.55 g/m*3 -6.4 C 0 km/h
1598 17-12-2009 07:39:02 -6.5 C 2.53 g/m*3 -6.5 C 0 km/h
1599 17-12-2009 07:51:02 -6.6 C 2.52 g/m*3 -6.6 C 0 km/h
1600 17-12-2009 08:03:01 -6.7 C 2.5 g/m*3 -6.7 C 0 km/h
Sensor: Nr:Datum:Temp:Abs-Feuchte:Windchill:Wind:
Aussen-T/F 1601 17-12-2009 08:15:01 -6.7 C 2.5 g/m*3 -6.7 C 0 km/h
1602 17-12-2009 08:27:01 -6.6 C 2.52 g/m*3 -6.6 C 0 km/h
1603 17-12-2009 08:39:02 -6.2 C 2.62 g/m*3 -6.2 C 0 km/h
1604 17-12-2009 08:51:02 -6 C 2.66 g/m*3 -6 C 0 km/h
1605 17-12-2009 09:03:02 -6 C 2.66 g/m*3 -6 C 0 km/h
1606 17-12-2009 09:15:02 -6 C 2.63 g/m*3 -6 C 0 km/h
1607 17-12-2009 09:27:02 -5.9 C 2.65 g/m*3 -5.9 C 0 km/h
1608 17-12-2009 09:39:02 -5.8 C 2.67 g/m*3 -5.8 C 0 km/h
1609 17-12-2009 09:51:02 -5.7 C 2.69 g/m*3 -5.7 C 0 km/h
1610 17-12-2009 10:03:03 -5.6 C 2.71 g/m*3 -5.6 C 0 km/h
1611 17-12-2009 10:15:02 -5.5 C 2.73 g/m*3 -5.5 C 0 km/h
1612 17-12-2009 10:27:02 -5.3 C 2.77 g/m*3 -5.3 C 0 km/h
1613 17-12-2009 10:39:02 -5.1 C 2.81 g/m*3 -5.1 C 0 km/h
1614 17-12-2009 10:51:01 -4.9 C 2.85 g/m*3 -4.9 C 0 km/h
1615 17-12-2009 11:03:02 -4.5 C 2.93 g/m*3 -4.5 C 0 km/h
1616 17-12-2009 11:15:01 -4.2 C 2.96 g/m*3 -4.2 C 0 km/h
1617 17-12-2009 11:27:01 -4 C 3 g/m*3 -4 C 0 km/h
1618 17-12-2009 11:39:01 -4.1 C 2.94 g/m*3 -4.1 C 0 km/h
1619 17-12-2009 11:51:01 -4.1 C 2.94 g/m*3 -4.1 C 0 km/h
1620 17-12-2009 12:03:01 -4.1 C 2.94 g/m*3 -4.1 C 0 km/h
1621 17-12-2009 12:15:02 -3.8 C 3.01 g/m*3 -3.8 C 0 km/h
1622 17-12-2009 12:27:02 -3 C 3.14 g/m*3 -3 C 0 km/h
1623 17-12-2009 12:39:01 -2.3 C 3.05 g/m*3 -2.3 C 0 km/h
1624 17-12-2009 12:51:01 -1.9 C 2.84 g/m*3 -1.9 C 0 km/h
1625 17-12-2009 13:03:01 -1.8 C 2.78 g/m*3 -1.8 C 0 km/h
Sensor: Nr:Datum:Temp:Abs-Feuchte:Windchill:Wind:
Aussen-T/F 1626 17-12-2009 13:15:02 -1.7 C 2.76 g/m*3 -1.7 C 0 km/h
1627 17-12-2009 13:27:02 -1.6 C 2.64 g/m*3 -1.6 C 0 km/h
1628 17-12-2009 13:39:01 -1.5 C 2.62 g/m*3 -1.5 C 0 km/h
1629 17-12-2009 13:51:02 -1.5 C 2.62 g/m*3 -1.5 C 0 km/h
1630 17-12-2009 14:03:02 -1.4 C 2.64 g/m*3 -1.4 C 0 km/h
1631 17-12-2009 14:15:02 -1.4 C 2.64 g/m*3 -1.4 C 0 km/h
1632 17-12-2009 14:27:03 -1.3 C 2.66 g/m*3 -1.3 C 0 km/h
1633 17-12-2009 14:39:02 -1.3 C 2.61 g/m*3 -1.3 C 0 km/h
1634 17-12-2009 14:51:02 -1.3 C 2.52 g/m*3 -1.3 C 0 km/h
1635 17-12-2009 15:03:01 -1.3 C 2.48 g/m*3 -1.3 C 0 km/h
1636 17-12-2009 15:15:02 -1.6 C 2.43 g/m*3 -1.6 C 0 km/h
1637 17-12-2009 15:27:02 -1.7 C 2.45 g/m*3 -1.7 C 0 km/h
1638 17-12-2009 15:39:02 -2 C 2.49 g/m*3 -2 C 0 km/h
1639 17-12-2009 15:51:02 -2.2 C 2.54 g/m*3 -2.2 C 0 km/h
1640 17-12-2009 16:03:03 -2.3 C 2.56 g/m*3 -2.3 C 0 km/h
1641 17-12-2009 16:15:02 -2.5 C 2.52 g/m*3 -2.5 C 0 km/h
1642 17-12-2009 16:27:02 -2.7 C 2.53 g/m*3 -2.7 C 0 km/h
1643 17-12-2009 16:39:02 -2.6 C 2.51 g/m*3 -2.6 C 0 km/h
1644 17-12-2009 16:51:01 -2.6 C 2.51 g/m*3 -2.6 C 0 km/h
1645 17-12-2009 17:03:02 -3 C 2.44 g/m*3 -3 C 0 km/h
1646 17-12-2009 17:15:01 -3.5 C 2.39 g/m*3 -3.5 C 0 km/h
1647 17-12-2009 17:27:01 -3.8 C 2.37 g/m*3 -3.8 C 0 km/h
1648 17-12-2009 17:39:02 -4.1 C 2.36 g/m*3 -4.1 C 0 km/h
1649 17-12-2009 17:51:01 -4.2 C 2.34 g/m*3 -4.2 C 0 km/h
1650 17-12-2009 18:03:02 -4.5 C 2.29 g/m*3 -4.5 C 0 km/h
Sensor: Nr:Datum:Temp:Abs-Feuchte:Windchill:Wind:
Aussen-T/F 1651 17-12-2009 18:15:01 -4.6 C 2.28 g/m*3 -4.6 C 0 km/h
1652 17-12-2009 18:27:01 -4.5 C 2.33 g/m*3 -4.5 C 0 km/h
1653 17-12-2009 18:39:02 -4.6 C 2.35 g/m*3 -4.6 C 0 km/h
1654 17-12-2009 18:51:01 -4.6 C 2.35 g/m*3 -4.6 C 0 km/h
1655 17-12-2009 19:03:02 -4.7 C 2.37 g/m*3 -4.7 C 0 km/h
1656 17-12-2009 19:15:02 -4.6 C 2.42 g/m*3 -4.6 C 0 km/h
1657 17-12-2009 19:27:02 -4.7 C 2.4 g/m*3 -4.7 C 0 km/h
1658 17-12-2009 19:39:02 -4.7 C 2.44 g/m*3 -4.7 C 0 km/h
1659 17-12-2009 19:51:02 -4.6 C 2.45 g/m*3 -4.6 C 0 km/h
1660 17-12-2009 20:03:01 -4.7 C 2.44 g/m*3 -4.7 C 0 km/h
1661 17-12-2009 20:15:02 -4.6 C 2.49 g/m*3 -4.6 C 0 km/h
1662 17-12-2009 20:27:02 -4.4 C 2.52 g/m*3 -4.4 C 0 km/h
1663 17-12-2009 20:39:01 -4.2 C 2.56 g/m*3 -4.2 C 0 km/h
1664 17-12-2009 20:51:02 -4.1 C 2.58 g/m*3 -4.1 C 0 km/h
1665 17-12-2009 21:03:01 -4.1 C 2.54 g/m*3 -4.1 C 0 km/h
1666 17-12-2009 21:15:01 -4.1 C 2.54 g/m*3 -4.1 C 0 km/h
1667 17-12-2009 21:27:01 -4.1 C 2.58 g/m*3 -4.1 C 0 km/h
1668 17-12-2009 21:39:01 -4.1 C 2.58 g/m*3 -4.1 C 0 km/h
1669 17-12-2009 21:51:02 -4 C 2.56 g/m*3 -4 C 0 km/h
1670 17-12-2009 22:04:03 -4 C 2.56 g/m*3 -4 C 0 km/h
1671 17-12-2009 22:16:03 -3.9 C 2.54 g/m*3 -3.9 C 0 km/h
1672 17-12-2009 22:28:03 -3.9 C 2.51 g/m*3 -3.9 C 0 km/h
1673 17-12-2009 22:40:03 -3.7 C 2.54 g/m*3 -3.7 C 0 km/h
1674 17-12-2009 22:52:03 -3.7 C 2.54 g/m*3 -3.7 C 0 km/h
1675 17-12-2009 23:04:03 -3.7 C 2.54 g/m*3 -3.7 C 0 km/h
Sensor: Nr:Datum:Temp:Abs-Feuchte:Windchill:Wind:
Aussen-T/F 1676 17-12-2009 23:16:03 -3.8 C 2.49 g/m*3 -3.8 C 0 km/h
1677 17-12-2009 23:28:03 -4 C 2.41 g/m*3 -4 C 0 km/h
1678 17-12-2009 23:40:03 -4.2 C 2.38 g/m*3 -4.2 C 0 km/h
1679 17-12-2009 23:52:03 -4.3 C 2.4 g/m*3 -4.3 C 0 km/h
1680 18-12-2009 00:04:03 -4.6 C 2.35 g/m*3 -4.6 C 0 km/h
1681 18-12-2009 00:16:03 -4.9 C 2.33 g/m*3 -4.9 C 0 km/h
1682 18-12-2009 00:28:03 -5.1 C 2.37 g/m*3 -5.1 C 0 km/h
1683 18-12-2009 00:40:03 -5.3 C 2.33 g/m*3 -5.3 C 0 km/h
1684 18-12-2009 00:52:03 -5.4 C 2.35 g/m*3 -5.4 C 0 km/h
1685 18-12-2009 01:04:03 -5.5 C 2.33 g/m*3 -5.5 C 0 km/h
1686 18-12-2009 01:16:03 -5.6 C 2.35 g/m*3 -5.6 C 0 km/h
1687 18-12-2009 01:28:03 -5.7 C 2.33 g/m*3 -5.7 C 0 km/h
1688 18-12-2009 01:40:03 -5.6 C 2.38 g/m*3 -5.6 C 0 km/h
1689 18-12-2009 01:52:04 -5.6 C 2.41 g/m*3 -5.6 C 0 km/h
1690 18-12-2009 02:04:04 -5.4 C 2.41 g/m*3 -5.4 C 0 km/h
1691 18-12-2009 02:16:04 -5.7 C 2.33 g/m*3 -5.7 C 0 km/h
1692 18-12-2009 02:28:04 -6 C 2.28 g/m*3 -6 C 0 km/h
1693 18-12-2009 02:40:04 -6.1 C 2.3 g/m*3 -6.1 C 0 km/h
1694 18-12-2009 02:52:04 -6.3 C 2.26 g/m*3 -6.3 C 0 km/h
1695 18-12-2009 03:04:04 -6.4 C 2.28 g/m*3 -6.4 C 0 km/h
1696 18-12-2009 03:16:04 -6.5 C 2.29 g/m*3 -6.5 C 0 km/h
1697 18-12-2009 03:28:04 -6.6 C 2.27 g/m*3 -6.6 C 0 km/h
1698 18-12-2009 03:40:04 -6.7 C 2.26 g/m*3 -6.7 C 0 km/h
1699 18-12-2009 03:52:04 -6.6 C 2.3 g/m*3 -6.6 C 0 km/h
1700 18-12-2009 04:04:04 -6.7 C 2.32 g/m*3 -6.7 C 0 km/h
Sensor: Nr:Datum:Temp:Abs-Feuchte:Windchill:Wind:
Aussen-T/F 1701 18-12-2009 04:16:04 -6.8 C 2.3 g/m*3 -6.8 C 0 km/h
1702 18-12-2009 04:28:04 -6.8 C 2.3 g/m*3 -6.8 C 0 km/h
1703 18-12-2009 04:40:04 -6.9 C 2.31 g/m*3 -6.9 C 0 km/h
1704 18-12-2009 04:52:04 -7.1 C 2.28 g/m*3 -7.1 C 0 km/h
1705 18-12-2009 05:04:04 -7.1 C 2.28 g/m*3 -7.1 C 0 km/h
1706 18-12-2009 05:16:04 -7.2 C 2.29 g/m*3 -7.2 C 0 km/h
1707 18-12-2009 05:28:04 -7.4 C 2.26 g/m*3 -7.4 C 0 km/h
1708 18-12-2009 05:40:04 -7.4 C 2.26 g/m*3 -7.4 C 0 km/h
1709 18-12-2009 05:52:04 -7.5 C 2.24 g/m*3 -7.5 C 0 km/h
1710 18-12-2009 06:04:04 -7.5 C 2.24 g/m*3 -7.5 C 0 km/h
1711 18-12-2009 06:16:05 -7.6 C 2.25 g/m*3 -7.6 C 0 km/h
1712 18-12-2009 06:28:05 -7.7 C 2.24 g/m*3 -7.7 C 0 km/h
1713 18-12-2009 06:40:05 -7.8 C 2.22 g/m*3 -7.8 C 0 km/h
1714 18-12-2009 06:52:05 -7.9 C 2.2 g/m*3 -7.9 C 0 km/h
1715 18-12-2009 07:04:02 -7.9 C 2.2 g/m*3 -7.9 C 0 km/h
1716 18-12-2009 07:16:02 -7.8 C 2.22 g/m*3 -7.8 C 0 km/h
1717 18-12-2009 07:28:03 -7.7 C 2.24 g/m*3 -7.7 C 0 km/h
1718 18-12-2009 07:40:02 -7.3 C 2.33 g/m*3 -7.3 C 0 km/h
1719 18-12-2009 07:52:02 -7.1 C 2.37 g/m*3 -7.1 C 0 km/h
1720 18-12-2009 08:04:02 -6.8 C 2.42 g/m*3 -6.8 C 0 km/h
1721 18-12-2009 08:16:02 -6.6 C 2.46 g/m*3 -6.6 C 0 km/h
1722 18-12-2009 08:28:02 -6.5 C 2.44 g/m*3 -6.5 C 0 km/h
1723 18-12-2009 08:40:02 -6.6 C 2.43 g/m*3 -6.6 C 0 km/h
1724 18-12-2009 08:52:02 -6.7 C 2.38 g/m*3 -6.7 C 0 km/h
1725 18-12-2009 09:04:02 -6.7 C 2.38 g/m*3 -6.7 C 0 km/h
Sensor: Nr:Datum:Temp:Abs-Feuchte:Windchill:Wind:
Aussen-T/F 1726 18-12-2009 09:16:01 -6.6 C 2.39 g/m*3 -6.6 C 0 km/h
1727 18-12-2009 09:28:01 -6.4 C 2.43 g/m*3 -6.4 C 0 km/h
1728 18-12-2009 09:40:02 -6.1 C 2.48 g/m*3 -6.1 C 0 km/h
1729 18-12-2009 09:52:02 -5.7 C 2.56 g/m*3 -5.7 C 0 km/h
1730 18-12-2009 10:04:02 -5.4 C 2.58 g/m*3 -5.4 C 0 km/h
1731 18-12-2009 10:16:01 -5.2 C 2.58 g/m*3 -5.2 C 0 km/h
1732 18-12-2009 10:28:01 -4.8 C 2.63 g/m*3 -4.8 C 0 km/h
1733 18-12-2009 10:40:02 -4.4 C 2.67 g/m*3 -4.4 C 0 km/h
1734 18-12-2009 10:52:02 -4.2 C 2.6 g/m*3 -4.2 C 0 km/h
1735 18-12-2009 11:04:02 -4.1 C 2.51 g/m*3 -4.1 C 0 km/h
1736 18-12-2009 11:16:01 -3.9 C 2.54 g/m*3 -3.9 C 0 km/h
1737 18-12-2009 11:28:01 -3.7 C 2.54 g/m*3 -3.7 C 0 km/h
1738 18-12-2009 11:40:02 -3.6 C 2.52 g/m*3 -3.6 C 0 km/h
1739 18-12-2009 11:52:02 -3.4 C 2.52 g/m*3 -3.4 C 0 km/h
1740 18-12-2009 12:04:02 -3.1 C 2.5 g/m*3 -3.1 C 0 km/h
1741 18-12-2009 12:16:02 -2.9 C 2.49 g/m*3 -2.9 C 0 km/h
1742 18-12-2009 12:28:02 -3 C 2.44 g/m*3 -3 C 0 km/h
1743 18-12-2009 12:40:02 -3 C 2.44 g/m*3 -3 C 0 km/h
1744 18-12-2009 12:52:02 -3.2 C 2.44 g/m*3 -3.2 C 0 km/h
1745 18-12-2009 13:04:02 -3 C 2.51 g/m*3 -3 C 0 km/h
1746 18-12-2009 13:16:02 -2.8 C 2.59 g/m*3 -2.8 C 0 km/h
1747 18-12-2009 13:28:02 -2.8 C 2.55 g/m*3 -2.8 C 0 km/h
1748 18-12-2009 13:40:01 -2.4 C 2.66 g/m*3 -2.4 C 0 km/h
1749 18-12-2009 13:52:02 -2.1 C 2.68 g/m*3 -2.1 C 0 km/h
1750 18-12-2009 14:04:01 -2.1 C 2.64 g/m*3 -2.1 C 0 km/h
Sensor: Nr:Datum:Temp:Abs-Feuchte:Windchill:Wind:
Aussen-T/F 1751 18-12-2009 14:16:02 -2.2 C 2.66 g/m*3 -2.2 C 0 km/h
1752 18-12-2009 14:28:02 -2.1 C 2.72 g/m*3 -2.1 C 0 km/h
1753 18-12-2009 14:40:01 -2 C 2.78 g/m*3 -2 C 0 km/h
1754 18-12-2009 14:52:02 -1.9 C 2.84 g/m*3 -1.9 C 0 km/h
1755 18-12-2009 15:04:02 -1.8 C 2.91 g/m*3 -1.8 C 0 km/h
1756 18-12-2009 15:16:02 -1.8 C 2.86 g/m*3 -1.8 C 0 km/h
1757 18-12-2009 15:28:02 -1.9 C 2.89 g/m*3 -1.9 C 0 km/h
1758 18-12-2009 15:40:03 -1.9 C 2.89 g/m*3 -1.9 C 0 km/h
1759 18-12-2009 15:52:02 -1.9 C 2.8 g/m*3 -1.9 C 0 km/h
1760 18-12-2009 16:04:02 -2 C 2.74 g/m*3 -2 C 0 km/h
1761 18-12-2009 16:16:01 -2.1 C 2.89 g/m*3 -2.1 C 0 km/h
1762 18-12-2009 16:28:01 -2.5 C 3.01 g/m*3 -2.5 C 0 km/h
1763 18-12-2009 16:40:02 -2.6 C 3.07 g/m*3 -2.6 C 0 km/h
1764 18-12-2009 16:52:02 -2.7 C 3.05 g/m*3 -2.7 C 0 km/h
1765 18-12-2009 17:04:02 -2.9 C 3.05 g/m*3 -2.9 C 0 km/h
1766 18-12-2009 17:16:02 -3 C 3.02 g/m*3 -3 C 0 km/h
1767 18-12-2009 17:28:02 -3 C 3.02 g/m*3 -3 C 0 km/h
1768 18-12-2009 17:40:02 -2.9 C 3.01 g/m*3 -2.9 C 0 km/h
1769 18-12-2009 17:52:02 -3 C 2.83 g/m*3 -3 C 0 km/h
1770 18-12-2009 18:04:01 -3.2 C 2.59 g/m*3 -3.2 C 0 km/h
1771 18-12-2009 18:16:02 -3.4 C 2.52 g/m*3 -3.4 C 0 km/h
1772 18-12-2009 18:28:02 -3.6 C 2.45 g/m*3 -3.6 C 0 km/h
1773 18-12-2009 18:40:01 -3.7 C 2.35 g/m*3 -3.7 C 0 km/h
1774 18-12-2009 18:52:02 -3.8 C 2.12 g/m*3 -3.8 C 0 km/h
1775 18-12-2009 19:04:02 -3.8 C 2.08 g/m*3 -3.8 C 0 km/h
Sensor: Nr:Datum:Temp:Abs-Feuchte:Windchill:Wind:
Aussen-T/F 1776 18-12-2009 19:16:02 -3.8 C 2.12 g/m*3 -3.8 C 0 km/h
1777 18-12-2009 19:28:02 -4.1 C 1.96 g/m*3 -4.1 C 0 km/h
1778 18-12-2009 19:40:03 -4.2 C 1.8 g/m*3 -4.2 C 0 km/h
1779 18-12-2009 19:52:02 -4.2 C 1.8 g/m*3 -4.2 C 0 km/h
1780 18-12-2009 20:04:01 -4.6 C 1.61 g/m*3 -4.6 C 0 km/h
1781 18-12-2009 20:16:02 -4.8 C 1.59 g/m*3 -4.8 C 0 km/h
1782 18-12-2009 20:28:02 -5.1 C 1.55 g/m*3 -5.1 C 0 km/h
1783 18-12-2009 20:40:02 -5.2 C 1.51 g/m*3 -5.2 C 0 km/h
1784 18-12-2009 20:52:02 -5.2 C 1.54 g/m*3 -5.2 C 0 km/h
1785 18-12-2009 21:04:01 -5.3 C 1.5 g/m*3 -5.3 C 0 km/h
1786 18-12-2009 21:16:01 -5.4 C 1.49 g/m*3 -5.4 C 0 km/h
1787 18-12-2009 21:28:01 -5.4 C 1.59 g/m*3 -5.4 C 0 km/h
1788 18-12-2009 21:41:29 -5.4 C 1.69 g/m*3 -5.4 C 0 km/h
1789 18-12-2009 21:53:29 -5.4 C 1.72 g/m*3 -5.4 C 0 km/h
1790 18-12-2009 22:05:29 -5.7 C 1.78 g/m*3 -5.7 C 0 km/h
1791 18-12-2009 22:17:29 -5.8 C 1.86 g/m*3 -5.8 C 0 km/h
1792 18-12-2009 22:29:29 -6 C 1.93 g/m*3 -6 C 0 km/h
1793 18-12-2009 22:41:29 -7.2 C 1.83 g/m*3 -7.2 C 0 km/h
1794 18-12-2009 22:53:29 -7.4 C 1.89 g/m*3 -7.4 C 0 km/h
1795 18-12-2009 23:05:29 -7.3 C 1.96 g/m*3 -7.3 C 0 km/h
1796 18-12-2009 23:17:29 -7.6 C 1.92 g/m*3 -7.6 C 0 km/h
1797 18-12-2009 23:29:29 -7.8 C 1.89 g/m*3 -7.8 C 0 km/h
1798 18-12-2009 23:41:29 -7.9 C 1.87 g/m*3 -7.9 C 0 km/h
1799 18-12-2009 23:53:29 -8.2 C 1.75 g/m*3 -8.2 C 0 km/h
1800 19-12-2009 00:05:29 -8.5 C 1.69 g/m*3 -8.5 C 0 km/h
Sensor: Nr:Datum:Temp:Abs-Feuchte:Windchill:Wind:
Aussen-T/F 1801 19-12-2009 00:17:29 -8.6 C 1.65 g/m*3 -8.6 C 0 km/h
1802 19-12-2009 00:29:29 -8.8 C 1.57 g/m*3 -8.8 C 0 km/h
1803 19-12-2009 00:41:29 -9.1 C 1.49 g/m*3 -9.1 C 0 km/h
1804 19-12-2009 00:53:29 -9.4 C 1.43 g/m*3 -9.4 C 0 km/h
1805 19-12-2009 01:05:29 -9.6 C 1.38 g/m*3 -9.6 C 0 km/h
1806 19-12-2009 01:17:29 -9.8 C 1.36 g/m*3 -9.8 C 0 km/h
1807 19-12-2009 01:29:30 -9.9 C 1.35 g/m*3 -9.9 C 0 km/h
1808 19-12-2009 01:41:30 -10 C 1.3 g/m*3 -10 C 0 km/h
1809 19-12-2009 01:53:30 -10 C 1.27 g/m*3 -10 C 0 km/h
1810 19-12-2009 02:05:30 -10 C 1.25 g/m*3 -10 C 0 km/h
1811 19-12-2009 02:17:30 -10 C 1.22 g/m*3 -10 C 0 km/h
1812 19-12-2009 02:29:30 -10 C 1.25 g/m*3 -10 C 0 km/h
1813 19-12-2009 02:41:30 -10.4 C 1.17 g/m*3 -10.4 C 0 km/h
1814 19-12-2009 02:53:30 -11.2 C 1.1 g/m*3 -11.2 C 0 km/h
1815 19-12-2009 03:05:30 -11.8 C 1.07 g/m*3 -11.8 C 0 km/h
1816 19-12-2009 03:17:30 -12.1 C 1.06 g/m*3 -12.1 C 0 km/h
1817 19-12-2009 03:29:30 -12.3 C 1.07 g/m*3 -12.3 C 0 km/h
1818 19-12-2009 03:41:30 -12.5 C 1.07 g/m*3 -12.5 C 0 km/h
1819 19-12-2009 03:53:30 -12.5 C 1.09 g/m*3 -12.5 C 0 km/h
1820 19-12-2009 04:05:30 -12.5 C 1.09 g/m*3 -12.5 C 0 km/h
1821 19-12-2009 04:17:30 -12.6 C 1.08 g/m*3 -12.6 C 0 km/h
1822 19-12-2009 04:29:30 -12.6 C 1.1 g/m*3 -12.6 C 0 km/h
1823 19-12-2009 04:41:30 -12.6 C 1.08 g/m*3 -12.6 C 0 km/h
1824 19-12-2009 04:53:30 -12.6 C 1.06 g/m*3 -12.6 C 0 km/h
1825 19-12-2009 05:05:30 -12.7 C 1.04 g/m*3 -12.7 C 0 km/h
Sensor: Nr:Datum:Temp:Abs-Feuchte:Windchill:Wind:
Aussen-T/F 1826 19-12-2009 05:17:30 -13.1 C 1 g/m*3 -13.1 C 0 km/h
1827 19-12-2009 05:29:30 -13.2 C 1 g/m*3 -13.2 C 0 km/h
1828 19-12-2009 05:41:30 -13.3 C 1.01 g/m*3 -13.3 C 0 km/h
1829 19-12-2009 05:53:30 -13.4 C 1.02 g/m*3 -13.4 C 0 km/h
1830 19-12-2009 06:05:31 -13.5 C 1.03 g/m*3 -13.5 C 0 km/h
1831 19-12-2009 06:17:31 -13.6 C 1.02 g/m*3 -13.6 C 0 km/h
1832 19-12-2009 06:29:31 -13.7 C 1.03 g/m*3 -13.7 C 0 km/h
1833 19-12-2009 06:41:31 -13.9 C 1.01 g/m*3 -13.9 C 0 km/h
1834 19-12-2009 06:53:31 -13.7 C 1.05 g/m*3 -13.7 C 0 km/h
1835 19-12-2009 07:05:31 -13.9 C 1.05 g/m*3 -13.9 C 0 km/h
1836 19-12-2009 07:17:31 -14 C 1.04 g/m*3 -14 C 0 km/h
1837 19-12-2009 07:29:31 -13.7 C 1.08 g/m*3 -13.7 C 0 km/h
1838 19-12-2009 07:41:01 -13.5 C 1.1 g/m*3 -13.5 C 0 km/h
1839 19-12-2009 07:53:02 -13.4 C 1.13 g/m*3 -13.4 C 0 km/h
1840 19-12-2009 08:05:02 -13.5 C 1.12 g/m*3 -13.5 C 0 km/h
1841 19-12-2009 08:17:02 -13.7 C 1.1 g/m*3 -13.7 C 0 km/h
1842 19-12-2009 08:29:03 -13.7 C 1.1 g/m*3 -13.7 C 0 km/h
1843 19-12-2009 08:41:02 -14 C 1.07 g/m*3 -14 C 0 km/h
1844 19-12-2009 08:53:02 -14.1 C 1.07 g/m*3 -14.1 C 0 km/h
1845 19-12-2009 09:05:01 -14.1 C 1.07 g/m*3 -14.1 C 0 km/h
1846 19-12-2009 09:17:02 -13.9 C 1.1 g/m*3 -13.9 C 0 km/h
1847 19-12-2009 09:29:02 -13.9 C 1.1 g/m*3 -13.9 C 0 km/h
1848 19-12-2009 09:41:02 -13.9 C 1.08 g/m*3 -13.9 C 0 km/h
1849 19-12-2009 09:53:02 -13.7 C 1.12 g/m*3 -13.7 C 0 km/h
1850 19-12-2009 10:05:03 -13.5 C 1.14 g/m*3 -13.5 C 0 km/h
Sensor: Nr:Datum:Temp:Abs-Feuchte:Windchill:Wind:
Aussen-T/F 1851 19-12-2009 10:17:02 -13.4 C 1.16 g/m*3 -13.4 C 0 km/h
1852 19-12-2009 10:29:02 -13.2 C 1.16 g/m*3 -13.2 C 0 km/h
1853 19-12-2009 10:41:03 -13 C 1.18 g/m*3 -13 C 0 km/h
1854 19-12-2009 10:53:02 -12.7 C 1.19 g/m*3 -12.7 C 0 km/h
1855 19-12-2009 11:05:02 -12.8 C 1.16 g/m*3 -12.8 C 0 km/h
1856 19-12-2009 11:17:01 -12.8 C 1.14 g/m*3 -12.8 C 0 km/h
1857 19-12-2009 11:29:01 -12.7 C 1.15 g/m*3 -12.7 C 0 km/h
1858 19-12-2009 11:41:02 -12.6 C 1.14 g/m*3 -12.6 C 0 km/h
1859 19-12-2009 11:53:02 -12.6 C 1.12 g/m*3 -12.6 C 0 km/h
1860 19-12-2009 12:05:02 -12.3 C 1.15 g/m*3 -12.3 C 0 km/h
1861 19-12-2009 12:17:02 -12 C 1.13 g/m*3 -12 C 0 km/h
1862 19-12-2009 12:29:02 -11.5 C 1.16 g/m*3 -11.5 C 0 km/h
1863 19-12-2009 12:41:02 -11.7 C 1.12 g/m*3 -11.7 C 0 km/h
1864 19-12-2009 12:53:02 -11.7 C 1.12 g/m*3 -11.7 C 0 km/h
1865 19-12-2009 13:05:02 -11.6 C 1.11 g/m*3 -11.6 C 0 km/h
1866 19-12-2009 13:17:01 -11.6 C 1.11 g/m*3 -11.6 C 0 km/h
1867 19-12-2009 13:29:01 -11.4 C 1.12 g/m*3 -11.4 C 0 km/h
1868 19-12-2009 13:41:02 -11.3 C 1.11 g/m*3 -11.3 C 0 km/h
1869 19-12-2009 13:53:02 -11.1 C 1.13 g/m*3 -11.1 C 0 km/h
1870 19-12-2009 14:05:02 -11.2 C 1.12 g/m*3 -11.2 C 0 km/h
1871 19-12-2009 14:17:02 -11.2 C 1.12 g/m*3 -11.2 C 0 km/h
1872 19-12-2009 14:29:02 -11.1 C 1.11 g/m*3 -11.1 C 0 km/h
1873 19-12-2009 14:41:02 -11.2 C 1.12 g/m*3 -11.2 C 0 km/h
1874 19-12-2009 14:53:02 -11.2 C 1.12 g/m*3 -11.2 C 0 km/h
1875 19-12-2009 15:05:02 -11.2 C 1.12 g/m*3 -11.2 C 0 km/h
Sensor: Nr:Datum:Temp:Abs-Feuchte:Windchill:Wind:
Aussen-T/F 1876 19-12-2009 15:17:02 -11.1 C 1.15 g/m*3 -11.1 C 0 km/h
1877 19-12-2009 15:29:02 -11 C 1.16 g/m*3 -11 C 0 km/h
1878 19-12-2009 15:41:02 -11.2 C 1.14 g/m*3 -11.2 C 0 km/h
1879 19-12-2009 15:53:02 -11.4 C 1.12 g/m*3 -11.4 C 0 km/h
1880 19-12-2009 16:05:02 -11.7 C 1.12 g/m*3 -11.7 C 0 km/h
1881 19-12-2009 16:17:02 -12 C 1.11 g/m*3 -12 C 0 km/h
1882 19-12-2009 16:29:02 -12.1 C 1.1 g/m*3 -12.1 C 0 km/h
1883 19-12-2009 16:41:02 -12.3 C 1.11 g/m*3 -12.3 C 0 km/h
1884 19-12-2009 16:53:02 -12.4 C 1.1 g/m*3 -12.4 C 0 km/h
1885 19-12-2009 17:05:02 -12.4 C 1.1 g/m*3 -12.4 C 0 km/h
1886 19-12-2009 17:17:03 -12.4 C 1.12 g/m*3 -12.4 C 0 km/h
1887 19-12-2009 17:29:03 -12.5 C 1.09 g/m*3 -12.5 C 0 km/h
1888 19-12-2009 17:41:02 -12.7 C 1.07 g/m*3 -12.7 C 0 km/h
1889 19-12-2009 17:53:02 -13 C 1.05 g/m*3 -13 C 0 km/h
1890 19-12-2009 18:05:04 -13.2 C 1.05 g/m*3 -13.2 C 0 km/h
1891 19-12-2009 18:17:02 -13.3 C 1.06 g/m*3 -13.3 C 0 km/h
1892 19-12-2009 18:29:02 -13.4 C 1.05 g/m*3 -13.4 C 0 km/h
1893 19-12-2009 18:41:04 -13.6 C 1.05 g/m*3 -13.6 C 0 km/h
1894 19-12-2009 18:53:05 -13.8 C 1.04 g/m*3 -13.8 C 0 km/h
1895 19-12-2009 19:05:04 -13.5 C 1.1 g/m*3 -13.5 C 0 km/h
1896 19-12-2009 19:17:03 -13.9 C 1.1 g/m*3 -13.9 C 0 km/h
1897 19-12-2009 19:29:03 -13.9 C 1.1 g/m*3 -13.9 C 0 km/h
1898 19-12-2009 19:41:03 -14.2 C 1.09 g/m*3 -14.2 C 0 km/h
1899 19-12-2009 19:53:02 -14.4 C 1.07 g/m*3 -14.4 C 0 km/h
1900 19-12-2009 20:05:02 -14.6 C 1.07 g/m*3 -14.6 C 0 km/h
Sensor: Nr:Datum:Temp:Abs-Feuchte:Windchill:Wind:
Aussen-T/F 1901 19-12-2009 20:17:02 -14.8 C 1.06 g/m*3 -14.8 C 0 km/h
1902 19-12-2009 20:29:02 -14.8 C 1.07 g/m*3 -14.8 C 0 km/h
1903 19-12-2009 20:41:02 -14.9 C 1.07 g/m*3 -14.9 C 0 km/h
1904 19-12-2009 20:53:02 -15 C 1.06 g/m*3 -15 C 0 km/h
1905 19-12-2009 21:05:03 -15.1 C 1.05 g/m*3 -15.1 C 0 km/h
1906 19-12-2009 21:17:02 -15 C 1.06 g/m*3 -15 C 0 km/h
1907 19-12-2009 21:29:02 -15 C 1.06 g/m*3 -15 C 0 km/h
1908 19-12-2009 21:41:02 -15.1 C 1.05 g/m*3 -15.1 C 0 km/h
1909 19-12-2009 21:53:01 -15.3 C 1.03 g/m*3 -15.3 C 0 km/h
1910 19-12-2009 22:05:01 -15.3 C 1.05 g/m*3 -15.3 C 0 km/h
1911 19-12-2009 22:17:02 -15.4 C 1.02 g/m*3 -15.4 C 0 km/h
1912 19-12-2009 22:29:02 -15.5 C 1.02 g/m*3 -15.5 C 0 km/h
1913 19-12-2009 22:41:01 -15.6 C 1.02 g/m*3 -15.6 C 0 km/h
1914 19-12-2009 22:53:03 -15.7 C 1.02 g/m*3 -15.7 C 0 km/h
1915 19-12-2009 23:05:02 -15.8 C 0.99 g/m*3 -15.8 C 0 km/h
1916 19-12-2009 23:17:02 -15.8 C 0.99 g/m*3 -15.8 C 0 km/h
1917 19-12-2009 23:29:02 -15.8 C 0.99 g/m*3 -15.8 C 0 km/h
1918 19-12-2009 23:41:02 -15.9 C 0.98 g/m*3 -15.9 C 0 km/h
1919 19-12-2009 23:53:02 -15.9 C 0.98 g/m*3 -15.9 C 0 km/h
1920 20-12-2009 00:05:01 -16 C 0.98 g/m*3 -16 C 0 km/h
1921 20-12-2009 00:17:02 -16.1 C 0.97 g/m*3 -16.1 C 0 km/h
1922 20-12-2009 00:29:02 -16.2 C 0.96 g/m*3 -16.2 C 0 km/h
1923 20-12-2009 00:41:01 -16.3 C 0.95 g/m*3 -16.3 C 0 km/h
1924 20-12-2009 00:54:01 -16.2 C 0.98 g/m*3 -16.2 C 0 km/h
1925 20-12-2009 01:06:01 -16.2 C 0.98 g/m*3 -16.2 C 0 km/h
Sensor: Nr:Datum:Temp:Abs-Feuchte:Windchill:Wind:
Aussen-T/F 1926 20-12-2009 01:18:01 -16.3 C 0.95 g/m*3 -16.3 C 0 km/h
1927 20-12-2009 01:30:01 -16.4 C 0.95 g/m*3 -16.4 C 0 km/h
1928 20-12-2009 01:42:01 -16.4 C 0.95 g/m*3 -16.4 C 0 km/h
1929 20-12-2009 01:54:01 -16.4 C 0.95 g/m*3 -16.4 C 0 km/h
1930 20-12-2009 02:06:01 -16 C 0.99 g/m*3 -16 C 0 km/h
1931 20-12-2009 02:18:01 -16.1 C 0.98 g/m*3 -16.1 C 0 km/h
1932 20-12-2009 02:30:01 -16.1 C 0.98 g/m*3 -16.1 C 0 km/h
1933 20-12-2009 02:42:01 -16.1 C 0.98 g/m*3 -16.1 C 0 km/h
1934 20-12-2009 02:54:01 -16 C 0.99 g/m*3 -16 C 0 km/h
1935 20-12-2009 03:06:02 -16 C 0.99 g/m*3 -16 C 0 km/h
1936 20-12-2009 03:18:02 -15.9 C 1 g/m*3 -15.9 C 0 km/h
1937 20-12-2009 03:30:02 -15.8 C 1.01 g/m*3 -15.8 C 0 km/h
1938 20-12-2009 03:42:02 -15.4 C 1.06 g/m*3 -15.4 C 0 km/h
1939 20-12-2009 03:54:02 -14.8 C 1.12 g/m*3 -14.8 C 0 km/h
1940 20-12-2009 04:06:02 -14.5 C 1.13 g/m*3 -14.5 C 0 km/h
1941 20-12-2009 04:18:02 -14.7 C 1.1 g/m*3 -14.7 C 0 km/h
1942 20-12-2009 04:30:02 -14.8 C 1.09 g/m*3 -14.8 C 0 km/h
1943 20-12-2009 04:42:02 -14.5 C 1.12 g/m*3 -14.5 C 0 km/h
1944 20-12-2009 04:54:02 -14.3 C 1.13 g/m*3 -14.3 C 0 km/h
1945 20-12-2009 05:06:02 -14.2 C 1.16 g/m*3 -14.2 C 0 km/h
1946 20-12-2009 05:18:02 -14.1 C 1.17 g/m*3 -14.1 C 0 km/h
1947 20-12-2009 05:30:02 -13.3 C 1.24 g/m*3 -13.3 C 0 km/h
1948 20-12-2009 05:42:02 -12.8 C 1.26 g/m*3 -12.8 C 0 km/h
1949 20-12-2009 05:54:02 -13 C 1.22 g/m*3 -13 C 0 km/h
1950 20-12-2009 06:06:03 -12.8 C 1.22 g/m*3 -12.8 C 0 km/h
Sensor: Nr:Datum:Temp:Abs-Feuchte:Windchill:Wind:
Aussen-T/F 1951 20-12-2009 06:18:03 -12.5 C 1.25 g/m*3 -12.5 C 0 km/h
1952 20-12-2009 06:30:03 -12.3 C 1.25 g/m*3 -12.3 C 0 km/h
1953 20-12-2009 06:42:03 -12 C 1.25 g/m*3 -12 C 0 km/h
1954 20-12-2009 06:54:03 -12.5 C 1.19 g/m*3 -12.5 C 0 km/h
1955 20-12-2009 07:06:03 -12.8 C 1.18 g/m*3 -12.8 C 0 km/h
1956 20-12-2009 07:18:03 -12.9 C 1.19 g/m*3 -12.9 C 0 km/h
1957 20-12-2009 07:30:03 -12.7 C 1.23 g/m*3 -12.7 C 0 km/h
1958 20-12-2009 07:42:03 -12.5 C 1.27 g/m*3 -12.5 C 0 km/h
1959 20-12-2009 07:54:03 -12.1 C 1.33 g/m*3 -12.1 C 0 km/h
1960 20-12-2009 08:06:02 -11.6 C 1.38 g/m*3 -11.6 C 0 km/h
1961 20-12-2009 08:18:02 -11.3 C 1.41 g/m*3 -11.3 C 0 km/h
1962 20-12-2009 08:30:02 -11.2 C 1.42 g/m*3 -11.2 C 0 km/h
1963 20-12-2009 08:42:01 -11 C 1.44 g/m*3 -11 C 0 km/h
1964 20-12-2009 08:54:02 -10.8 C 1.46 g/m*3 -10.8 C 0 km/h
1965 20-12-2009 09:06:02 -10.6 C 1.51 g/m*3 -10.6 C 0 km/h
1966 20-12-2009 09:18:02 -10 C 1.55 g/m*3 -10 C 0 km/h
1967 20-12-2009 09:30:02 -9.6 C 1.6 g/m*3 -9.6 C 0 km/h
1968 20-12-2009 09:42:02 -9.1 C 1.59 g/m*3 -9.1 C 0 km/h
1969 20-12-2009 09:54:01 -8.8 C 1.6 g/m*3 -8.8 C 0 km/h
1970 20-12-2009 10:06:01 -8.5 C 1.61 g/m*3 -8.5 C 0 km/h
1971 20-12-2009 10:18:01 -8.2 C 1.62 g/m*3 -8.2 C 0 km/h
1972 20-12-2009 10:30:01 -8 C 1.64 g/m*3 -8 C 0 km/h
1973 20-12-2009 10:42:01 -7.8 C 1.67 g/m*3 -7.8 C 0 km/h
1974 20-12-2009 10:54:01 -7.4 C 1.69 g/m*3 -7.4 C 0 km/h
1975 20-12-2009 11:06:02 -7.2 C 1.68 g/m*3 -7.2 C 0 km/h
Sensor: Nr:Datum:Temp:Abs-Feuchte:Windchill:Wind:
Aussen-T/F 1976 20-12-2009 11:18:01 -7.1 C 1.7 g/m*3 -7.1 C 0 km/h
1977 20-12-2009 11:30:01 -7 C 1.71 g/m*3 -7 C 0 km/h
1978 20-12-2009 11:42:01 -6.7 C 1.81 g/m*3 -6.7 C 0 km/h
1979 20-12-2009 11:54:02 -6.5 C 1.83 g/m*3 -6.5 C 0 km/h
1980 20-12-2009 12:06:02 -6.2 C 1.87 g/m*3 -6.2 C 0 km/h
1981 20-12-2009 12:18:02 -6.1 C 1.92 g/m*3 -6.1 C 0 km/h
1982 20-12-2009 12:30:02 -5.9 C 2.01 g/m*3 -5.9 C 0 km/h
1983 20-12-2009 12:42:02 -6 C 2.06 g/m*3 -6 C 0 km/h
1984 20-12-2009 12:54:02 -5.9 C 2.14 g/m*3 -5.9 C 0 km/h
1985 20-12-2009 13:06:02 -5.8 C 2.25 g/m*3 -5.8 C 0 km/h
1986 20-12-2009 13:18:03 -5.7 C 2.33 g/m*3 -5.7 C 0 km/h
1987 20-12-2009 13:30:03 -5.7 C 2.36 g/m*3 -5.7 C 0 km/h
1988 20-12-2009 13:42:02 -5.6 C 2.41 g/m*3 -5.6 C 0 km/h
1989 20-12-2009 13:54:02 -5.5 C 2.46 g/m*3 -5.5 C 0 km/h
1990 20-12-2009 14:06:02 -5.4 C 2.51 g/m*3 -5.4 C 0 km/h
1991 20-12-2009 14:18:01 -5.3 C 2.57 g/m*3 -5.3 C 0 km/h
1992 20-12-2009 14:30:01 -5.3 C 2.57 g/m*3 -5.3 C 0 km/h
1993 20-12-2009 14:42:01 -5.2 C 2.62 g/m*3 -5.2 C 0 km/h
1994 20-12-2009 14:54:01 -5 C 2.66 g/m*3 -5 C 0 km/h
1995 20-12-2009 15:06:01 -5 C 2.66 g/m*3 -5 C 0 km/h
1996 20-12-2009 15:18:02 -4.9 C 2.68 g/m*3 -4.9 C 0 km/h
1997 20-12-2009 15:30:02 -4.7 C 2.71 g/m*3 -4.7 C 0 km/h
1998 20-12-2009 15:42:01 -4.4 C 2.74 g/m*3 -4.4 C 0 km/h
1999 20-12-2009 15:54:02 -4.3 C 2.76 g/m*3 -4.3 C 0 km/h
2000 20-12-2009 16:06:02 -4.3 C 2.72 g/m*3 -4.3 C 0 km/h
Sensor: Nr:Datum:Temp:Abs-Feuchte:Windchill:Wind:
Aussen-T/F 2001 20-12-2009 16:18:03 -4 C 2.82 g/m*3 -4 C 0 km/h
2002 20-12-2009 16:30:03 -3.8 C 2.86 g/m*3 -3.8 C 0 km/h
2003 20-12-2009 16:42:02 -3.7 C 2.84 g/m*3 -3.7 C 0 km/h
2004 20-12-2009 16:54:03 -3.7 C 2.8 g/m*3 -3.7 C 0 km/h
2005 20-12-2009 17:06:02 -3.5 C 2.84 g/m*3 -3.5 C 0 km/h
2006 20-12-2009 17:18:02 -3.2 C 2.9 g/m*3 -3.2 C 0 km/h
2007 20-12-2009 17:30:02 -3 C 2.95 g/m*3 -3 C 0 km/h
2008 20-12-2009 17:42:02 -2.8 C 2.95 g/m*3 -2.8 C 0 km/h
2009 20-12-2009 17:54:02 -2.8 C 2.95 g/m*3 -2.8 C 0 km/h
2010 20-12-2009 18:06:02 -2.7 C 2.97 g/m*3 -2.7 C 0 km/h
2011 20-12-2009 18:18:02 -2.7 C 2.97 g/m*3 -2.7 C 0 km/h
2012 20-12-2009 18:30:02 -2.7 C 3.01 g/m*3 -2.7 C 0 km/h
2013 20-12-2009 18:42:02 -2.5 C 3.05 g/m*3 -2.5 C 0 km/h
2014 20-12-2009 18:54:02 -2.3 C 3.1 g/m*3 -2.3 C 0 km/h
2015 20-12-2009 19:06:02 -2 C 3.12 g/m*3 -2 C 0 km/h
2016 20-12-2009 19:18:01 -1.8 C 3.12 g/m*3 -1.8 C 0 km/h
2017 20-12-2009 19:30:01 -1.9 C 3.1 g/m*3 -1.9 C 0 km/h
2018 20-12-2009 19:42:02 -2 C 3.08 g/m*3 -2 C 0 km/h
2019 20-12-2009 19:54:02 -1.9 C 3.14 g/m*3 -1.9 C 0 km/h
2020 20-12-2009 20:06:02 -1.7 C 3.14 g/m*3 -1.7 C 0 km/h
2021 20-12-2009 20:18:01 -1.6 C 3.16 g/m*3 -1.6 C 0 km/h
2022 20-12-2009 20:30:01 -1.7 C 3.14 g/m*3 -1.7 C 0 km/h
2023 20-12-2009 20:42:02 -1.6 C 3.16 g/m*3 -1.6 C 0 km/h
2024 20-12-2009 20:54:02 -1.5 C 3.19 g/m*3 -1.5 C 0 km/h
2025 20-12-2009 21:06:02 -1.5 C 3.14 g/m*3 -1.5 C 0 km/h
Sensor: Nr:Datum:Temp:Abs-Feuchte:Windchill:Wind:
Aussen-T/F 2026 20-12-2009 21:18:01 -1.3 C 3.14 g/m*3 -1.3 C 0 km/h
2027 20-12-2009 21:30:01 -1.1 C 3.14 g/m*3 -1.1 C 0 km/h
2028 20-12-2009 21:42:02 -1.1 C 3.05 g/m*3 -1.1 C 0 km/h
2029 20-12-2009 21:54:02 -1.2 C 2.99 g/m*3 -1.2 C 0 km/h
2030 20-12-2009 22:06:02 -1.3 C 2.92 g/m*3 -1.3 C 0 km/h
2031 20-12-2009 22:18:02 -1.8 C 2.78 g/m*3 -1.8 C 0 km/h
2032 20-12-2009 22:30:02 -2 C 2.78 g/m*3 -2 C 0 km/h
2033 20-12-2009 22:42:02 -2.1 C 2.76 g/m*3 -2.1 C 0 km/h
2034 20-12-2009 22:54:02 -2 C 2.87 g/m*3 -2 C 0 km/h
2035 20-12-2009 23:06:01 -2 C 2.87 g/m*3 -2 C 0 km/h
2036 20-12-2009 23:18:01 -2.1 C 2.85 g/m*3 -2.1 C 0 km/h
2037 20-12-2009 23:30:01 -2.3 C 2.85 g/m*3 -2.3 C 0 km/h
2038 20-12-2009 23:42:02 -2.6 C 2.83 g/m*3 -2.6 C 0 km/h
2039 20-12-2009 23:54:02 -2.6 C 2.87 g/m*3 -2.6 C 0 km/h
2040 21-12-2009 00:06:02 -2.7 C 2.85 g/m*3 -2.7 C 0 km/h
2041 21-12-2009 00:18:02 -3.1 C 2.81 g/m*3 -3.1 C 0 km/h
2042 21-12-2009 00:30:02 -3.2 C 2.79 g/m*3 -3.2 C 0 km/h
2043 21-12-2009 00:42:02 -3.2 C 2.79 g/m*3 -3.2 C 0 km/h
2044 21-12-2009 00:54:01 -3.3 C 2.77 g/m*3 -3.3 C 0 km/h
2045 21-12-2009 01:06:02 -3.3 C 2.77 g/m*3 -3.3 C 0 km/h
2046 21-12-2009 01:18:01 -3.7 C 2.73 g/m*3 -3.7 C 0 km/h
2047 21-12-2009 01:30:01 -3.9 C 2.73 g/m*3 -3.9 C 0 km/h
2048 21-12-2009 01:42:02 -4.1 C 2.72 g/m*3 -4.1 C 0 km/h
2049 21-12-2009 01:54:02 -4.2 C 2.74 g/m*3 -4.2 C 0 km/h
2050 21-12-2009 02:06:02 -4.2 C 2.74 g/m*3 -4.2 C 0 km/h
Sensor: Nr:Datum:Temp:Abs-Feuchte:Windchill:Wind:
Aussen-T/F 2051 21-12-2009 02:18:01 -4.4 C 2.7 g/m*3 -4.4 C 0 km/h
2052 21-12-2009 02:30:01 -4.3 C 2.76 g/m*3 -4.3 C 0 km/h
2053 21-12-2009 02:42:02 -4.1 C 2.8 g/m*3 -4.1 C 0 km/h
2054 21-12-2009 02:55:03 -4 C 2.82 g/m*3 -4 C 0 km/h
2055 21-12-2009 03:07:03 -3.8 C 2.86 g/m*3 -3.8 C 0 km/h
2056 21-12-2009 03:19:04 -4 C 2.82 g/m*3 -4 C 0 km/h
2057 21-12-2009 03:31:02 -3.9 C 2.84 g/m*3 -3.9 C 0 km/h
2058 21-12-2009 03:43:02 -4 C 2.82 g/m*3 -4 C 0 km/h
2059 21-12-2009 03:55:02 -4 C 2.82 g/m*3 -4 C 0 km/h
2060 21-12-2009 04:07:02 -4 C 2.85 g/m*3 -4 C 0 km/h
2061 21-12-2009 04:19:02 -4.4 C 2.74 g/m*3 -4.4 C 0 km/h
2062 21-12-2009 04:31:02 -4.8 C 2.66 g/m*3 -4.8 C 0 km/h
2063 21-12-2009 04:43:02 -5.2 C 2.62 g/m*3 -5.2 C 0 km/h
2064 21-12-2009 04:55:02 -5.3 C 2.63 g/m*3 -5.3 C 0 km/h
2065 21-12-2009 05:07:02 -5.3 C 2.67 g/m*3 -5.3 C 0 km/h
2066 21-12-2009 05:19:02 -5.3 C 2.67 g/m*3 -5.3 C 0 km/h
2067 21-12-2009 05:31:02 -5.3 C 2.7 g/m*3 -5.3 C 0 km/h
2068 21-12-2009 05:43:02 -5.1 C 2.77 g/m*3 -5.1 C 0 km/h
2069 21-12-2009 05:55:02 -5.1 C 2.77 g/m*3 -5.1 C 0 km/h
2070 21-12-2009 06:07:02 -4.8 C 2.83 g/m*3 -4.8 C 0 km/h
2071 21-12-2009 06:19:01 -4.6 C 2.87 g/m*3 -4.6 C 0 km/h
2072 21-12-2009 06:31:02 -4.9 C 2.74 g/m*3 -4.9 C 0 km/h
2073 21-12-2009 06:43:03 -5.1 C 2.7 g/m*3 -5.1 C 0 km/h
2074 21-12-2009 06:55:02 -5 C 2.76 g/m*3 -5 C 0 km/h
2075 21-12-2009 07:07:02 -4.7 C 2.82 g/m*3 -4.7 C 0 km/h
Sensor: Nr:Datum:Temp:Abs-Feuchte:Windchill:Wind:
Aussen-T/F 2076 21-12-2009 07:19:01 -4.3 C 2.86 g/m*3 -4.3 C 0 km/h
2077 21-12-2009 07:31:02 -4.2 C 2.81 g/m*3 -4.2 C 0 km/h
2078 21-12-2009 07:43:02 -4.3 C 2.76 g/m*3 -4.3 C 0 km/h
2079 21-12-2009 07:55:01 -4.5 C 2.72 g/m*3 -4.5 C 0 km/h
2080 21-12-2009 08:07:02 -4.8 C 2.63 g/m*3 -4.8 C 0 km/h
2081 21-12-2009 08:19:02 -5.2 C 2.55 g/m*3 -5.2 C 0 km/h
2082 21-12-2009 08:31:01 -5.6 C 2.51 g/m*3 -5.6 C 0 km/h
2083 21-12-2009 08:43:01 -5.7 C 2.49 g/m*3 -5.7 C 0 km/h
2084 21-12-2009 08:55:01 -6 C 2.47 g/m*3 -6 C 0 km/h
2085 21-12-2009 09:07:01 -5.8 C 2.54 g/m*3 -5.8 C 0 km/h
2086 21-12-2009 09:19:02 -5.7 C 2.56 g/m*3 -5.7 C 0 km/h
2087 21-12-2009 09:31:01 -5.7 C 2.56 g/m*3 -5.7 C 0 km/h
2088 21-12-2009 09:43:01 -5.2 C 2.68 g/m*3 -5.2 C 0 km/h
2089 21-12-2009 09:55:02 -5.3 C 2.63 g/m*3 -5.3 C 0 km/h
2090 21-12-2009 10:07:01 -5.1 C 2.67 g/m*3 -5.1 C 0 km/h
2091 21-12-2009 10:19:01 -4.7 C 2.75 g/m*3 -4.7 C 0 km/h
2092 21-12-2009 10:31:01 -4 C 2.89 g/m*3 -4 C 0 km/h
2093 21-12-2009 10:43:01 -3.3 C 2.88 g/m*3 -3.3 C 0 km/h
2094 21-12-2009 10:55:02 -2.8 C 2.91 g/m*3 -2.8 C 0 km/h
2095 21-12-2009 11:07:02 -2.6 C 2.83 g/m*3 -2.6 C 0 km/h
2096 21-12-2009 11:19:02 -2.6 C 2.83 g/m*3 -2.6 C 0 km/h
2097 21-12-2009 11:31:02 -2.4 C 2.87 g/m*3 -2.4 C 0 km/h
2098 21-12-2009 11:43:02 -2.2 C 2.91 g/m*3 -2.2 C 0 km/h
2099 21-12-2009 11:55:02 -2.1 C 2.93 g/m*3 -2.1 C 0 km/h
2100 21-12-2009 12:07:01 -1.7 C 2.97 g/m*3 -1.7 C 0 km/h
Sensor: Nr:Datum:Temp:Abs-Feuchte:Windchill:Wind:
Aussen-T/F 2101 21-12-2009 12:19:01 -1.1 C 3.05 g/m*3 -1.1 C 0 km/h
2102 21-12-2009 12:31:02 -0.9 C 3.1 g/m*3 -0.9 C 0 km/h
2103 21-12-2009 12:43:02 -0.8 C 3.07 g/m*3 -0.8 C 0 km/h
2104 21-12-2009 12:55:02 -0.8 C 3.16 g/m*3 -0.8 C 0 km/h
2105 21-12-2009 13:07:01 -0.8 C 3.21 g/m*3 -0.8 C 0 km/h
2106 21-12-2009 13:19:02 -0.7 C 3.32 g/m*3 -0.7 C 0 km/h
2107 21-12-2009 13:31:02 -0.6 C 3.35 g/m*3 -0.6 C 0 km/h
2108 21-12-2009 13:43:02 -0.4 C 3.39 g/m*3 -0.4 C 0 km/h
2109 21-12-2009 13:55:02 -0.4 C 3.39 g/m*3 -0.4 C 0 km/h
2110 21-12-2009 14:07:02 -0.4 C 3.39 g/m*3 -0.4 C 0 km/h
2111 21-12-2009 14:19:02 -0.3 C 3.42 g/m*3 -0.3 C 0 km/h
2112 21-12-2009 14:31:02 -0.2 C 3.49 g/m*3 -0.2 C 0 km/h
2113 21-12-2009 14:43:02 -0.1 C 3.51 g/m*3 -0.1 C 0 km/h
2114 21-12-2009 14:55:01 0.1 C 3.56 g/m*3 0.1 C 0 km/h
2115 21-12-2009 15:07:02 -0.1 C 3.56 g/m*3 -0.1 C 0 km/h
2116 21-12-2009 15:19:01 -0.2 C 3.58 g/m*3 -0.2 C 0 km/h
2117 21-12-2009 15:31:01 -0.2 C 3.63 g/m*3 -0.2 C 0 km/h
2118 21-12-2009 15:43:01 -0.2 C 3.63 g/m*3 -0.2 C 0 km/h
2119 21-12-2009 15:55:01 -0.3 C 3.65 g/m*3 -0.3 C 0 km/h
2120 21-12-2009 16:07:02 -0.3 C 3.65 g/m*3 -0.3 C 0 km/h
2121 21-12-2009 16:19:01 -0.5 C 3.65 g/m*3 -0.5 C 0 km/h
2122 21-12-2009 16:31:01 -0.7 C 3.6 g/m*3 -0.7 C 0 km/h
2123 21-12-2009 16:43:01 -0.8 C 3.62 g/m*3 -0.8 C 0 km/h
2124 21-12-2009 16:55:01 -0.9 C 3.64 g/m*3 -0.9 C 0 km/h
2125 21-12-2009 17:07:02 -0.8 C 3.67 g/m*3 -0.8 C 0 km/h
Sensor: Nr:Datum:Temp:Abs-Feuchte:Windchill:Wind:
Aussen-T/F 2126 21-12-2009 17:19:02 -0.9 C 3.69 g/m*3 -0.9 C 0 km/h
2127 21-12-2009 17:31:01 -1 C 3.71 g/m*3 -1 C 0 km/h
2128 21-12-2009 17:43:01 -0.9 C 3.73 g/m*3 -0.9 C 0 km/h
2129 21-12-2009 17:55:01 -0.7 C 3.83 g/m*3 -0.7 C 0 km/h
2130 21-12-2009 18:07:02 -0.7 C 3.83 g/m*3 -0.7 C 0 km/h
2131 21-12-2009 18:19:02 -0.6 C 3.86 g/m*3 -0.6 C 0 km/h
2132 21-12-2009 18:31:01 -0.5 C 3.88 g/m*3 -0.5 C 0 km/h
2133 21-12-2009 18:43:01 -0.2 C 3.97 g/m*3 -0.2 C 0 km/h
2134 21-12-2009 18:55:02 0 C 3.97 g/m*3 0 C 0 km/h
2135 21-12-2009 19:07:01 0.2 C 3.98 g/m*3 0.2 C 0 km/h
2136 21-12-2009 19:19:02 0.3 C 3.96 g/m*3 0.3 C 0 km/h
2137 21-12-2009 19:31:01 0.5 C 4.01 g/m*3 0.5 C 0 km/h
2138 21-12-2009 19:43:01 0.5 C 4.01 g/m*3 0.5 C 0 km/h
2139 21-12-2009 19:55:02 0.5 C 4.01 g/m*3 0.5 C 0 km/h
2140 21-12-2009 20:07:02 0.5 C 4.01 g/m*3 0.5 C 0 km/h
2141 21-12-2009 20:19:02 0.6 C 4.09 g/m*3 0.6 C 0 km/h
2142 21-12-2009 20:31:03 0.5 C 4.06 g/m*3 0.5 C 0 km/h
2143 21-12-2009 20:43:03 0.6 C 4.19 g/m*3 0.6 C 0 km/h
2144 21-12-2009 20:55:02 0.7 C 4.27 g/m*3 0.7 C 0 km/h
2145 21-12-2009 21:07:01 0.7 C 4.32 g/m*3 0.7 C 0 km/h
2146 21-12-2009 21:19:02 1 C 4.41 g/m*3 1 C 0 km/h
2147 21-12-2009 21:31:02 0.8 C 4.35 g/m*3 0.8 C 0 km/h
2148 21-12-2009 21:43:02 0.7 C 4.37 g/m*3 0.7 C 0 km/h
2149 21-12-2009 21:55:02 0.7 C 4.42 g/m*3 0.7 C 0 km/h
2150 21-12-2009 22:08:02 0.6 C 4.44 g/m*3 0.6 C 0 km/h
Sensor: Nr:Datum:Temp:Abs-Feuchte:Windchill:Wind:
Aussen-T/F 2151 21-12-2009 22:20:02 0.7 C 4.47 g/m*3 0.7 C 0 km/h
2152 21-12-2009 22:32:02 0.6 C 4.49 g/m*3 0.6 C 0 km/h
2153 21-12-2009 22:44:02 0.7 C 4.53 g/m*3 0.7 C 0 km/h
2154 21-12-2009 22:56:02 0.8 C 4.56 g/m*3 0.8 C 0 km/h
2155 21-12-2009 23:08:02 0.6 C 4.49 g/m*3 0.6 C 0 km/h
2156 21-12-2009 23:20:02 0.7 C 4.53 g/m*3 0.7 C 0 km/h
2157 21-12-2009 23:32:02 0.8 C 4.56 g/m*3 0.8 C 0 km/h
2158 21-12-2009 23:44:02 0.8 C 4.56 g/m*3 0.8 C 0 km/h
2159 21-12-2009 23:56:02 0.8 C 4.56 g/m*3 0.8 C 0 km/h
2160 22-12-2009 00:08:02 0.8 C 4.56 g/m*3 0.8 C 0 km/h
2161 22-12-2009 00:20:02 0.9 C 4.54 g/m*3 0.9 C 0 km/h
2162 22-12-2009 00:32:02 1 C 4.52 g/m*3 1 C 0 km/h
2163 22-12-2009 00:44:02 1.1 C 4.55 g/m*3 1.1 C 0 km/h
2164 22-12-2009 00:56:02 1 C 4.52 g/m*3 1 C 0 km/h
2165 22-12-2009 01:08:02 1 C 4.52 g/m*3 1 C 0 km/h
2166 22-12-2009 01:20:02 1 C 4.52 g/m*3 1 C 0 km/h
2167 22-12-2009 01:32:02 1 C 4.52 g/m*3 1 C 0 km/h
2168 22-12-2009 01:44:02 1 C 4.57 g/m*3 1 C 0 km/h
2169 22-12-2009 01:56:02 1.1 C 4.6 g/m*3 1.1 C 0 km/h
2170 22-12-2009 02:08:02 1.2 C 4.63 g/m*3 1.2 C 0 km/h
2171 22-12-2009 02:20:03 1.1 C 4.6 g/m*3 1.1 C 0 km/h
2172 22-12-2009 02:32:03 1.2 C 4.63 g/m*3 1.2 C 0 km/h
2173 22-12-2009 02:44:03 1.2 C 4.63 g/m*3 1.2 C 0 km/h
2174 22-12-2009 02:56:03 1 C 4.57 g/m*3 1 C 0 km/h
2175 22-12-2009 03:08:03 0.9 C 4.59 g/m*3 0.9 C 0 km/h
Sensor: Nr:Datum:Temp:Abs-Feuchte:Windchill:Wind:
Aussen-T/F 2176 22-12-2009 03:20:03 1.1 C 4.65 g/m*3 1.1 C 0 km/h
2177 22-12-2009 03:32:03 1.1 C 4.65 g/m*3 1.1 C 0 km/h
2178 22-12-2009 03:44:03 0.9 C 4.64 g/m*3 0.9 C 0 km/h
2179 22-12-2009 03:56:03 1.1 C 4.7 g/m*3 1.1 C 0 km/h
2180 22-12-2009 04:08:03 1.2 C 4.79 g/m*3 1.2 C 0 km/h
2181 22-12-2009 04:20:03 1.3 C 4.82 g/m*3 1.3 C 0 km/h
2182 22-12-2009 04:32:03 1.6 C 4.92 g/m*3 1.6 C 0 km/h
2183 22-12-2009 04:44:03 1.5 C 4.89 g/m*3 1.5 C 0 km/h
2184 22-12-2009 04:56:03 1.5 C 4.89 g/m*3 1.5 C 0 km/h
2185 22-12-2009 05:08:03 1.7 C 4.95 g/m*3 1.7 C 0 km/h
2186 22-12-2009 05:20:03 1.6 C 4.92 g/m*3 1.6 C 0 km/h
2187 22-12-2009 05:32:03 1.6 C 4.97 g/m*3 1.6 C 0 km/h
2188 22-12-2009 05:44:03 1.6 C 4.97 g/m*3 1.6 C 0 km/h
2189 22-12-2009 05:56:03 1.8 C 5.04 g/m*3 1.8 C 0 km/h
2190 22-12-2009 06:08:03 1.8 C 5.1 g/m*3 1.8 C 0 km/h
2191 22-12-2009 06:20:03 2 C 5.17 g/m*3 2 C 0 km/h
2192 22-12-2009 06:32:04 2.3 C 5.27 g/m*3 2.3 C 0 km/h
2193 22-12-2009 06:44:04 2.5 C 5.4 g/m*3 2.5 C 0 km/h
2194 22-12-2009 06:56:04 2.5 C 5.4 g/m*3 2.5 C 0 km/h
2195 22-12-2009 07:08:02 2.5 C 5.4 g/m*3 2.5 C 0 km/h
2196 22-12-2009 07:20:02 2.6 C 5.44 g/m*3 2.6 C 0 km/h
2197 22-12-2009 07:32:01 2.8 C 5.57 g/m*3 2.8 C 0 km/h
2198 22-12-2009 07:44:01 2.8 C 5.57 g/m*3 2.8 C 0 km/h
2199 22-12-2009 07:56:02 2.7 C 5.54 g/m*3 2.7 C 0 km/h
2200 22-12-2009 08:08:01 2.7 C 5.54 g/m*3 2.7 C 0 km/h
Sensor: Nr:Datum:Temp:Abs-Feuchte:Windchill:Wind:
Aussen-T/F 2201 22-12-2009 08:20:02 3 C 5.65 g/m*3 3 C 0 km/h
2202 22-12-2009 08:32:02 3 C 5.65 g/m*3 3 C 0 km/h
2203 22-12-2009 08:44:02 3.1 C 5.69 g/m*3 3.1 C 0 km/h
2204 22-12-2009 08:56:02 3 C 5.65 g/m*3 3 C 0 km/h
2205 22-12-2009 09:08:02 3 C 5.65 g/m*3 3 C 0 km/h
2206 22-12-2009 09:20:02 3.3 C 5.76 g/m*3 3.3 C 0 km/h
2207 22-12-2009 09:32:02 3.4 C 5.8 g/m*3 3.4 C 0 km/h
2208 22-12-2009 09:44:02 3.4 C 5.8 g/m*3 3.4 C 0 km/h
2209 22-12-2009 09:56:01 3.4 C 5.8 g/m*3 3.4 C 0 km/h
2210 22-12-2009 10:08:02 3.5 C 5.84 g/m*3 3.5 C 0 km/h
2211 22-12-2009 10:20:01 3.5 C 5.84 g/m*3 3.5 C 0 km/h
2212 22-12-2009 10:32:02 3.5 C 5.84 g/m*3 3.5 C 0 km/h
2213 22-12-2009 10:44:02 3.6 C 5.88 g/m*3 3.6 C 0 km/h
2214 22-12-2009 10:56:02 3.7 C 5.92 g/m*3 3.7 C 0 km/h
2215 22-12-2009 11:08:02 3.8 C 5.96 g/m*3 3.8 C 0 km/h
2216 22-12-2009 11:20:01 3.9 C 6 g/m*3 3.9 C 0 km/h
2217 22-12-2009 11:32:02 3.8 C 5.96 g/m*3 3.8 C 0 km/h
2218 22-12-2009 11:44:02 4 C 6.04 g/m*3 4 C 0 km/h
2219 22-12-2009 11:56:02 4.3 C 6.16 g/m*3 4.3 C 0 km/h
2220 22-12-2009 12:08:02 5 C 6.46 g/m*3 5 C 0 km/h
2221 22-12-2009 12:20:01 5.6 C 6.72 g/m*3 5.6 C 0 km/h
2222 22-12-2009 12:32:02 6 C 6.9 g/m*3 6 C 0 km/h
2223 22-12-2009 12:44:02 6 C 6.9 g/m*3 6 C 0 km/h
2224 22-12-2009 12:56:02 6 C 6.68 g/m*3 6 C 0 km/h
2225 22-12-2009 13:08:02 6 C 6.46 g/m*3 6 C 0 km/h
Sensor: Nr:Datum:Temp:Abs-Feuchte:Windchill:Wind:
Aussen-T/F 2226 22-12-2009 13:20:02 6.2 C 6.25 g/m*3 6.2 C 0 km/h
2227 22-12-2009 13:32:02 6.3 C 6.07 g/m*3 6.3 C 0 km/h
2228 22-12-2009 13:44:02 6.1 C 5.77 g/m*3 6.1 C 0 km/h
2229 22-12-2009 13:56:01 5.9 C 5.7 g/m*3 5.9 C 0 km/h
2230 22-12-2009 14:08:02 6 C 5.52 g/m*3 6 C 0 km/h
2231 22-12-2009 14:20:02 5.9 C 5.34 g/m*3 5.9 C 0 km/h
2232 22-12-2009 14:32:02 5.7 C 5.05 g/m*3 5.7 C 0 km/h
2233 22-12-2009 14:44:02 5.6 C 4.95 g/m*3 5.6 C 0 km/h
2234 22-12-2009 14:56:02 5.5 C 4.92 g/m*3 5.5 C 0 km/h
2235 22-12-2009 15:08:02 5.1 C 4.86 g/m*3 5.1 C 0 km/h
2236 22-12-2009 15:20:02 5 C 4.76 g/m*3 5 C 0 km/h
2237 22-12-2009 15:32:01 4.6 C 4.7 g/m*3 4.6 C 0 km/h
2238 22-12-2009 15:44:01 4.4 C 4.7 g/m*3 4.4 C 0 km/h
2239 22-12-2009 15:56:02 4.2 C 4.64 g/m*3 4.2 C 0 km/h
2240 22-12-2009 16:08:01 3.9 C 4.61 g/m*3 3.9 C 0 km/h
2241 22-12-2009 16:20:01 3.5 C 4.55 g/m*3 3.5 C 0 km/h
2242 22-12-2009 16:32:02 3.4 C 4.64 g/m*3 3.4 C 0 km/h
2243 22-12-2009 16:44:02 3.6 C 4.64 g/m*3 3.6 C 0 km/h
2244 22-12-2009 16:56:02 3.4 C 4.64 g/m*3 3.4 C 0 km/h
2245 22-12-2009 17:08:02 3.4 C 4.64 g/m*3 3.4 C 0 km/h
2246 22-12-2009 17:20:02 3.5 C 4.55 g/m*3 3.5 C 0 km/h
2247 22-12-2009 17:32:02 3.5 C 4.49 g/m*3 3.5 C 0 km/h
2248 22-12-2009 17:44:02 3.4 C 4.46 g/m*3 3.4 C 0 km/h
2249 22-12-2009 17:56:02 3.2 C 4.4 g/m*3 3.2 C 0 km/h
2250 22-12-2009 18:08:02 3 C 4.46 g/m*3 3 C 0 km/h
Sensor: Nr:Datum:Temp:Abs-Feuchte:Windchill:Wind:
Aussen-T/F 2251 22-12-2009 18:20:01 2.8 C 4.52 g/m*3 2.8 C 0 km/h
2252 22-12-2009 18:32:02 2.8 C 4.58 g/m*3 2.8 C 0 km/h
2253 22-12-2009 18:44:02 2.7 C 4.54 g/m*3 2.7 C 0 km/h
2254 22-12-2009 18:56:02 2.7 C 4.6 g/m*3 2.7 C 0 km/h
2255 22-12-2009 19:08:02 2.6 C 4.57 g/m*3 2.6 C 0 km/h
2256 22-12-2009 19:20:02 2.5 C 4.54 g/m*3 2.5 C 0 km/h
2257 22-12-2009 19:32:02 2.6 C 4.63 g/m*3 2.6 C 0 km/h
2258 22-12-2009 19:44:03 2.4 C 4.62 g/m*3 2.4 C 0 km/h
2259 22-12-2009 19:56:02 2.2 C 4.62 g/m*3 2.2 C 0 km/h
2260 22-12-2009 20:08:02 2.2 C 4.73 g/m*3 2.2 C 0 km/h
2261 22-12-2009 20:20:02 2.1 C 4.81 g/m*3 2.1 C 0 km/h
2262 22-12-2009 20:32:02 2.1 C 4.87 g/m*3 2.1 C 0 km/h
2263 22-12-2009 20:44:02 2 C 4.83 g/m*3 2 C 0 km/h
2264 22-12-2009 20:56:01 1.9 C 4.91 g/m*3 1.9 C 0 km/h
2265 22-12-2009 21:08:01 1.7 C 4.85 g/m*3 1.7 C 0 km/h
2266 22-12-2009 21:20:01 1.6 C 4.87 g/m*3 1.6 C 0 km/h
2267 22-12-2009 21:32:01 1.5 C 4.89 g/m*3 1.5 C 0 km/h
2268 22-12-2009 21:44:01 1.4 C 4.85 g/m*3 1.4 C 0 km/h
2269 22-12-2009 21:56:01 1.3 C 4.82 g/m*3 1.3 C 0 km/h
2270 22-12-2009 22:08:01 1 C 4.72 g/m*3 1 C 0 km/h
2271 22-12-2009 22:21:02 0.8 C 4.71 g/m*3 0.8 C 0 km/h
2272 22-12-2009 22:33:02 0.8 C 4.76 g/m*3 0.8 C 0 km/h
2273 22-12-2009 22:45:02 0.8 C 4.76 g/m*3 0.8 C 0 km/h
2274 22-12-2009 22:57:02 0.8 C 4.76 g/m*3 0.8 C 0 km/h
2275 22-12-2009 23:09:02 0.7 C 4.73 g/m*3 0.7 C 0 km/h
Sensor: Nr:Datum:Temp:Abs-Feuchte:Windchill:Wind:
Aussen-T/F 2276 22-12-2009 23:21:02 0.5 C 4.66 g/m*3 0.5 C 0 km/h
2277 22-12-2009 23:33:02 0.4 C 4.63 g/m*3 0.4 C 0 km/h
2278 22-12-2009 23:45:02 0.4 C 4.63 g/m*3 0.4 C 0 km/h
2279 22-12-2009 23:57:02 0.4 C 4.63 g/m*3 0.4 C 0 km/h
2280 23-12-2009 00:09:02 0.4 C 4.68 g/m*3 0.4 C 0 km/h
2281 23-12-2009 00:21:02 0.4 C 4.68 g/m*3 0.4 C 0 km/h
2282 23-12-2009 00:33:02 0.5 C 4.71 g/m*3 0.5 C 0 km/h
2283 23-12-2009 00:45:02 0.5 C 4.71 g/m*3 0.5 C 0 km/h
2284 23-12-2009 00:57:03 0.6 C 4.8 g/m*3 0.6 C 0 km/h
2285 23-12-2009 01:09:03 0.5 C 4.76 g/m*3 0.5 C 0 km/h
2286 23-12-2009 01:21:03 0.5 C 4.76 g/m*3 0.5 C 0 km/h
2287 23-12-2009 01:33:03 0.6 C 4.8 g/m*3 0.6 C 0 km/h
2288 23-12-2009 01:45:03 0.6 C 4.8 g/m*3 0.6 C 0 km/h
2289 23-12-2009 01:57:03 0.6 C 4.8 g/m*3 0.6 C 0 km/h
2290 23-12-2009 02:09:03 0.6 C 4.8 g/m*3 0.6 C 0 km/h
2291 23-12-2009 02:21:03 0.6 C 4.8 g/m*3 0.6 C 0 km/h
2292 23-12-2009 02:33:03 0.6 C 4.8 g/m*3 0.6 C 0 km/h
2293 23-12-2009 02:45:03 0.7 C 4.83 g/m*3 0.7 C 0 km/h
2294 23-12-2009 02:57:03 0.6 C 4.8 g/m*3 0.6 C 0 km/h
2295 23-12-2009 03:09:03 0.6 C 4.8 g/m*3 0.6 C 0 km/h
2296 23-12-2009 03:21:03 0.5 C 4.76 g/m*3 0.5 C 0 km/h
2297 23-12-2009 03:33:03 0.4 C 4.73 g/m*3 0.4 C 0 km/h
2298 23-12-2009 03:45:03 0.4 C 4.73 g/m*3 0.4 C 0 km/h
2299 23-12-2009 03:57:03 0.3 C 4.7 g/m*3 0.3 C 0 km/h
2300 23-12-2009 04:09:03 0.3 C 4.7 g/m*3 0.3 C 0 km/h
Sensor: Nr:Datum:Temp:Abs-Feuchte:Windchill:Wind:
Aussen-T/F 2301 23-12-2009 04:21:03 0.3 C 4.7 g/m*3 0.3 C 0 km/h
2302 23-12-2009 04:33:03 0.3 C 4.7 g/m*3 0.3 C 0 km/h
2303 23-12-2009 04:45:03 0.4 C 4.73 g/m*3 0.4 C 0 km/h
2304 23-12-2009 04:57:04 0.2 C 4.67 g/m*3 0.2 C 0 km/h
2305 23-12-2009 05:09:04 0.3 C 4.7 g/m*3 0.3 C 0 km/h
2306 23-12-2009 05:21:04 0.3 C 4.7 g/m*3 0.3 C 0 km/h
2307 23-12-2009 05:33:04 0.3 C 4.7 g/m*3 0.3 C 0 km/h
2308 23-12-2009 05:45:04 0.3 C 4.7 g/m*3 0.3 C 0 km/h
2309 23-12-2009 05:57:04 0.3 C 4.7 g/m*3 0.3 C 0 km/h
2310 23-12-2009 06:09:04 0.1 C 4.63 g/m*3 0.1 C 0 km/h
2311 23-12-2009 06:21:04 0.1 C 4.63 g/m*3 0.1 C 0 km/h
2312 23-12-2009 06:33:03 0.2 C 4.67 g/m*3 0.2 C 0 km/h
2313 23-12-2009 06:45:02 0.3 C 4.7 g/m*3 0.3 C 0 km/h
2314 23-12-2009 06:57:02 0.3 C 4.7 g/m*3 0.3 C 0 km/h
2315 23-12-2009 07:09:02 0.3 C 4.7 g/m*3 0.3 C 0 km/h
2316 23-12-2009 07:21:02 0.1 C 4.63 g/m*3 0.1 C 0 km/h
2317 23-12-2009 07:33:02 -0.2 C 4.54 g/m*3 -0.2 C 0 km/h
2318 23-12-2009 07:45:02 -0.4 C 4.48 g/m*3 -0.4 C 0 km/h
2319 23-12-2009 07:57:02 -0.6 C 4.42 g/m*3 -0.6 C 0 km/h
2320 23-12-2009 08:09:02 -1 C 4.29 g/m*3 -1 C 0 km/h
2321 23-12-2009 08:21:02 -1.2 C 4.24 g/m*3 -1.2 C 0 km/h
2322 23-12-2009 08:33:02 -1.4 C 4.18 g/m*3 -1.4 C 0 km/h
2323 23-12-2009 08:45:01 -1.4 C 4.18 g/m*3 -1.4 C 0 km/h
2324 23-12-2009 08:57:01 -1.4 C 4.18 g/m*3 -1.4 C 0 km/h
2325 23-12-2009 09:09:01 -1.4 C 4.18 g/m*3 -1.4 C 0 km/h
Sensor: Nr:Datum:Temp:Abs-Feuchte:Windchill:Wind:
Aussen-T/F 2326 23-12-2009 09:21:01 -1.2 C 4.24 g/m*3 -1.2 C 0 km/h
2327 23-12-2009 09:33:01 -1 C 4.29 g/m*3 -1 C 0 km/h
2328 23-12-2009 09:45:01 -0.5 C 4.45 g/m*3 -0.5 C 0 km/h
2329 23-12-2009 09:57:01 -0.3 C 4.51 g/m*3 -0.3 C 0 km/h
2330 23-12-2009 10:09:01 0.1 C 4.63 g/m*3 0.1 C 0 km/h
2331 23-12-2009 10:21:02 0.2 C 4.67 g/m*3 0.2 C 0 km/h
2332 23-12-2009 10:33:01 0.2 C 4.67 g/m*3 0.2 C 0 km/h
2333 23-12-2009 10:45:02 0.5 C 4.76 g/m*3 0.5 C 0 km/h
2334 23-12-2009 10:57:02 0.8 C 4.86 g/m*3 0.8 C 0 km/h
2335 23-12-2009 11:09:02 0.8 C 4.81 g/m*3 0.8 C 0 km/h
2336 23-12-2009 11:21:03 0.9 C 4.74 g/m*3 0.9 C 0 km/h
2337 23-12-2009 11:33:02 0.9 C 4.69 g/m*3 0.9 C 0 km/h
2338 23-12-2009 11:45:02 0.5 C 4.46 g/m*3 0.5 C 0 km/h
2339 23-12-2009 11:57:02 0.4 C 4.43 g/m*3 0.4 C 0 km/h
2340 23-12-2009 12:09:02 0.4 C 4.43 g/m*3 0.4 C 0 km/h
2341 23-12-2009 12:21:02 0.9 C 4.64 g/m*3 0.9 C 0 km/h
2342 23-12-2009 12:33:02 1 C 4.62 g/m*3 1 C 0 km/h
2343 23-12-2009 12:45:02 1 C 4.62 g/m*3 1 C 0 km/h
2344 23-12-2009 12:57:02 1.1 C 4.65 g/m*3 1.1 C 0 km/h
2345 23-12-2009 13:09:01 1.5 C 4.78 g/m*3 1.5 C 0 km/h
2346 23-12-2009 13:21:02 2 C 4.89 g/m*3 2 C 0 km/h
2347 23-12-2009 13:33:02 2.3 C 4.93 g/m*3 2.3 C 0 km/h
2348 23-12-2009 13:45:02 2.5 C 5 g/m*3 2.5 C 0 km/h
2349 23-12-2009 13:57:03 2.4 C 4.97 g/m*3 2.4 C 0 km/h
2350 23-12-2009 14:09:02 1.6 C 4.65 g/m*3 1.6 C 0 km/h
Sensor: Nr:Datum:Temp:Abs-Feuchte:Windchill:Wind:
Aussen-T/F 2351 23-12-2009 14:21:02 2 C 4.83 g/m*3 2 C 0 km/h
2352 23-12-2009 14:33:02 2.3 C 4.93 g/m*3 2.3 C 0 km/h
2353 23-12-2009 14:45:02 2.3 C 4.93 g/m*3 2.3 C 0 km/h
2354 23-12-2009 14:57:02 1.8 C 4.77 g/m*3 1.8 C 0 km/h
2355 23-12-2009 15:09:02 1.6 C 4.76 g/m*3 1.6 C 0 km/h
2356 23-12-2009 15:21:01 1.3 C 4.66 g/m*3 1.3 C 0 km/h
2357 23-12-2009 15:33:02 1.2 C 4.63 g/m*3 1.2 C 0 km/h
2358 23-12-2009 15:45:02 1 C 4.62 g/m*3 1 C 0 km/h
2359 23-12-2009 15:57:02 1.1 C 4.65 g/m*3 1.1 C 0 km/h
2360 23-12-2009 16:09:02 0.8 C 4.61 g/m*3 0.8 C 0 km/h
2361 23-12-2009 16:21:02 0.5 C 4.51 g/m*3 0.5 C 0 km/h
2362 23-12-2009 16:33:02 0.4 C 4.48 g/m*3 0.4 C 0 km/h
2363 23-12-2009 16:45:02 0.2 C 4.47 g/m*3 0.2 C 0 km/h
2364 23-12-2009 16:57:02 0 C 4.41 g/m*3 0 C 0 km/h
2365 23-12-2009 17:09:01 -0.2 C 4.4 g/m*3 -0.2 C 0 km/h
2366 23-12-2009 17:21:02 -0.3 C 4.37 g/m*3 -0.3 C 0 km/h
2367 23-12-2009 17:33:01 -0.3 C 4.41 g/m*3 -0.3 C 0 km/h
2368 23-12-2009 17:45:01 -0.5 C 4.35 g/m*3 -0.5 C 0 km/h
2369 23-12-2009 17:57:01 -0.5 C 4.35 g/m*3 -0.5 C 0 km/h
2370 23-12-2009 18:09:02 -0.5 C 4.35 g/m*3 -0.5 C 0 km/h
2371 23-12-2009 18:21:01 -0.6 C 4.32 g/m*3 -0.6 C 0 km/h
2372 23-12-2009 18:33:02 -0.7 C 4.34 g/m*3 -0.7 C 0 km/h
2373 23-12-2009 18:45:02 -0.7 C 4.34 g/m*3 -0.7 C 0 km/h
2374 23-12-2009 18:57:02 -0.3 C 4.46 g/m*3 -0.3 C 0 km/h
2375 23-12-2009 19:09:02 0 C 4.6 g/m*3 0 C 0 km/h
Sensor: Nr:Datum:Temp:Abs-Feuchte:Windchill:Wind:
Aussen-T/F 2376 23-12-2009 19:21:02 0.2 C 4.67 g/m*3 0.2 C 0 km/h
2377 23-12-2009 19:33:02 0.2 C 4.67 g/m*3 0.2 C 0 km/h
2378 23-12-2009 19:45:02 0.3 C 4.7 g/m*3 0.3 C 0 km/h
2379 23-12-2009 19:57:02 0.3 C 4.7 g/m*3 0.3 C 0 km/h
2380 23-12-2009 20:09:02 0.5 C 4.76 g/m*3 0.5 C 0 km/h
2381 23-12-2009 20:21:02 0.6 C 4.8 g/m*3 0.6 C 0 km/h
2382 23-12-2009 20:33:02 0.7 C 4.83 g/m*3 0.7 C 0 km/h
2383 23-12-2009 20:45:01 0.8 C 4.86 g/m*3 0.8 C 0 km/h
2384 23-12-2009 20:57:01 1 C 4.93 g/m*3 1 C 0 km/h
2385 23-12-2009 21:09:01 1 C 4.93 g/m*3 1 C 0 km/h
2386 23-12-2009 21:21:01 1.1 C 4.96 g/m*3 1.1 C 0 km/h
2387 23-12-2009 21:33:01 1.2 C 5 g/m*3 1.2 C 0 km/h
2388 23-12-2009 21:45:01 1.2 C 5 g/m*3 1.2 C 0 km/h
2389 23-12-2009 21:57:01 1.3 C 5.03 g/m*3 1.3 C 0 km/h
2390 23-12-2009 22:09:01 1.3 C 5.03 g/m*3 1.3 C 0 km/h
2391 23-12-2009 22:21:02 1.3 C 5.03 g/m*3 1.3 C 0 km/h
2392 23-12-2009 22:33:01 1.3 C 5.03 g/m*3 1.3 C 0 km/h
2393 23-12-2009 22:45:02 1.2 C 5 g/m*3 1.2 C 0 km/h
2394 23-12-2009 22:57:02 1.1 C 4.96 g/m*3 1.1 C 0 km/h
2395 23-12-2009 23:09:02 1.1 C 4.96 g/m*3 1.1 C 0 km/h
2396 23-12-2009 23:21:02 1.1 C 4.96 g/m*3 1.1 C 0 km/h
2397 23-12-2009 23:33:02 1.2 C 5 g/m*3 1.2 C 0 km/h
2398 23-12-2009 23:45:02 1.2 C 5 g/m*3 1.2 C 0 km/h
2399 23-12-2009 23:57:02 1.2 C 5 g/m*3 1.2 C 0 km/h
2400 24-12-2009 00:09:01 1.2 C 5 g/m*3 1.2 C 0 km/h
Sensor: Nr:Datum:Temp:Abs-Feuchte:Windchill:Wind:
Aussen-T/F 2401 24-12-2009 00:21:02 1.2 C 5 g/m*3 1.2 C 0 km/h
2402 24-12-2009 00:34:03 1.1 C 4.96 g/m*3 1.1 C 0 km/h
2403 24-12-2009 00:46:03 1.2 C 5 g/m*3 1.2 C 0 km/h
2404 24-12-2009 00:58:03 1.2 C 5 g/m*3 1.2 C 0 km/h
2405 24-12-2009 01:10:03 1.1 C 4.91 g/m*3 1.1 C 0 km/h
2406 24-12-2009 01:22:03 1.1 C 4.91 g/m*3 1.1 C 0 km/h
2407 24-12-2009 01:34:04 1.2 C 4.95 g/m*3 1.2 C 0 km/h
2408 24-12-2009 01:46:04 1.2 C 4.95 g/m*3 1.2 C 0 km/h
2409 24-12-2009 01:58:04 1.1 C 4.91 g/m*3 1.1 C 0 km/h
2410 24-12-2009 02:10:04 1 C 4.88 g/m*3 1 C 0 km/h
2411 24-12-2009 02:22:04 0.9 C 4.85 g/m*3 0.9 C 0 km/h
2412 24-12-2009 02:34:04 1 C 4.88 g/m*3 1 C 0 km/h
2413 24-12-2009 02:46:04 0.9 C 4.9 g/m*3 0.9 C 0 km/h
2414 24-12-2009 02:58:04 0.6 C 4.75 g/m*3 0.6 C 0 km/h
2415 24-12-2009 03:10:04 0.6 C 4.8 g/m*3 0.6 C 0 km/h
2416 24-12-2009 03:22:04 0.7 C 4.83 g/m*3 0.7 C 0 km/h
2417 24-12-2009 03:34:04 0.8 C 4.86 g/m*3 0.8 C 0 km/h
2418 24-12-2009 03:46:04 0.9 C 4.9 g/m*3 0.9 C 0 km/h
2419 24-12-2009 03:58:04 1 C 4.93 g/m*3 1 C 0 km/h
2420 24-12-2009 04:10:04 1.1 C 4.96 g/m*3 1.1 C 0 km/h
2421 24-12-2009 04:22:04 1.1 C 4.96 g/m*3 1.1 C 0 km/h
2422 24-12-2009 04:34:04 1.2 C 5 g/m*3 1.2 C 0 km/h
2423 24-12-2009 04:46:04 1.2 C 5 g/m*3 1.2 C 0 km/h
2424 24-12-2009 04:58:04 1.3 C 5.03 g/m*3 1.3 C 0 km/h
2425 24-12-2009 05:10:04 1.3 C 5.03 g/m*3 1.3 C 0 km/h
Sensor: Nr:Datum:Temp:Abs-Feuchte:Windchill:Wind:
Aussen-T/F 2426 24-12-2009 05:22:04 1.4 C 5.07 g/m*3 1.4 C 0 km/h
2427 24-12-2009 05:34:04 1.3 C 5.03 g/m*3 1.3 C 0 km/h
2428 24-12-2009 05:46:05 1.3 C 5.03 g/m*3 1.3 C 0 km/h
2429 24-12-2009 05:58:05 1.4 C 5.01 g/m*3 1.4 C 0 km/h
2430 24-12-2009 06:10:05 1.3 C 4.98 g/m*3 1.3 C 0 km/h
2431 24-12-2009 06:22:05 1.2 C 4.95 g/m*3 1.2 C 0 km/h
2432 24-12-2009 06:34:05 1.3 C 4.98 g/m*3 1.3 C 0 km/h
2433 24-12-2009 06:46:05 1.3 C 4.98 g/m*3 1.3 C 0 km/h
2434 24-12-2009 06:58:05 1.3 C 4.98 g/m*3 1.3 C 0 km/h
2435 24-12-2009 07:10:05 1.4 C 5.01 g/m*3 1.4 C 0 km/h
2436 24-12-2009 07:22:05 1.4 C 5.01 g/m*3 1.4 C 0 km/h
2437 24-12-2009 07:34:05 1.4 C 5.01 g/m*3 1.4 C 0 km/h
2438 24-12-2009 07:46:05 1.4 C 5.01 g/m*3 1.4 C 0 km/h
2439 24-12-2009 07:58:05 1.4 C 5.01 g/m*3 1.4 C 0 km/h
2440 24-12-2009 08:10:05 1.5 C 5.05 g/m*3 1.5 C 0 km/h
2441 24-12-2009 08:22:05 1.6 C 5.08 g/m*3 1.6 C 0 km/h
2442 24-12-2009 08:34:05 1.6 C 5.08 g/m*3 1.6 C 0 km/h
2443 24-12-2009 08:46:05 1.6 C 5.08 g/m*3 1.6 C 0 km/h
2444 24-12-2009 08:58:05 1.7 C 5.12 g/m*3 1.7 C 0 km/h
2445 24-12-2009 09:10:05 1.7 C 5.12 g/m*3 1.7 C 0 km/h
2446 24-12-2009 09:22:05 1.7 C 5.12 g/m*3 1.7 C 0 km/h
2447 24-12-2009 09:34:05 1.8 C 5.15 g/m*3 1.8 C 0 km/h
2448 24-12-2009 09:46:06 1.9 C 5.19 g/m*3 1.9 C 0 km/h
2449 24-12-2009 09:58:06 2 C 5.17 g/m*3 2 C 0 km/h
2450 24-12-2009 10:10:06 2 C 5.17 g/m*3 2 C 0 km/h
Sensor: Nr:Datum:Temp:Abs-Feuchte:Windchill:Wind:
Aussen-T/F 2451 24-12-2009 10:22:02 2.1 C 5.2 g/m*3 2.1 C 0 km/h
2452 24-12-2009 10:34:02 2.2 C 5.24 g/m*3 2.2 C 0 km/h
2453 24-12-2009 10:46:01 2.3 C 5.22 g/m*3 2.3 C 0 km/h
2454 24-12-2009 10:58:01 2.6 C 5.32 g/m*3 2.6 C 0 km/h
2455 24-12-2009 11:10:02 2.7 C 5.36 g/m*3 2.7 C 0 km/h
2456 24-12-2009 11:22:01 2.8 C 5.34 g/m*3 2.8 C 0 km/h
2457 24-12-2009 11:34:02 3 C 5.35 g/m*3 3 C 0 km/h
2458 24-12-2009 11:46:01 3.2 C 5.42 g/m*3 3.2 C 0 km/h
2459 24-12-2009 11:58:01 3.6 C 5.57 g/m*3 3.6 C 0 km/h
2460 24-12-2009 12:10:02 3.7 C 5.55 g/m*3 3.7 C 0 km/h
2461 24-12-2009 12:22:01 4.1 C 5.57 g/m*3 4.1 C 0 km/h
2462 24-12-2009 12:34:02 4.4 C 5.62 g/m*3 4.4 C 0 km/h
2463 24-12-2009 12:46:02 4.2 C 5.22 g/m*3 4.2 C 0 km/h
2464 24-12-2009 12:58:02 4.1 C 5.06 g/m*3 4.1 C 0 km/h
2465 24-12-2009 13:10:02 4 C 5.02 g/m*3 4 C 0 km/h
2466 24-12-2009 13:22:01 4 C 5.02 g/m*3 4 C 0 km/h
2467 24-12-2009 13:34:02 4.2 C 5.09 g/m*3 4.2 C 0 km/h
2468 24-12-2009 13:46:01 4.3 C 5.06 g/m*3 4.3 C 0 km/h
2469 24-12-2009 13:58:01 4.4 C 5.03 g/m*3 4.4 C 0 km/h
2470 24-12-2009 14:10:02 4.3 C 4.99 g/m*3 4.3 C 0 km/h
2471 24-12-2009 14:22:02 4.1 C 4.93 g/m*3 4.1 C 0 km/h
2472 24-12-2009 14:34:02 4.1 C 4.99 g/m*3 4.1 C 0 km/h
2473 24-12-2009 14:46:01 4.2 C 5.09 g/m*3 4.2 C 0 km/h
2474 24-12-2009 14:58:01 4 C 5.02 g/m*3 4 C 0 km/h
2475 24-12-2009 15:10:02 3.9 C 5.05 g/m*3 3.9 C 0 km/h
Sensor: Nr:Datum:Temp:Abs-Feuchte:Windchill:Wind:
Aussen-T/F 2476 24-12-2009 15:22:02 3.8 C 5.08 g/m*3 3.8 C 0 km/h
2477 24-12-2009 15:34:02 3.6 C 5.08 g/m*3 3.6 C 0 km/h
2478 24-12-2009 15:46:02 3.5 C 5.1 g/m*3 3.5 C 0 km/h
2479 24-12-2009 15:58:02 3.4 C 5.07 g/m*3 3.4 C 0 km/h
2480 24-12-2009 16:10:02 3.2 C 5.06 g/m*3 3.2 C 0 km/h
2481 24-12-2009 16:22:02 3 C 4.99 g/m*3 3 C 0 km/h
2482 24-12-2009 16:34:01 2.8 C 5.04 g/m*3 2.8 C 0 km/h
2483 24-12-2009 16:46:02 2.7 C 5.07 g/m*3 2.7 C 0 km/h
2484 24-12-2009 16:58:02 2.5 C 5 g/m*3 2.5 C 0 km/h
2485 24-12-2009 17:10:01 2.5 C 5.06 g/m*3 2.5 C 0 km/h
2486 24-12-2009 17:22:02 2.5 C 5.12 g/m*3 2.5 C 0 km/h
2487 24-12-2009 17:34:01 2.6 C 5.15 g/m*3 2.6 C 0 km/h
2488 24-12-2009 17:46:02 2.6 C 5.21 g/m*3 2.6 C 0 km/h
2489 24-12-2009 17:58:02 2.6 C 5.21 g/m*3 2.6 C 0 km/h
2490 24-12-2009 18:10:01 2.6 C 5.21 g/m*3 2.6 C 0 km/h
2491 24-12-2009 18:22:01 2.6 C 5.27 g/m*3 2.6 C 0 km/h
2492 24-12-2009 18:34:01 2.6 C 5.27 g/m*3 2.6 C 0 km/h
2493 24-12-2009 18:46:02 2.7 C 5.3 g/m*3 2.7 C 0 km/h
2494 24-12-2009 18:58:02 2.7 C 5.3 g/m*3 2.7 C 0 km/h
2495 24-12-2009 19:10:02 2.7 C 5.36 g/m*3 2.7 C 0 km/h
2496 24-12-2009 19:22:02 2.7 C 5.36 g/m*3 2.7 C 0 km/h
2497 24-12-2009 19:34:02 2.7 C 5.36 g/m*3 2.7 C 0 km/h
2498 24-12-2009 19:46:02 2.7 C 5.36 g/m*3 2.7 C 0 km/h
2499 24-12-2009 19:58:02 2.7 C 5.36 g/m*3 2.7 C 0 km/h
2500 24-12-2009 20:10:01 2.7 C 5.36 g/m*3 2.7 C 0 km/h
Sensor: Nr:Datum:Temp:Abs-Feuchte:Windchill:Wind:
Aussen-T/F 2501 24-12-2009 20:22:01 2.7 C 5.36 g/m*3 2.7 C 0 km/h
2502 24-12-2009 20:34:02 2.7 C 5.36 g/m*3 2.7 C 0 km/h
2503 24-12-2009 20:46:02 2.7 C 5.36 g/m*3 2.7 C 0 km/h
2504 24-12-2009 20:58:02 2.7 C 5.36 g/m*3 2.7 C 0 km/h
2505 24-12-2009 21:10:02 2.7 C 5.36 g/m*3 2.7 C 0 km/h
2506 24-12-2009 21:22:02 2.6 C 5.32 g/m*3 2.6 C 0 km/h
2507 24-12-2009 21:34:02 2.6 C 5.32 g/m*3 2.6 C 0 km/h
2508 24-12-2009 21:46:01 2.6 C 5.32 g/m*3 2.6 C 0 km/h
2509 24-12-2009 21:58:01 2.6 C 5.32 g/m*3 2.6 C 0 km/h
2510 24-12-2009 22:10:02 2.6 C 5.38 g/m*3 2.6 C 0 km/h
2511 24-12-2009 22:22:01 2.6 C 5.38 g/m*3 2.6 C 0 km/h
2512 24-12-2009 22:34:02 2.7 C 5.42 g/m*3 2.7 C 0 km/h
2513 24-12-2009 22:47:01 2.7 C 5.42 g/m*3 2.7 C 0 km/h
2514 24-12-2009 22:59:01 2.7 C 5.48 g/m*3 2.7 C 0 km/h
2515 24-12-2009 23:11:01 2.7 C 5.48 g/m*3 2.7 C 0 km/h
2516 24-12-2009 23:23:01 2.8 C 5.51 g/m*3 2.8 C 0 km/h
2517 24-12-2009 23:35:01 2.8 C 5.51 g/m*3 2.8 C 0 km/h
2518 24-12-2009 23:47:01 2.9 C 5.61 g/m*3 2.9 C 0 km/h
2519 24-12-2009 23:59:01 2.9 C 5.61 g/m*3 2.9 C 0 km/h
2520 25-12-2009 00:11:01 3 C 5.59 g/m*3 3 C 0 km/h
2521 25-12-2009 00:23:02 3 C 5.59 g/m*3 3 C 0 km/h
2522 25-12-2009 00:35:02 3 C 5.65 g/m*3 3 C 0 km/h
2523 25-12-2009 00:47:02 3.1 C 5.69 g/m*3 3.1 C 0 km/h
2524 25-12-2009 00:59:02 3.1 C 5.69 g/m*3 3.1 C 0 km/h
2525 25-12-2009 01:11:02 3.1 C 5.69 g/m*3 3.1 C 0 km/h
Sensor: Nr:Datum:Temp:Abs-Feuchte:Windchill:Wind:
Aussen-T/F 2526 25-12-2009 01:23:02 3 C 5.65 g/m*3 3 C 0 km/h
2527 25-12-2009 01:35:02 3 C 5.65 g/m*3 3 C 0 km/h
2528 25-12-2009 01:47:02 3.1 C 5.69 g/m*3 3.1 C 0 km/h
2529 25-12-2009 01:59:02 3.1 C 5.69 g/m*3 3.1 C 0 km/h
2530 25-12-2009 02:11:02 3.2 C 5.72 g/m*3 3.2 C 0 km/h
2531 25-12-2009 02:23:02 3.2 C 5.72 g/m*3 3.2 C 0 km/h
2532 25-12-2009 02:35:02 3.1 C 5.69 g/m*3 3.1 C 0 km/h
2533 25-12-2009 02:47:02 3.1 C 5.69 g/m*3 3.1 C 0 km/h
2534 25-12-2009 02:59:02 3.1 C 5.69 g/m*3 3.1 C 0 km/h
2535 25-12-2009 03:11:02 3.1 C 5.69 g/m*3 3.1 C 0 km/h
2536 25-12-2009 03:23:02 3.1 C 5.69 g/m*3 3.1 C 0 km/h
2537 25-12-2009 03:35:02 3.1 C 5.69 g/m*3 3.1 C 0 km/h
2538 25-12-2009 03:47:02 3.2 C 5.72 g/m*3 3.2 C 0 km/h
2539 25-12-2009 03:59:02 3.2 C 5.72 g/m*3 3.2 C 0 km/h
2540 25-12-2009 04:11:02 3.2 C 5.72 g/m*3 3.2 C 0 km/h
2541 25-12-2009 04:23:02 3.1 C 5.69 g/m*3 3.1 C 0 km/h
2542 25-12-2009 04:35:03 3.1 C 5.69 g/m*3 3.1 C 0 km/h
2543 25-12-2009 04:47:03 3.2 C 5.72 g/m*3 3.2 C 0 km/h
2544 25-12-2009 04:59:03 3.2 C 5.72 g/m*3 3.2 C 0 km/h
2545 25-12-2009 05:11:03 3.2 C 5.72 g/m*3 3.2 C 0 km/h
2546 25-12-2009 05:23:03 3.3 C 5.76 g/m*3 3.3 C 0 km/h
2547 25-12-2009 05:35:03 3.4 C 5.8 g/m*3 3.4 C 0 km/h
2548 25-12-2009 05:47:03 3.4 C 5.8 g/m*3 3.4 C 0 km/h
2549 25-12-2009 05:59:03 3.5 C 5.84 g/m*3 3.5 C 0 km/h
2550 25-12-2009 06:11:03 3.6 C 5.88 g/m*3 3.6 C 0 km/h
Sensor: Nr:Datum:Temp:Abs-Feuchte:Windchill:Wind:
Aussen-T/F 2551 25-12-2009 06:23:03 3.6 C 5.88 g/m*3 3.6 C 0 km/h
2552 25-12-2009 06:35:03 3.6 C 5.88 g/m*3 3.6 C 0 km/h
2553 25-12-2009 06:47:03 3.5 C 5.84 g/m*3 3.5 C 0 km/h
2554 25-12-2009 06:59:03 6.8 C 7.27 g/m*3 6.8 C 0 km/h
2555 25-12-2009 07:11:03 7.1 C 7.41 g/m*3 7.1 C 0 km/h
2556 25-12-2009 07:23:03 7.1 C 7.41 g/m*3 7.1 C 0 km/h
2557 25-12-2009 07:35:03 6.8 C 7.11 g/m*3 6.8 C 0 km/h
2558 25-12-2009 07:47:03 6.4 C 6.56 g/m*3 6.4 C 0 km/h
2559 25-12-2009 07:59:03 5.9 C 6.06 g/m*3 5.9 C 0 km/h
2560 25-12-2009 08:11:03 5.6 C 5.87 g/m*3 5.6 C 0 km/h
2561 25-12-2009 08:23:03 5.1 C 5.68 g/m*3 5.1 C 0 km/h
2562 25-12-2009 08:35:03 4.8 C 5.5 g/m*3 4.8 C 0 km/h
2563 25-12-2009 08:47:04 4.4 C 5.09 g/m*3 4.4 C 0 km/h
2564 25-12-2009 08:59:04 4.2 C 4.77 g/m*3 4.2 C 0 km/h
2565 25-12-2009 09:11:04 4.1 C 4.67 g/m*3 4.1 C 0 km/h
2566 25-12-2009 09:23:04 4 C 4.58 g/m*3 4 C 0 km/h
2567 25-12-2009 09:35:04 4 C 4.58 g/m*3 4 C 0 km/h
2568 25-12-2009 09:47:01 4 C 4.64 g/m*3 4 C 0 km/h
2569 25-12-2009 09:59:01 3.8 C 4.64 g/m*3 3.8 C 0 km/h
2570 25-12-2009 10:11:02 4 C 4.64 g/m*3 4 C 0 km/h
2571 25-12-2009 10:23:01 4.1 C 4.74 g/m*3 4.1 C 0 km/h
2572 25-12-2009 10:35:02 4.2 C 4.77 g/m*3 4.2 C 0 km/h
2573 25-12-2009 10:47:02 4.3 C 4.8 g/m*3 4.3 C 0 km/h
2574 25-12-2009 10:59:02 4.1 C 4.67 g/m*3 4.1 C 0 km/h
2575 25-12-2009 11:11:02 4.1 C 4.67 g/m*3 4.1 C 0 km/h
Sensor: Nr:Datum:Temp:Abs-Feuchte:Windchill:Wind:
Aussen-T/F 2576 25-12-2009 11:23:02 4.5 C 4.73 g/m*3 4.5 C 0 km/h
2577 25-12-2009 11:35:02 4.7 C 4.73 g/m*3 4.7 C 0 km/h
2578 25-12-2009 11:47:02 5 C 4.69 g/m*3 5 C 0 km/h
2579 25-12-2009 11:59:02 5.2 C 4.68 g/m*3 5.2 C 0 km/h
2580 25-12-2009 12:11:03 5.2 C 4.75 g/m*3 5.2 C 0 km/h
2581 25-12-2009 12:23:02 5.3 C 4.78 g/m*3 5.3 C 0 km/h
2582 25-12-2009 12:35:03 5.5 C 4.78 g/m*3 5.5 C 0 km/h
2583 25-12-2009 12:47:02 5.7 C 4.84 g/m*3 5.7 C 0 km/h
2584 25-12-2009 12:59:02 5.9 C 4.83 g/m*3 5.9 C 0 km/h
2585 25-12-2009 13:11:02 6 C 4.72 g/m*3 6 C 0 km/h
2586 25-12-2009 13:23:01 6 C 4.65 g/m*3 6 C 0 km/h
2587 25-12-2009 13:35:02 6.2 C 4.71 g/m*3 6.2 C 0 km/h
2588 25-12-2009 13:47:02 6.3 C 4.66 g/m*3 6.3 C 0 km/h
2589 25-12-2009 13:59:02 6.2 C 4.56 g/m*3 6.2 C 0 km/h
2590 25-12-2009 14:11:02 6.2 C 4.56 g/m*3 6.2 C 0 km/h
2591 25-12-2009 14:23:02 6 C 4.5 g/m*3 6 C 0 km/h
2592 25-12-2009 14:35:02 5.9 C 4.61 g/m*3 5.9 C 0 km/h
2593 25-12-2009 14:47:02 5.8 C 4.58 g/m*3 5.8 C 0 km/h
2594 25-12-2009 14:59:03 5.8 C 4.66 g/m*3 5.8 C 0 km/h
2595 25-12-2009 15:11:01 5.7 C 4.7 g/m*3 5.7 C 0 km/h
2596 25-12-2009 15:23:02 5.7 C 4.77 g/m*3 5.7 C 0 km/h
2597 25-12-2009 15:35:02 5.6 C 4.88 g/m*3 5.6 C 0 km/h
2598 25-12-2009 15:47:02 5.4 C 4.95 g/m*3 5.4 C 0 km/h
2599 25-12-2009 15:59:02 5.4 C 4.95 g/m*3 5.4 C 0 km/h
2600 25-12-2009 16:11:02 5.4 C 4.88 g/m*3 5.4 C 0 km/h
Sensor: Nr:Datum:Temp:Abs-Feuchte:Windchill:Wind:
Aussen-T/F 2601 25-12-2009 16:23:02 5.1 C 4.92 g/m*3 5.1 C 0 km/h
2602 25-12-2009 16:35:03 5 C 4.89 g/m*3 5 C 0 km/h
2603 25-12-2009 16:47:02 5 C 4.89 g/m*3 5 C 0 km/h
2604 25-12-2009 16:59:02 4.8 C 4.9 g/m*3 4.8 C 0 km/h
2605 25-12-2009 17:11:02 4.7 C 4.93 g/m*3 4.7 C 0 km/h
2606 25-12-2009 17:23:01 4.9 C 4.93 g/m*3 4.9 C 0 km/h
2607 25-12-2009 17:35:02 5 C 4.76 g/m*3 5 C 0 km/h
2608 25-12-2009 17:47:02 5 C 4.69 g/m*3 5 C 0 km/h
2609 25-12-2009 17:59:02 4.7 C 4.66 g/m*3 4.7 C 0 km/h
2610 25-12-2009 18:11:02 4.6 C 4.63 g/m*3 4.6 C 0 km/h
2611 25-12-2009 18:23:02 4.7 C 4.66 g/m*3 4.7 C 0 km/h
2612 25-12-2009 18:35:02 4.7 C 4.6 g/m*3 4.7 C 0 km/h
2613 25-12-2009 18:47:02 4.7 C 4.6 g/m*3 4.7 C 0 km/h
2614 25-12-2009 18:59:02 4.7 C 4.53 g/m*3 4.7 C 0 km/h
2615 25-12-2009 19:11:02 4.7 C 4.46 g/m*3 4.7 C 0 km/h
2616 25-12-2009 19:23:02 4.5 C 4.47 g/m*3 4.5 C 0 km/h
2617 25-12-2009 19:35:02 4.2 C 4.45 g/m*3 4.2 C 0 km/h
2618 25-12-2009 19:47:02 4.2 C 4.38 g/m*3 4.2 C 0 km/h
2619 25-12-2009 19:59:02 4.3 C 4.28 g/m*3 4.3 C 0 km/h
2620 25-12-2009 20:11:02 4.6 C 4.04 g/m*3 4.6 C 0 km/h
2621 25-12-2009 20:23:02 4.5 C 3.88 g/m*3 4.5 C 0 km/h
2622 25-12-2009 20:35:02 4.5 C 3.88 g/m*3 4.5 C 0 km/h
2623 25-12-2009 20:47:01 4.3 C 3.89 g/m*3 4.3 C 0 km/h
2624 25-12-2009 20:59:01 4.1 C 4.03 g/m*3 4.1 C 0 km/h
2625 25-12-2009 21:11:01 3.8 C 4.27 g/m*3 3.8 C 0 km/h
Sensor: Nr:Datum:Temp:Abs-Feuchte:Windchill:Wind:
Aussen-T/F 2626 25-12-2009 21:23:02 3.6 C 4.39 g/m*3 3.6 C 0 km/h
2627 25-12-2009 21:35:01 3.5 C 4.43 g/m*3 3.5 C 0 km/h
2628 25-12-2009 21:47:03 3.4 C 4.46 g/m*3 3.4 C 0 km/h
2629 25-12-2009 21:59:03 3.7 C 4.55 g/m*3 3.7 C 0 km/h
2630 25-12-2009 22:11:03 3.9 C 4.48 g/m*3 3.9 C 0 km/h
2631 25-12-2009 22:23:02 4 C 4.32 g/m*3 4 C 0 km/h
2632 25-12-2009 22:35:03 3.8 C 4.33 g/m*3 3.8 C 0 km/h
2633 25-12-2009 22:48:03 3.8 C 4.33 g/m*3 3.8 C 0 km/h
2634 25-12-2009 23:00:03 3.8 C 4.27 g/m*3 3.8 C 0 km/h
2635 25-12-2009 23:12:04 3.7 C 4.24 g/m*3 3.7 C 0 km/h
2636 25-12-2009 23:24:04 3.8 C 4.27 g/m*3 3.8 C 0 km/h
2637 25-12-2009 23:36:04 3.8 C 4.27 g/m*3 3.8 C 0 km/h
2638 25-12-2009 23:48:04 3.8 C 4.27 g/m*3 3.8 C 0 km/h
2639 26-12-2009 00:00:04 3.8 C 4.27 g/m*3 3.8 C 0 km/h
2640 26-12-2009 00:12:04 3.8 C 4.14 g/m*3 3.8 C 0 km/h
2641 26-12-2009 00:24:04 3.5 C 4 g/m*3 3.5 C 0 km/h
2642 26-12-2009 00:36:04 3.4 C 3.97 g/m*3 3.4 C 0 km/h
2643 26-12-2009 00:48:04 3 C 3.92 g/m*3 3 C 0 km/h
2644 26-12-2009 01:00:04 2.6 C 4.05 g/m*3 2.6 C 0 km/h
2645 26-12-2009 01:12:04 2.5 C 4.08 g/m*3 2.5 C 0 km/h
2646 26-12-2009 01:24:04 2.5 C 4.08 g/m*3 2.5 C 0 km/h
2647 26-12-2009 01:36:04 2.8 C 4.11 g/m*3 2.8 C 0 km/h
2648 26-12-2009 01:48:04 2.7 C 4.08 g/m*3 2.7 C 0 km/h
2649 26-12-2009 02:00:04 2.7 C 4.14 g/m*3 2.7 C 0 km/h
2650 26-12-2009 02:12:04 2.6 C 4.17 g/m*3 2.6 C 0 km/h
Sensor: Nr:Datum:Temp:Abs-Feuchte:Windchill:Wind:
Aussen-T/F 2651 26-12-2009 02:24:04 2.8 C 4.34 g/m*3 2.8 C 0 km/h
2652 26-12-2009 02:36:04 2.8 C 4.34 g/m*3 2.8 C 0 km/h
2653 26-12-2009 02:48:04 2.7 C 4.31 g/m*3 2.7 C 0 km/h
2654 26-12-2009 03:00:04 2.7 C 4.37 g/m*3 2.7 C 0 km/h
2655 26-12-2009 03:12:05 2.6 C 4.4 g/m*3 2.6 C 0 km/h
2656 26-12-2009 03:24:05 2.5 C 4.43 g/m*3 2.5 C 0 km/h
2657 26-12-2009 03:36:05 2.4 C 4.45 g/m*3 2.4 C 0 km/h
2658 26-12-2009 03:48:05 2.6 C 4.51 g/m*3 2.6 C 0 km/h
2659 26-12-2009 04:00:05 2.7 C 4.54 g/m*3 2.7 C 0 km/h
2660 26-12-2009 04:12:05 2.7 C 4.49 g/m*3 2.7 C 0 km/h
2661 26-12-2009 04:24:05 2.5 C 4.48 g/m*3 2.5 C 0 km/h
2662 26-12-2009 04:36:05 2.5 C 4.48 g/m*3 2.5 C 0 km/h
2663 26-12-2009 04:48:05 2.7 C 4.6 g/m*3 2.7 C 0 km/h
2664 26-12-2009 05:00:05 2.7 C 4.6 g/m*3 2.7 C 0 km/h
2665 26-12-2009 05:12:05 2.8 C 4.58 g/m*3 2.8 C 0 km/h
2666 26-12-2009 05:24:05 2.8 C 4.52 g/m*3 2.8 C 0 km/h
2667 26-12-2009 05:36:05 2.5 C 4.43 g/m*3 2.5 C 0 km/h
2668 26-12-2009 05:48:05 2.7 C 4.54 g/m*3 2.7 C 0 km/h
2669 26-12-2009 06:00:05 2.7 C 4.54 g/m*3 2.7 C 0 km/h
2670 26-12-2009 06:12:05 2.8 C 4.52 g/m*3 2.8 C 0 km/h
2671 26-12-2009 06:24:05 2.8 C 4.52 g/m*3 2.8 C 0 km/h
2672 26-12-2009 06:36:05 2.9 C 4.55 g/m*3 2.9 C 0 km/h
2673 26-12-2009 06:48:05 2.8 C 4.52 g/m*3 2.8 C 0 km/h
2674 26-12-2009 07:00:05 2.7 C 4.54 g/m*3 2.7 C 0 km/h
2675 26-12-2009 07:12:05 2.6 C 4.57 g/m*3 2.6 C 0 km/h
Sensor: Nr:Datum:Temp:Abs-Feuchte:Windchill:Wind:
Aussen-T/F 2676 26-12-2009 07:24:05 2.6 C 4.57 g/m*3 2.6 C 0 km/h
2677 26-12-2009 07:36:05 2.5 C 4.6 g/m*3 2.5 C 0 km/h
2678 26-12-2009 07:48:06 2.2 C 4.51 g/m*3 2.2 C 0 km/h
2679 26-12-2009 08:00:06 2 C 4.5 g/m*3 2 C 0 km/h
2680 26-12-2009 08:12:06 1.7 C 4.46 g/m*3 1.7 C 0 km/h
2681 26-12-2009 08:24:06 1.9 C 4.58 g/m*3 1.9 C 0 km/h
2682 26-12-2009 08:36:06 1.7 C 4.52 g/m*3 1.7 C 0 km/h
2683 26-12-2009 08:48:06 1.6 C 4.54 g/m*3 1.6 C 0 km/h
2684 26-12-2009 09:00:06 1.7 C 4.57 g/m*3 1.7 C 0 km/h
2685 26-12-2009 09:12:06 1.8 C 4.6 g/m*3 1.8 C 0 km/h
2686 26-12-2009 09:24:06 2.1 C 4.59 g/m*3 2.1 C 0 km/h
2687 26-12-2009 09:36:03 2.3 C 4.59 g/m*3 2.3 C 0 km/h
2688 26-12-2009 09:48:02 2.7 C 4.6 g/m*3 2.7 C 0 km/h
2689 26-12-2009 10:00:02 3 C 4.58 g/m*3 3 C 0 km/h
2690 26-12-2009 10:12:01 3.2 C 4.52 g/m*3 3.2 C 0 km/h
2691 26-12-2009 10:24:02 3.3 C 4.55 g/m*3 3.3 C 0 km/h
2692 26-12-2009 10:36:02 3.4 C 4.58 g/m*3 3.4 C 0 km/h
2693 26-12-2009 10:48:02 3.5 C 4.61 g/m*3 3.5 C 0 km/h
2694 26-12-2009 11:00:02 3.8 C 4.71 g/m*3 3.8 C 0 km/h
2695 26-12-2009 11:12:02 3.9 C 4.74 g/m*3 3.9 C 0 km/h
2696 26-12-2009 11:24:02 3.6 C 4.64 g/m*3 3.6 C 0 km/h
2697 26-12-2009 11:36:02 3.7 C 4.74 g/m*3 3.7 C 0 km/h
2698 26-12-2009 11:48:02 4 C 4.83 g/m*3 4 C 0 km/h
2699 26-12-2009 12:00:02 4.1 C 4.8 g/m*3 4.1 C 0 km/h
2700 26-12-2009 12:12:02 4.1 C 4.74 g/m*3 4.1 C 0 km/h
Sensor: Nr:Datum:Temp:Abs-Feuchte:Windchill:Wind:
Aussen-T/F 2701 26-12-2009 12:24:01 3.8 C 4.71 g/m*3 3.8 C 0 km/h
2702 26-12-2009 12:36:02 3.7 C 4.67 g/m*3 3.7 C 0 km/h
2703 26-12-2009 12:48:02 3.6 C 4.64 g/m*3 3.6 C 0 km/h
2704 26-12-2009 13:00:02 3.6 C 4.7 g/m*3 3.6 C 0 km/h
2705 26-12-2009 13:12:02 3.9 C 4.74 g/m*3 3.9 C 0 km/h
2706 26-12-2009 13:24:01 3.9 C 4.74 g/m*3 3.9 C 0 km/h
2707 26-12-2009 13:36:02 4 C 4.7 g/m*3 4 C 0 km/h
2708 26-12-2009 13:48:02 4.1 C 4.67 g/m*3 4.1 C 0 km/h
2709 26-12-2009 14:00:02 4 C 4.64 g/m*3 4 C 0 km/h
2710 26-12-2009 14:12:02 3.9 C 4.74 g/m*3 3.9 C 0 km/h
2711 26-12-2009 14:24:01 4.1 C 4.74 g/m*3 4.1 C 0 km/h
2712 26-12-2009 14:36:02 4.2 C 4.7 g/m*3 4.2 C 0 km/h
2713 26-12-2009 14:48:02 4.1 C 4.67 g/m*3 4.1 C 0 km/h
2714 26-12-2009 15:00:02 3.7 C 4.67 g/m*3 3.7 C 0 km/h
2715 26-12-2009 15:12:02 3.5 C 4.67 g/m*3 3.5 C 0 km/h
2716 26-12-2009 15:24:02 3.3 C 4.67 g/m*3 3.3 C 0 km/h
2717 26-12-2009 15:36:02 3.1 C 4.67 g/m*3 3.1 C 0 km/h
2718 26-12-2009 15:48:01 3 C 4.7 g/m*3 3 C 0 km/h
2719 26-12-2009 16:00:01 2.8 C 4.75 g/m*3 2.8 C 0 km/h
2720 26-12-2009 16:12:02 2.7 C 4.72 g/m*3 2.7 C 0 km/h
2721 26-12-2009 16:24:02 2.7 C 4.72 g/m*3 2.7 C 0 km/h
2722 26-12-2009 16:36:02 2.5 C 4.66 g/m*3 2.5 C 0 km/h
2723 26-12-2009 16:48:02 2.2 C 4.56 g/m*3 2.2 C 0 km/h
2724 26-12-2009 17:00:02 1.6 C 4.43 g/m*3 1.6 C 0 km/h
2725 26-12-2009 17:12:02 1.4 C 4.48 g/m*3 1.4 C 0 km/h
Sensor: Nr:Datum:Temp:Abs-Feuchte:Windchill:Wind:
Aussen-T/F 2726 26-12-2009 17:24:02 1.4 C 4.53 g/m*3 1.4 C 0 km/h
2727 26-12-2009 17:36:01 1.7 C 4.68 g/m*3 1.7 C 0 km/h
2728 26-12-2009 17:48:02 1.6 C 4.54 g/m*3 1.6 C 0 km/h
2729 26-12-2009 18:00:02 1 C 4.36 g/m*3 1 C 0 km/h
2730 26-12-2009 18:12:02 0.6 C 4.29 g/m*3 0.6 C 0 km/h
2731 26-12-2009 18:24:02 0.5 C 4.26 g/m*3 0.5 C 0 km/h
2732 26-12-2009 18:36:02 0.3 C 4.25 g/m*3 0.3 C 0 km/h
2733 26-12-2009 18:48:02 0.3 C 4.3 g/m*3 0.3 C 0 km/h
2734 26-12-2009 19:00:02 0.1 C 4.24 g/m*3 0.1 C 0 km/h
2735 26-12-2009 19:12:02 0.1 C 4.29 g/m*3 0.1 C 0 km/h
2736 26-12-2009 19:24:02 0.1 C 4.29 g/m*3 0.1 C 0 km/h
2737 26-12-2009 19:36:02 -0.1 C 4.23 g/m*3 -0.1 C 0 km/h
2738 26-12-2009 19:48:02 -0.3 C 4.22 g/m*3 -0.3 C 0 km/h
2739 26-12-2009 20:00:02 -0.5 C 4.17 g/m*3 -0.5 C 0 km/h
2740 26-12-2009 20:12:02 -0.7 C 4.11 g/m*3 -0.7 C 0 km/h
2741 26-12-2009 20:24:02 -0.5 C 4.17 g/m*3 -0.5 C 0 km/h
2742 26-12-2009 20:36:02 -0.4 C 4.24 g/m*3 -0.4 C 0 km/h
2743 26-12-2009 20:48:01 -0.7 C 4.15 g/m*3 -0.7 C 0 km/h
2744 26-12-2009 21:00:01 -0.8 C 4.17 g/m*3 -0.8 C 0 km/h
2745 26-12-2009 21:12:02 -0.8 C 4.17 g/m*3 -0.8 C 0 km/h
2746 26-12-2009 21:24:01 -0.8 C 4.17 g/m*3 -0.8 C 0 km/h
2747 26-12-2009 21:36:01 -0.8 C 4.17 g/m*3 -0.8 C 0 km/h
2748 26-12-2009 21:48:01 -0.8 C 4.17 g/m*3 -0.8 C 0 km/h
2749 26-12-2009 22:00:01 -0.9 C 4.14 g/m*3 -0.9 C 0 km/h
2750 26-12-2009 22:12:01 -0.9 C 4.19 g/m*3 -0.9 C 0 km/h
Sensor: Nr:Datum:Temp:Abs-Feuchte:Windchill:Wind:
Aussen-T/F 2751 26-12-2009 22:24:01 -1 C 4.16 g/m*3 -1 C 0 km/h
2752 26-12-2009 22:36:02 -1.1 C 4.09 g/m*3 -1.1 C 0 km/h
2753 26-12-2009 22:49:03 -1.2 C 4.06 g/m*3 -1.2 C 0 km/h
2754 26-12-2009 23:01:03 -1.1 C 4.13 g/m*3 -1.1 C 0 km/h
2755 26-12-2009 23:13:03 -1.3 C 4.07 g/m*3 -1.3 C 0 km/h
2756 26-12-2009 23:25:03 -1.2 C 4.1 g/m*3 -1.2 C 0 km/h
2757 26-12-2009 23:37:03 -1.4 C 4.04 g/m*3 -1.4 C 0 km/h
2758 26-12-2009 23:49:03 -1.6 C 3.99 g/m*3 -1.6 C 0 km/h
2759 27-12-2009 00:01:03 -1.6 C 3.99 g/m*3 -1.6 C 0 km/h
2760 27-12-2009 00:13:03 -1.8 C 3.93 g/m*3 -1.8 C 0 km/h
2761 27-12-2009 00:25:03 -1.8 C 3.93 g/m*3 -1.8 C 0 km/h
2762 27-12-2009 00:37:03 -1.8 C 3.93 g/m*3 -1.8 C 0 km/h
2763 27-12-2009 00:49:03 -1.9 C 3.91 g/m*3 -1.9 C 0 km/h
2764 27-12-2009 01:01:03 -1.8 C 3.93 g/m*3 -1.8 C 0 km/h
2765 27-12-2009 01:13:03 -1.9 C 3.91 g/m*3 -1.9 C 0 km/h
2766 27-12-2009 01:25:03 -2 C 3.88 g/m*3 -2 C 0 km/h
2767 27-12-2009 01:37:03 -2.3 C 3.8 g/m*3 -2.3 C 0 km/h
2768 27-12-2009 01:49:04 -2.3 C 3.8 g/m*3 -2.3 C 0 km/h
2769 27-12-2009 02:01:04 -2.3 C 3.8 g/m*3 -2.3 C 0 km/h
2770 27-12-2009 02:13:04 -2.2 C 3.87 g/m*3 -2.2 C 0 km/h
2771 27-12-2009 02:25:04 -2.1 C 3.89 g/m*3 -2.1 C 0 km/h
2772 27-12-2009 02:37:04 -2 C 3.92 g/m*3 -2 C 0 km/h
2773 27-12-2009 02:49:04 -1.9 C 3.95 g/m*3 -1.9 C 0 km/h
2774 27-12-2009 03:01:04 -2.1 C 3.89 g/m*3 -2.1 C 0 km/h
2775 27-12-2009 03:13:04 -2.2 C 3.87 g/m*3 -2.2 C 0 km/h
Sensor: Nr:Datum:Temp:Abs-Feuchte:Windchill:Wind:
Aussen-T/F 2776 27-12-2009 03:25:04 -2.1 C 3.89 g/m*3 -2.1 C 0 km/h
2777 27-12-2009 03:37:04 -2.3 C 3.84 g/m*3 -2.3 C 0 km/h
2778 27-12-2009 03:49:04 -2.5 C 3.78 g/m*3 -2.5 C 0 km/h
2779 27-12-2009 04:01:04 -2.6 C 3.76 g/m*3 -2.6 C 0 km/h
2780 27-12-2009 04:13:04 -2.7 C 3.73 g/m*3 -2.7 C 0 km/h
2781 27-12-2009 04:25:04 -2.7 C 3.73 g/m*3 -2.7 C 0 km/h
2782 27-12-2009 04:37:04 -2.8 C 3.71 g/m*3 -2.8 C 0 km/h
2783 27-12-2009 04:49:04 -2.8 C 3.71 g/m*3 -2.8 C 0 km/h
2784 27-12-2009 05:01:04 -2.7 C 3.73 g/m*3 -2.7 C 0 km/h
2785 27-12-2009 05:13:04 -2.6 C 3.8 g/m*3 -2.6 C 0 km/h
2786 27-12-2009 05:25:04 -2.8 C 3.75 g/m*3 -2.8 C 0 km/h
2787 27-12-2009 05:37:04 -2.9 C 3.72 g/m*3 -2.9 C 0 km/h
2788 27-12-2009 05:49:04 -2.8 C 3.75 g/m*3 -2.8 C 0 km/h
2789 27-12-2009 06:01:04 -2.8 C 3.75 g/m*3 -2.8 C 0 km/h
2790 27-12-2009 06:13:04 -2.9 C 3.72 g/m*3 -2.9 C 0 km/h
2791 27-12-2009 06:25:05 -2.9 C 3.72 g/m*3 -2.9 C 0 km/h
2792 27-12-2009 06:37:05 -3 C 3.69 g/m*3 -3 C 0 km/h
2793 27-12-2009 06:49:05 -3.1 C 3.67 g/m*3 -3.1 C 0 km/h
2794 27-12-2009 07:01:05 -3.1 C 3.67 g/m*3 -3.1 C 0 km/h
2795 27-12-2009 07:13:05 -3.2 C 3.64 g/m*3 -3.2 C 0 km/h
2796 27-12-2009 07:25:05 -3.1 C 3.67 g/m*3 -3.1 C 0 km/h
2797 27-12-2009 07:37:05 -3.2 C 3.64 g/m*3 -3.2 C 0 km/h
2798 27-12-2009 07:49:05 -3.2 C 3.64 g/m*3 -3.2 C 0 km/h
2799 27-12-2009 08:01:05 -3.2 C 3.64 g/m*3 -3.2 C 0 km/h
2800 27-12-2009 08:13:05 -2.9 C 3.72 g/m*3 -2.9 C 0 km/h
Sensor: Nr:Datum:Temp:Abs-Feuchte:Windchill:Wind:
Aussen-T/F 2801 27-12-2009 08:25:05 -2.7 C 3.77 g/m*3 -2.7 C 0 km/h
2802 27-12-2009 08:37:05 -2.5 C 3.83 g/m*3 -2.5 C 0 km/h
2803 27-12-2009 08:49:05 -2.4 C 3.89 g/m*3 -2.4 C 0 km/h
2804 27-12-2009 09:01:02 -2.3 C 3.92 g/m*3 -2.3 C 0 km/h
2805 27-12-2009 09:13:02 -2.2 C 3.95 g/m*3 -2.2 C 0 km/h
2806 27-12-2009 09:25:02 -1.4 C 4.18 g/m*3 -1.4 C 0 km/h
2807 27-12-2009 09:37:02 -1.1 C 4.26 g/m*3 -1.1 C 0 km/h
2808 27-12-2009 09:49:01 -0.6 C 4.42 g/m*3 -0.6 C 0 km/h
2809 27-12-2009 10:01:01 -0.4 C 4.48 g/m*3 -0.4 C 0 km/h
2810 27-12-2009 10:13:01 -0.1 C 4.57 g/m*3 -0.1 C 0 km/h
2811 27-12-2009 10:25:01 0.2 C 4.67 g/m*3 0.2 C 0 km/h
2812 27-12-2009 10:37:01 0.5 C 4.71 g/m*3 0.5 C 0 km/h
2813 27-12-2009 10:49:02 0.7 C 4.78 g/m*3 0.7 C 0 km/h
2814 27-12-2009 11:01:02 0.7 C 4.78 g/m*3 0.7 C 0 km/h
2815 27-12-2009 11:13:02 0.8 C 4.76 g/m*3 0.8 C 0 km/h
2816 27-12-2009 11:25:02 1.2 C 4.84 g/m*3 1.2 C 0 km/h
2817 27-12-2009 11:37:02 1.4 C 4.91 g/m*3 1.4 C 0 km/h
2818 27-12-2009 11:49:02 1.7 C 4.85 g/m*3 1.7 C 0 km/h
2819 27-12-2009 12:01:02 1.6 C 4.65 g/m*3 1.6 C 0 km/h
2820 27-12-2009 12:13:02 1.8 C 4.49 g/m*3 1.8 C 0 km/h
2821 27-12-2009 12:25:02 2 C 4.5 g/m*3 2 C 0 km/h
2822 27-12-2009 12:37:02 2.1 C 4.48 g/m*3 2.1 C 0 km/h
2823 27-12-2009 12:49:02 2.1 C 4.48 g/m*3 2.1 C 0 km/h
2824 27-12-2009 13:01:02 2.1 C 4.48 g/m*3 2.1 C 0 km/h
2825 27-12-2009 13:13:02 2.1 C 4.53 g/m*3 2.1 C 0 km/h
Sensor: Nr:Datum:Temp:Abs-Feuchte:Windchill:Wind:
Aussen-T/F 2826 27-12-2009 13:25:02 2.4 C 4.68 g/m*3 2.4 C 0 km/h
2827 27-12-2009 13:37:02 2.4 C 4.68 g/m*3 2.4 C 0 km/h
2828 27-12-2009 13:49:01 2.6 C 4.69 g/m*3 2.6 C 0 km/h
2829 27-12-2009 14:01:01 2.7 C 4.72 g/m*3 2.7 C 0 km/h
2830 27-12-2009 14:13:02 2.7 C 4.72 g/m*3 2.7 C 0 km/h
2831 27-12-2009 14:25:01 2.7 C 4.66 g/m*3 2.7 C 0 km/h
2832 27-12-2009 14:37:01 2.7 C 4.66 g/m*3 2.7 C 0 km/h
2833 27-12-2009 14:49:01 2.6 C 4.57 g/m*3 2.6 C 0 km/h
2834 27-12-2009 15:01:01 2.6 C 4.63 g/m*3 2.6 C 0 km/h
2835 27-12-2009 15:13:01 2.6 C 4.63 g/m*3 2.6 C 0 km/h
2836 27-12-2009 15:25:02 2.6 C 4.69 g/m*3 2.6 C 0 km/h
2837 27-12-2009 15:37:01 2.5 C 4.66 g/m*3 2.5 C 0 km/h
2838 27-12-2009 15:49:02 2.4 C 4.68 g/m*3 2.4 C 0 km/h
2839 27-12-2009 16:01:02 2.4 C 4.74 g/m*3 2.4 C 0 km/h
2840 27-12-2009 16:13:02 2.4 C 4.74 g/m*3 2.4 C 0 km/h
2841 27-12-2009 16:25:03 2.3 C 4.76 g/m*3 2.3 C 0 km/h
2842 27-12-2009 16:37:02 2.4 C 4.8 g/m*3 2.4 C 0 km/h
2843 27-12-2009 16:49:02 2.6 C 4.86 g/m*3 2.6 C 0 km/h
2844 27-12-2009 17:01:02 3.2 C 4.82 g/m*3 3.2 C 0 km/h
2845 27-12-2009 17:13:02 3.3 C 4.73 g/m*3 3.3 C 0 km/h
2846 27-12-2009 17:25:02 3.2 C 4.64 g/m*3 3.2 C 0 km/h
2847 27-12-2009 17:37:02 3.2 C 4.7 g/m*3 3.2 C 0 km/h
2848 27-12-2009 17:49:02 3.2 C 4.7 g/m*3 3.2 C 0 km/h
2849 27-12-2009 18:01:01 3.1 C 4.67 g/m*3 3.1 C 0 km/h
2850 27-12-2009 18:13:01 3.1 C 4.73 g/m*3 3.1 C 0 km/h
Sensor: Nr:Datum:Temp:Abs-Feuchte:Windchill:Wind:
Aussen-T/F 2851 27-12-2009 18:25:02 3.4 C 4.83 g/m*3 3.4 C 0 km/h
2852 27-12-2009 18:37:02 3.5 C 4.8 g/m*3 3.5 C 0 km/h
2853 27-12-2009 18:49:02 3.4 C 4.83 g/m*3 3.4 C 0 km/h
2854 27-12-2009 19:01:03 3.4 C 4.89 g/m*3 3.4 C 0 km/h
2855 27-12-2009 19:13:03 3.4 C 4.95 g/m*3 3.4 C 0 km/h
2856 27-12-2009 19:25:02 3.4 C 4.95 g/m*3 3.4 C 0 km/h
2857 27-12-2009 19:37:02 3.3 C 4.97 g/m*3 3.3 C 0 km/h
2858 27-12-2009 19:49:01 3.4 C 5.01 g/m*3 3.4 C 0 km/h
2859 27-12-2009 20:01:02 3.6 C 5.01 g/m*3 3.6 C 0 km/h
2860 27-12-2009 20:13:02 3.8 C 5.02 g/m*3 3.8 C 0 km/h
2861 27-12-2009 20:25:01 3.9 C 4.99 g/m*3 3.9 C 0 km/h
2862 27-12-2009 20:37:02 4 C 4.9 g/m*3 4 C 0 km/h
2863 27-12-2009 20:49:02 4.1 C 4.86 g/m*3 4.1 C 0 km/h
2864 27-12-2009 21:01:02 4 C 4.83 g/m*3 4 C 0 km/h
2865 27-12-2009 21:13:02 3.8 C 4.89 g/m*3 3.8 C 0 km/h
2866 27-12-2009 21:25:01 3.6 C 4.89 g/m*3 3.6 C 0 km/h
2867 27-12-2009 21:37:02 3.2 C 4.94 g/m*3 3.2 C 0 km/h
2868 27-12-2009 21:49:02 3 C 4.93 g/m*3 3 C 0 km/h
2869 27-12-2009 22:01:02 3 C 4.93 g/m*3 3 C 0 km/h
2870 27-12-2009 22:13:02 3.2 C 5 g/m*3 3.2 C 0 km/h
2871 27-12-2009 22:25:02 3.4 C 5.01 g/m*3 3.4 C 0 km/h
2872 27-12-2009 22:37:02 3.5 C 4.98 g/m*3 3.5 C 0 km/h
2873 27-12-2009 22:50:03 3.6 C 5.01 g/m*3 3.6 C 0 km/h
2874 27-12-2009 23:02:03 3.2 C 4.94 g/m*3 3.2 C 0 km/h
2875 27-12-2009 23:14:03 3.2 C 4.94 g/m*3 3.2 C 0 km/h
Sensor: Nr:Datum:Temp:Abs-Feuchte:Windchill:Wind:
Aussen-T/F 2876 27-12-2009 23:26:03 3.5 C 5.04 g/m*3 3.5 C 0 km/h
2877 27-12-2009 23:38:03 3.4 C 5.07 g/m*3 3.4 C 0 km/h
2878 27-12-2009 23:50:03 3.2 C 5.12 g/m*3 3.2 C 0 km/h
2879 28-12-2009 00:02:03 3.1 C 5.21 g/m*3 3.1 C 0 km/h
2880 28-12-2009 00:14:03 3 C 5.17 g/m*3 3 C 0 km/h
2881 28-12-2009 00:26:03 3.1 C 5.21 g/m*3 3.1 C 0 km/h
2882 28-12-2009 00:38:03 3.4 C 5.25 g/m*3 3.4 C 0 km/h
2883 28-12-2009 00:50:03 3.5 C 5.16 g/m*3 3.5 C 0 km/h
2884 28-12-2009 01:02:03 3.7 C 5.17 g/m*3 3.7 C 0 km/h
2885 28-12-2009 01:14:03 3.8 C 5.14 g/m*3 3.8 C 0 km/h
2886 28-12-2009 01:26:03 3.8 C 5.08 g/m*3 3.8 C 0 km/h
2887 28-12-2009 01:38:03 3.8 C 5.08 g/m*3 3.8 C 0 km/h
2888 28-12-2009 01:50:03 3.7 C 5.11 g/m*3 3.7 C 0 km/h
2889 28-12-2009 02:02:03 3.7 C 5.05 g/m*3 3.7 C 0 km/h
2890 28-12-2009 02:14:03 3.9 C 4.99 g/m*3 3.9 C 0 km/h
2891 28-12-2009 02:26:04 3.9 C 4.93 g/m*3 3.9 C 0 km/h
2892 28-12-2009 02:38:04 4 C 4.83 g/m*3 4 C 0 km/h
2893 28-12-2009 02:50:04 4 C 4.77 g/m*3 4 C 0 km/h
2894 28-12-2009 03:02:04 4 C 4.7 g/m*3 4 C 0 km/h
2895 28-12-2009 03:14:04 3.9 C 4.74 g/m*3 3.9 C 0 km/h
2896 28-12-2009 03:26:04 3.8 C 4.77 g/m*3 3.8 C 0 km/h
2897 28-12-2009 03:38:04 3.7 C 4.74 g/m*3 3.7 C 0 km/h
2898 28-12-2009 03:50:04 3.6 C 4.7 g/m*3 3.6 C 0 km/h
2899 28-12-2009 04:02:04 3.5 C 4.73 g/m*3 3.5 C 0 km/h
2900 28-12-2009 04:14:04 3.6 C 4.77 g/m*3 3.6 C 0 km/h
Sensor: Nr:Datum:Temp:Abs-Feuchte:Windchill:Wind:
Aussen-T/F 2901 28-12-2009 04:26:04 3.6 C 4.77 g/m*3 3.6 C 0 km/h
2902 28-12-2009 04:38:04 3.6 C 4.7 g/m*3 3.6 C 0 km/h
2903 28-12-2009 04:50:04 3.7 C 4.61 g/m*3 3.7 C 0 km/h
2904 28-12-2009 05:02:04 3.7 C 4.61 g/m*3 3.7 C 0 km/h
2905 28-12-2009 05:14:04 3.6 C 4.64 g/m*3 3.6 C 0 km/h
2906 28-12-2009 05:26:04 3.5 C 4.67 g/m*3 3.5 C 0 km/h
2907 28-12-2009 05:38:04 3.5 C 4.73 g/m*3 3.5 C 0 km/h
2908 28-12-2009 05:50:04 3.3 C 4.67 g/m*3 3.3 C 0 km/h
2909 28-12-2009 06:02:04 3.1 C 4.79 g/m*3 3.1 C 0 km/h
2910 28-12-2009 06:14:04 3.1 C 4.91 g/m*3 3.1 C 0 km/h
2911 28-12-2009 06:26:04 3.1 C 4.91 g/m*3 3.1 C 0 km/h
2912 28-12-2009 06:38:04 3.1 C 4.91 g/m*3 3.1 C 0 km/h
2913 28-12-2009 06:50:04 3.1 C 4.91 g/m*3 3.1 C 0 km/h
2914 28-12-2009 07:02:05 3.2 C 4.88 g/m*3 3.2 C 0 km/h
2915 28-12-2009 07:14:05 3.2 C 4.88 g/m*3 3.2 C 0 km/h
2916 28-12-2009 07:26:05 3.2 C 4.82 g/m*3 3.2 C 0 km/h
2917 28-12-2009 07:38:05 3.2 C 4.76 g/m*3 3.2 C 0 km/h
2918 28-12-2009 07:50:05 3.3 C 4.79 g/m*3 3.3 C 0 km/h
2919 28-12-2009 08:02:05 3.3 C 4.79 g/m*3 3.3 C 0 km/h
2920 28-12-2009 08:14:05 3.3 C 4.79 g/m*3 3.3 C 0 km/h
2921 28-12-2009 08:26:05 3.5 C 4.8 g/m*3 3.5 C 0 km/h
2922 28-12-2009 08:38:05 3.5 C 4.73 g/m*3 3.5 C 0 km/h
2923 28-12-2009 08:50:05 3.5 C 4.67 g/m*3 3.5 C 0 km/h
2924 28-12-2009 09:02:02 3.5 C 4.67 g/m*3 3.5 C 0 km/h
2925 28-12-2009 09:14:02 3.5 C 4.61 g/m*3 3.5 C 0 km/h
Sensor: Nr:Datum:Temp:Abs-Feuchte:Windchill:Wind:
Aussen-T/F 2926 28-12-2009 09:26:03 3.7 C 4.49 g/m*3 3.7 C 0 km/h
2927 28-12-2009 09:38:02 3.7 C 4.49 g/m*3 3.7 C 0 km/h
2928 28-12-2009 09:50:02 3.8 C 4.52 g/m*3 3.8 C 0 km/h
2929 28-12-2009 10:02:02 3.8 C 4.45 g/m*3 3.8 C 0 km/h
2930 28-12-2009 10:14:02 3.9 C 4.42 g/m*3 3.9 C 0 km/h
2931 28-12-2009 10:26:02 3.9 C 4.42 g/m*3 3.9 C 0 km/h
2932 28-12-2009 10:38:02 4 C 4.26 g/m*3 4 C 0 km/h
2933 28-12-2009 10:50:02 3.8 C 4.27 g/m*3 3.8 C 0 km/h
2934 28-12-2009 11:02:01 4 C 4.2 g/m*3 4 C 0 km/h
2935 28-12-2009 11:14:01 4.1 C 4.22 g/m*3 4.1 C 0 km/h
2936 28-12-2009 11:26:02 3.9 C 4.29 g/m*3 3.9 C 0 km/h
2937 28-12-2009 11:38:02 3.7 C 4.36 g/m*3 3.7 C 0 km/h
2938 28-12-2009 11:50:02 3.7 C 4.36 g/m*3 3.7 C 0 km/h
2939 28-12-2009 12:02:03 4.3 C 4.48 g/m*3 4.3 C 0 km/h
2940 28-12-2009 12:14:03 4.7 C 4.46 g/m*3 4.7 C 0 km/h
2941 28-12-2009 12:26:02 4.9 C 4.32 g/m*3 4.9 C 0 km/h
2942 28-12-2009 12:38:02 4.9 C 4.39 g/m*3 4.9 C 0 km/h
2943 28-12-2009 12:50:02 4.9 C 4.39 g/m*3 4.9 C 0 km/h
2944 28-12-2009 13:02:02 5 C 4.28 g/m*3 5 C 0 km/h
2945 28-12-2009 13:14:02 5 C 4.28 g/m*3 5 C 0 km/h
2946 28-12-2009 13:26:01 5 C 4.28 g/m*3 5 C 0 km/h
2947 28-12-2009 13:38:02 5.1 C 4.24 g/m*3 5.1 C 0 km/h
2948 28-12-2009 13:50:02 4.9 C 4.32 g/m*3 4.9 C 0 km/h
2949 28-12-2009 14:02:02 4.8 C 4.29 g/m*3 4.8 C 0 km/h
2950 28-12-2009 14:14:02 4.9 C 4.25 g/m*3 4.9 C 0 km/h
Sensor: Nr:Datum:Temp:Abs-Feuchte:Windchill:Wind:
Aussen-T/F 2951 28-12-2009 14:26:01 4.7 C 4.13 g/m*3 4.7 C 0 km/h
2952 28-12-2009 14:38:02 4.7 C 4.13 g/m*3 4.7 C 0 km/h
2953 28-12-2009 14:50:02 4.7 C 4.13 g/m*3 4.7 C 0 km/h
2954 28-12-2009 15:02:02 4.6 C 4.17 g/m*3 4.6 C 0 km/h
2955 28-12-2009 15:14:02 4.5 C 4.21 g/m*3 4.5 C 0 km/h
2956 28-12-2009 15:26:01 4.5 C 4.27 g/m*3 4.5 C 0 km/h
2957 28-12-2009 15:38:02 4.5 C 4.27 g/m*3 4.5 C 0 km/h
2958 28-12-2009 15:50:01 4.5 C 4.21 g/m*3 4.5 C 0 km/h
2959 28-12-2009 16:02:02 4.4 C 4.11 g/m*3 4.4 C 0 km/h
2960 28-12-2009 16:14:02 4.4 C 4.18 g/m*3 4.4 C 0 km/h
2961 28-12-2009 16:26:02 4.3 C 4.15 g/m*3 4.3 C 0 km/h
2962 28-12-2009 16:38:02 4.2 C 4.19 g/m*3 4.2 C 0 km/h
2963 28-12-2009 16:50:02 4 C 4.2 g/m*3 4 C 0 km/h
2964 28-12-2009 17:02:01 3.9 C 4.36 g/m*3 3.9 C 0 km/h
2965 28-12-2009 17:14:01 3.8 C 4.39 g/m*3 3.8 C 0 km/h
2966 28-12-2009 17:26:02 3.7 C 4.36 g/m*3 3.7 C 0 km/h
2967 28-12-2009 17:38:01 3.7 C 4.36 g/m*3 3.7 C 0 km/h
2968 28-12-2009 17:50:02 3.5 C 4.3 g/m*3 3.5 C 0 km/h
2969 28-12-2009 18:02:01 3.4 C 4.34 g/m*3 3.4 C 0 km/h
2970 28-12-2009 18:14:01 3.3 C 4.37 g/m*3 3.3 C 0 km/h
2971 28-12-2009 18:26:01 3.4 C 4.46 g/m*3 3.4 C 0 km/h
2972 28-12-2009 18:38:01 3.4 C 4.46 g/m*3 3.4 C 0 km/h
2973 28-12-2009 18:50:02 3.4 C 4.4 g/m*3 3.4 C 0 km/h
2974 28-12-2009 19:02:01 3.3 C 4.43 g/m*3 3.3 C 0 km/h
2975 28-12-2009 19:14:01 3.1 C 4.31 g/m*3 3.1 C 0 km/h
Sensor: Nr:Datum:Temp:Abs-Feuchte:Windchill:Wind:
Aussen-T/F 2976 28-12-2009 19:26:02 2.9 C 4.37 g/m*3 2.9 C 0 km/h
2977 28-12-2009 19:38:02 2.6 C 4.28 g/m*3 2.6 C 0 km/h
2978 28-12-2009 19:50:01 2.1 C 4.2 g/m*3 2.1 C 0 km/h
2979 28-12-2009 20:02:02 1.6 C 4.16 g/m*3 1.6 C 0 km/h
2980 28-12-2009 20:14:02 1.3 C 4.13 g/m*3 1.3 C 0 km/h
2981 28-12-2009 20:26:01 1 C 4.15 g/m*3 1 C 0 km/h
2982 28-12-2009 20:38:02 0.9 C 4.23 g/m*3 0.9 C 0 km/h
2983 28-12-2009 20:50:02 0.5 C 4.11 g/m*3 0.5 C 0 km/h
2984 28-12-2009 21:02:02 0.4 C 4.13 g/m*3 0.4 C 0 km/h
2985 28-12-2009 21:14:02 0.5 C 4.21 g/m*3 0.5 C 0 km/h
2986 28-12-2009 21:26:01 0.3 C 4.16 g/m*3 0.3 C 0 km/h
2987 28-12-2009 21:38:02 0.1 C 4.1 g/m*3 0.1 C 0 km/h
2988 28-12-2009 21:50:02 -0.3 C 3.99 g/m*3 -0.3 C 0 km/h
2989 28-12-2009 22:02:02 -0.4 C 3.96 g/m*3 -0.4 C 0 km/h
2990 28-12-2009 22:14:02 -0.5 C 3.93 g/m*3 -0.5 C 0 km/h
2991 28-12-2009 22:26:02 -0.7 C 3.92 g/m*3 -0.7 C 0 km/h
2992 28-12-2009 22:38:02 -0.9 C 3.87 g/m*3 -0.9 C 0 km/h
2993 28-12-2009 22:51:03 -1 C 3.84 g/m*3 -1 C 0 km/h
2994 28-12-2009 23:03:03 -1.2 C 3.79 g/m*3 -1.2 C 0 km/h
2995 28-12-2009 23:15:03 -1.2 C 3.83 g/m*3 -1.2 C 0 km/h
2996 28-12-2009 23:27:03 -1.3 C 3.85 g/m*3 -1.3 C 0 km/h
2997 28-12-2009 23:39:03 -1.3 C 3.85 g/m*3 -1.3 C 0 km/h
2998 28-12-2009 23:51:03 -1.3 C 3.85 g/m*3 -1.3 C 0 km/h
2999 29-12-2009 00:03:03 -1.8 C 3.72 g/m*3 -1.8 C 0 km/h
3000 29-12-2009 00:15:03 -1.7 C 3.75 g/m*3 -1.7 C 0 km/h
Sensor: Nr:Datum:Temp:Abs-Feuchte:Windchill:Wind:
Aussen-T/F 3001 29-12-2009 00:27:03 -2 C 3.67 g/m*3 -2 C 0 km/h
3002 29-12-2009 00:39:03 -2 C 3.71 g/m*3 -2 C 0 km/h
3003 29-12-2009 00:51:03 -2.2 C 3.66 g/m*3 -2.2 C 0 km/h
3004 29-12-2009 01:03:03 -2.1 C 3.68 g/m*3 -2.1 C 0 km/h
3005 29-12-2009 01:15:03 -2.1 C 3.68 g/m*3 -2.1 C 0 km/h
3006 29-12-2009 01:27:03 -2.1 C 3.73 g/m*3 -2.1 C 0 km/h
3007 29-12-2009 01:39:03 -2.2 C 3.66 g/m*3 -2.2 C 0 km/h
3008 29-12-2009 01:51:03 -2.1 C 3.73 g/m*3 -2.1 C 0 km/h
3009 29-12-2009 02:03:03 -2.2 C 3.7 g/m*3 -2.2 C 0 km/h
3010 29-12-2009 02:15:03 -2.3 C 3.67 g/m*3 -2.3 C 0 km/h
3011 29-12-2009 02:27:03 -2.3 C 3.67 g/m*3 -2.3 C 0 km/h
3012 29-12-2009 02:39:03 -2.3 C 3.67 g/m*3 -2.3 C 0 km/h
3013 29-12-2009 02:51:04 -2.1 C 3.77 g/m*3 -2.1 C 0 km/h
3014 29-12-2009 03:03:04 -2 C 3.79 g/m*3 -2 C 0 km/h
3015 29-12-2009 03:15:04 -2.1 C 3.77 g/m*3 -2.1 C 0 km/h
3016 29-12-2009 03:27:04 -2.2 C 3.74 g/m*3 -2.2 C 0 km/h
3017 29-12-2009 03:39:04 -2.3 C 3.71 g/m*3 -2.3 C 0 km/h
3018 29-12-2009 03:51:04 -2.2 C 3.78 g/m*3 -2.2 C 0 km/h
3019 29-12-2009 04:03:04 -2.5 C 3.66 g/m*3 -2.5 C 0 km/h
3020 29-12-2009 04:15:04 -2.5 C 3.66 g/m*3 -2.5 C 0 km/h
3021 29-12-2009 04:27:04 -2.6 C 3.68 g/m*3 -2.6 C 0 km/h
3022 29-12-2009 04:39:04 -2.6 C 3.68 g/m*3 -2.6 C 0 km/h
3023 29-12-2009 04:51:04 -2.6 C 3.68 g/m*3 -2.6 C 0 km/h
3024 29-12-2009 05:03:04 -2.8 C 3.63 g/m*3 -2.8 C 0 km/h
3025 29-12-2009 05:15:04 -2.7 C 3.65 g/m*3 -2.7 C 0 km/h
Sensor: Nr:Datum:Temp:Abs-Feuchte:Windchill:Wind:
Aussen-T/F 3026 29-12-2009 05:27:04 -2.7 C 3.69 g/m*3 -2.7 C 0 km/h
3027 29-12-2009 05:39:04 -2.8 C 3.67 g/m*3 -2.8 C 0 km/h
3028 29-12-2009 05:51:04 -2.9 C 3.64 g/m*3 -2.9 C 0 km/h
3029 29-12-2009 06:03:04 -2.9 C 3.64 g/m*3 -2.9 C 0 km/h
3030 29-12-2009 06:15:04 -2.9 C 3.64 g/m*3 -2.9 C 0 km/h
3031 29-12-2009 06:27:04 -2.6 C 3.72 g/m*3 -2.6 C 0 km/h
3032 29-12-2009 06:39:04 -2.3 C 3.84 g/m*3 -2.3 C 0 km/h
3033 29-12-2009 06:51:04 -1.9 C 3.95 g/m*3 -1.9 C 0 km/h
3034 29-12-2009 07:03:04 -1.7 C 4.05 g/m*3 -1.7 C 0 km/h
3035 29-12-2009 07:15:05 -1.6 C 4.07 g/m*3 -1.6 C 0 km/h
3036 29-12-2009 07:27:05 -1.3 C 4.16 g/m*3 -1.3 C 0 km/h
3037 29-12-2009 07:39:02 -1.2 C 4.19 g/m*3 -1.2 C 0 km/h
3038 29-12-2009 07:51:01 -1.1 C 4.22 g/m*3 -1.1 C 0 km/h
3039 29-12-2009 08:03:01 -1.2 C 4.19 g/m*3 -1.2 C 0 km/h
3040 29-12-2009 08:15:02 -1 C 4.25 g/m*3 -1 C 0 km/h
3041 29-12-2009 08:27:02 -0.9 C 4.28 g/m*3 -0.9 C 0 km/h
3042 29-12-2009 08:39:02 -0.7 C 4.34 g/m*3 -0.7 C 0 km/h
3043 29-12-2009 08:51:02 -0.5 C 4.45 g/m*3 -0.5 C 0 km/h
3044 29-12-2009 09:03:02 -0.3 C 4.51 g/m*3 -0.3 C 0 km/h
3045 29-12-2009 09:15:02 -0.1 C 4.57 g/m*3 -0.1 C 0 km/h
3046 29-12-2009 09:27:02 0.1 C 4.63 g/m*3 0.1 C 0 km/h
3047 29-12-2009 09:39:02 0.3 C 4.7 g/m*3 0.3 C 0 km/h
3048 29-12-2009 09:51:01 0.4 C 4.68 g/m*3 0.4 C 0 km/h
3049 29-12-2009 10:03:02 0.6 C 4.75 g/m*3 0.6 C 0 km/h
3050 29-12-2009 10:15:02 0.7 C 4.78 g/m*3 0.7 C 0 km/h
Sensor: Nr:Datum:Temp:Abs-Feuchte:Windchill:Wind:
Aussen-T/F 3051 29-12-2009 10:27:02 1 C 4.83 g/m*3 1 C 0 km/h
3052 29-12-2009 10:39:02 1.3 C 4.87 g/m*3 1.3 C 0 km/h
3053 29-12-2009 10:51:01 1.4 C 4.91 g/m*3 1.4 C 0 km/h
3054 29-12-2009 11:03:02 1.6 C 4.92 g/m*3 1.6 C 0 km/h
3055 29-12-2009 11:15:02 1.8 C 4.93 g/m*3 1.8 C 0 km/h
3056 29-12-2009 11:27:02 1.8 C 4.88 g/m*3 1.8 C 0 km/h
3057 29-12-2009 11:39:01 1.9 C 4.86 g/m*3 1.9 C 0 km/h
3058 29-12-2009 11:51:02 2.2 C 4.9 g/m*3 2.2 C 0 km/h
3059 29-12-2009 12:03:01 2.3 C 4.82 g/m*3 2.3 C 0 km/h
3060 29-12-2009 12:15:01 2.2 C 4.79 g/m*3 2.2 C 0 km/h
3061 29-12-2009 12:27:02 2.3 C 4.82 g/m*3 2.3 C 0 km/h
3062 29-12-2009 12:39:01 2.3 C 4.88 g/m*3 2.3 C 0 km/h
3063 29-12-2009 12:51:02 2.3 C 4.88 g/m*3 2.3 C 0 km/h
3064 29-12-2009 13:03:02 2.3 C 4.93 g/m*3 2.3 C 0 km/h
3065 29-12-2009 13:15:02 2.2 C 4.96 g/m*3 2.2 C 0 km/h
3066 29-12-2009 13:27:02 2.1 C 4.92 g/m*3 2.1 C 0 km/h
3067 29-12-2009 13:39:02 1.9 C 4.91 g/m*3 1.9 C 0 km/h
3068 29-12-2009 13:51:02 1.8 C 4.93 g/m*3 1.8 C 0 km/h
3069 29-12-2009 14:03:02 1.8 C 4.93 g/m*3 1.8 C 0 km/h
3070 29-12-2009 14:15:01 1.8 C 4.93 g/m*3 1.8 C 0 km/h
3071 29-12-2009 14:27:01 1.8 C 4.99 g/m*3 1.8 C 0 km/h
3072 29-12-2009 14:39:02 1.9 C 5.08 g/m*3 1.9 C 0 km/h
3073 29-12-2009 14:51:02 1.9 C 5.08 g/m*3 1.9 C 0 km/h
3074 29-12-2009 15:03:02 2 C 5.06 g/m*3 2 C 0 km/h
3075 29-12-2009 15:15:01 2 C 5.11 g/m*3 2 C 0 km/h
Sensor: Nr:Datum:Temp:Abs-Feuchte:Windchill:Wind:
Aussen-T/F 3076 29-12-2009 15:27:01 1.9 C 5.13 g/m*3 1.9 C 0 km/h
3077 29-12-2009 15:39:02 1.9 C 5.13 g/m*3 1.9 C 0 km/h
3078 29-12-2009 15:51:02 1.9 C 5.13 g/m*3 1.9 C 0 km/h
3079 29-12-2009 16:03:02 1.9 C 5.13 g/m*3 1.9 C 0 km/h
3080 29-12-2009 16:15:02 1.9 C 5.13 g/m*3 1.9 C 0 km/h
3081 29-12-2009 16:27:02 1.8 C 5.15 g/m*3 1.8 C 0 km/h
3082 29-12-2009 16:39:02 1.8 C 5.15 g/m*3 1.8 C 0 km/h
3083 29-12-2009 16:51:01 1.9 C 5.19 g/m*3 1.9 C 0 km/h
3084 29-12-2009 17:03:02 1.9 C 5.19 g/m*3 1.9 C 0 km/h
3085 29-12-2009 17:15:01 2 C 5.22 g/m*3 2 C 0 km/h
3086 29-12-2009 17:27:01 2 C 5.28 g/m*3 2 C 0 km/h
3087 29-12-2009 17:39:01 2.1 C 5.31 g/m*3 2.1 C 0 km/h
3088 29-12-2009 17:51:02 2.1 C 5.31 g/m*3 2.1 C 0 km/h
3089 29-12-2009 18:03:02 2.1 C 5.31 g/m*3 2.1 C 0 km/h
3090 29-12-2009 18:15:01 2.2 C 5.35 g/m*3 2.2 C 0 km/h
3091 29-12-2009 18:27:01 2.2 C 5.35 g/m*3 2.2 C 0 km/h
3092 29-12-2009 18:39:02 2.2 C 5.35 g/m*3 2.2 C 0 km/h
3093 29-12-2009 18:51:02 2.4 C 5.42 g/m*3 2.4 C 0 km/h
3094 29-12-2009 19:03:02 2.3 C 5.39 g/m*3 2.3 C 0 km/h
3095 29-12-2009 19:15:01 2.4 C 5.42 g/m*3 2.4 C 0 km/h
3096 29-12-2009 19:27:01 2.4 C 5.42 g/m*3 2.4 C 0 km/h
3097 29-12-2009 19:39:02 2.4 C 5.42 g/m*3 2.4 C 0 km/h
3098 29-12-2009 19:51:02 2.4 C 5.42 g/m*3 2.4 C 0 km/h
3099 29-12-2009 20:03:02 2.4 C 5.42 g/m*3 2.4 C 0 km/h
3100 29-12-2009 20:15:02 2.4 C 5.42 g/m*3 2.4 C 0 km/h
Sensor: Nr:Datum:Temp:Abs-Feuchte:Windchill:Wind:
Aussen-T/F 3101 29-12-2009 20:27:02 2.4 C 5.42 g/m*3 2.4 C 0 km/h
3102 29-12-2009 20:39:02 2.4 C 5.42 g/m*3 2.4 C 0 km/h
3103 29-12-2009 20:51:02 2.4 C 5.42 g/m*3 2.4 C 0 km/h
3104 29-12-2009 21:03:02 2.4 C 5.42 g/m*3 2.4 C 0 km/h
3105 29-12-2009 21:15:03 2.5 C 5.46 g/m*3 2.5 C 0 km/h
3106 29-12-2009 21:27:03 2.5 C 5.46 g/m*3 2.5 C 0 km/h
3107 29-12-2009 21:39:02 2.5 C 5.46 g/m*3 2.5 C 0 km/h
3108 29-12-2009 21:51:02 2.5 C 5.46 g/m*3 2.5 C 0 km/h
3109 29-12-2009 22:03:02 2.5 C 5.46 g/m*3 2.5 C 0 km/h
3110 29-12-2009 22:15:02 2.5 C 5.46 g/m*3 2.5 C 0 km/h
3111 29-12-2009 22:27:02 2.5 C 5.46 g/m*3 2.5 C 0 km/h
3112 29-12-2009 22:39:02 2.5 C 5.46 g/m*3 2.5 C 0 km/h
3113 29-12-2009 22:51:02 2.6 C 5.5 g/m*3 2.6 C 0 km/h
3114 29-12-2009 23:04:51 2.6 C 5.5 g/m*3 2.6 C 0 km/h
3115 29-12-2009 23:16:51 2.7 C 5.54 g/m*3 2.7 C 0 km/h
3116 29-12-2009 23:28:51 2.7 C 5.54 g/m*3 2.7 C 0 km/h
3117 29-12-2009 23:40:51 2.8 C 5.57 g/m*3 2.8 C 0 km/h
3118 29-12-2009 23:52:51 2.8 C 5.57 g/m*3 2.8 C 0 km/h
3119 30-12-2009 00:04:51 2.7 C 5.54 g/m*3 2.7 C 0 km/h
3120 30-12-2009 00:16:51 2.9 C 5.61 g/m*3 2.9 C 0 km/h
3121 30-12-2009 00:28:51 3.7 C 5.92 g/m*3 3.7 C 0 km/h
3122 30-12-2009 00:40:51 3.7 C 5.92 g/m*3 3.7 C 0 km/h
3123 30-12-2009 00:52:51 3.5 C 5.84 g/m*3 3.5 C 0 km/h
3124 30-12-2009 01:04:51 3.1 C 5.69 g/m*3 3.1 C 0 km/h
3125 30-12-2009 01:16:51 3.1 C 5.69 g/m*3 3.1 C 0 km/h
Sensor: Nr:Datum:Temp:Abs-Feuchte:Windchill:Wind:
Aussen-T/F 3126 30-12-2009 01:28:51 3.1 C 5.69 g/m*3 3.1 C 0 km/h
3127 30-12-2009 01:40:51 3.2 C 5.72 g/m*3 3.2 C 0 km/h
3128 30-12-2009 01:52:51 3.2 C 5.72 g/m*3 3.2 C 0 km/h
3129 30-12-2009 02:04:51 3.2 C 5.72 g/m*3 3.2 C 0 km/h
3130 30-12-2009 02:16:51 3.3 C 5.76 g/m*3 3.3 C 0 km/h
3131 30-12-2009 02:28:51 3.4 C 5.8 g/m*3 3.4 C 0 km/h
3132 30-12-2009 02:40:51 3.4 C 5.8 g/m*3 3.4 C 0 km/h
3133 30-12-2009 02:52:51 3.4 C 5.8 g/m*3 3.4 C 0 km/h
3134 30-12-2009 03:04:51 3.8 C 5.96 g/m*3 3.8 C 0 km/h
3135 30-12-2009 03:16:51 4 C 6.04 g/m*3 4 C 0 km/h
3136 30-12-2009 03:28:52 5.2 C 6.54 g/m*3 5.2 C 0 km/h
3137 30-12-2009 03:40:52 5.2 C 6.54 g/m*3 5.2 C 0 km/h
3138 30-12-2009 03:52:52 5.9 C 6.85 g/m*3 5.9 C 0 km/h
3139 30-12-2009 04:04:52 5.3 C 6.58 g/m*3 5.3 C 0 km/h
3140 30-12-2009 04:16:52 4.7 C 6.33 g/m*3 4.7 C 0 km/h
3141 30-12-2009 04:28:52 4.8 C 6.37 g/m*3 4.8 C 0 km/h
3142 30-12-2009 04:40:52 4.8 C 6.37 g/m*3 4.8 C 0 km/h
3143 30-12-2009 04:52:52 4.6 C 6.29 g/m*3 4.6 C 0 km/h
3144 30-12-2009 05:04:52 5.2 C 6.54 g/m*3 5.2 C 0 km/h
3145 30-12-2009 05:16:52 4.8 C 6.37 g/m*3 4.8 C 0 km/h
3146 30-12-2009 05:28:52 5.1 C 6.5 g/m*3 5.1 C 0 km/h
3147 30-12-2009 05:40:52 5.2 C 6.54 g/m*3 5.2 C 0 km/h
3148 30-12-2009 05:52:52 4.9 C 6.41 g/m*3 4.9 C 0 km/h
3149 30-12-2009 06:04:52 4.8 C 6.37 g/m*3 4.8 C 0 km/h
3150 30-12-2009 06:16:52 4.8 C 6.37 g/m*3 4.8 C 0 km/h
Sensor: Nr:Datum:Temp:Abs-Feuchte:Windchill:Wind:
Aussen-T/F 3151 30-12-2009 06:28:52 5.8 C 6.81 g/m*3 5.8 C 0 km/h
3152 30-12-2009 06:40:52 5.7 C 6.76 g/m*3 5.7 C 0 km/h
3153 30-12-2009 06:52:52 5.5 C 6.67 g/m*3 5.5 C 0 km/h
3154 30-12-2009 07:04:52 6.4 C 7.08 g/m*3 6.4 C 0 km/h
3155 30-12-2009 07:16:52 5.9 C 6.85 g/m*3 5.9 C 0 km/h
3156 30-12-2009 07:28:52 6 C 6.9 g/m*3 6 C 0 km/h
3157 30-12-2009 07:40:52 6.4 C 7.08 g/m*3 6.4 C 0 km/h
3158 30-12-2009 07:52:53 5.9 C 6.85 g/m*3 5.9 C 0 km/h
3159 30-12-2009 08:04:53 5.6 C 6.72 g/m*3 5.6 C 0 km/h
3160 30-12-2009 08:16:53 5.8 C 6.81 g/m*3 5.8 C 0 km/h
3161 30-12-2009 08:28:02 6.1 C 6.94 g/m*3 6.1 C 0 km/h
3162 30-12-2009 08:40:03 6.5 C 7.12 g/m*3 6.5 C 0 km/h
3163 30-12-2009 08:52:02 6.5 C 7.12 g/m*3 6.5 C 0 km/h
3164 30-12-2009 09:04:02 6.4 C 7.08 g/m*3 6.4 C 0 km/h
3165 30-12-2009 09:16:02 6.9 C 7.31 g/m*3 6.9 C 0 km/h
3166 30-12-2009 09:28:02 7.2 C 7.46 g/m*3 7.2 C 0 km/h
3167 30-12-2009 09:40:03 7.3 C 7.51 g/m*3 7.3 C 0 km/h
3168 30-12-2009 09:52:03 7.3 C 7.51 g/m*3 7.3 C 0 km/h
3169 30-12-2009 10:04:02 7.8 C 7.75 g/m*3 7.8 C 0 km/h
3170 30-12-2009 10:16:03 7.5 C 7.6 g/m*3 7.5 C 0 km/h
3171 30-12-2009 10:28:03 7.3 C 7.51 g/m*3 7.3 C 0 km/h
3172 30-12-2009 10:40:03 7.2 C 7.46 g/m*3 7.2 C 0 km/h
3173 30-12-2009 10:52:02 7.6 C 7.65 g/m*3 7.6 C 0 km/h
3174 30-12-2009 11:04:02 7.8 C 7.75 g/m*3 7.8 C 0 km/h
3175 30-12-2009 11:16:02 7.8 C 7.75 g/m*3 7.8 C 0 km/h
Sensor: Nr:Datum:Temp:Abs-Feuchte:Windchill:Wind:
Aussen-T/F 3176 30-12-2009 11:28:02 7.7 C 7.7 g/m*3 7.7 C 0 km/h
3177 30-12-2009 11:40:02 7.9 C 7.8 g/m*3 7.9 C 0 km/h
3178 30-12-2009 11:52:02 7.8 C 7.75 g/m*3 7.8 C 0 km/h
3179 30-12-2009 12:04:02 7.7 C 7.7 g/m*3 7.7 C 0 km/h
3180 30-12-2009 12:16:02 8 C 7.85 g/m*3 8 C 0 km/h
3181 30-12-2009 12:28:02 7.9 C 7.8 g/m*3 7.9 C 0 km/h
3182 30-12-2009 12:40:02 8.1 C 7.9 g/m*3 8.1 C 0 km/h
3183 30-12-2009 12:52:02 8.6 C 8.16 g/m*3 8.6 C 0 km/h
3184 30-12-2009 13:04:02 8.9 C 8.32 g/m*3 8.9 C 0 km/h
3185 30-12-2009 13:16:02 9.2 C 8.48 g/m*3 9.2 C 0 km/h
3186 30-12-2009 13:28:02 9.2 C 8.48 g/m*3 9.2 C 0 km/h
3187 30-12-2009 13:40:02 9.4 C 8.59 g/m*3 9.4 C 0 km/h
3188 30-12-2009 13:52:02 9.3 C 8.54 g/m*3 9.3 C 0 km/h
3189 30-12-2009 14:04:02 9.4 C 8.59 g/m*3 9.4 C 0 km/h
3190 30-12-2009 14:16:02 9.4 C 8.59 g/m*3 9.4 C 0 km/h
3191 30-12-2009 14:28:02 9.4 C 8.59 g/m*3 9.4 C 0 km/h
3192 30-12-2009 14:40:02 9.4 C 8.59 g/m*3 9.4 C 0 km/h
3193 30-12-2009 14:52:02 9.3 C 8.54 g/m*3 9.3 C 0 km/h
3194 30-12-2009 15:04:02 9.3 C 8.54 g/m*3 9.3 C 0 km/h
3195 30-12-2009 15:16:02 9.3 C 8.54 g/m*3 9.3 C 0 km/h
3196 30-12-2009 15:28:03 9.3 C 8.54 g/m*3 9.3 C 0 km/h
3197 30-12-2009 15:40:01 9.2 C 8.48 g/m*3 9.2 C 0 km/h
3198 30-12-2009 15:52:02 9.3 C 8.54 g/m*3 9.3 C 0 km/h
3199 30-12-2009 16:04:01 9.2 C 8.48 g/m*3 9.2 C 0 km/h
3200 30-12-2009 16:16:02 9.2 C 8.48 g/m*3 9.2 C 0 km/h
Sensor: Nr:Datum:Temp:Abs-Feuchte:Windchill:Wind:
Aussen-T/F 3201 30-12-2009 16:28:02 9.1 C 8.43 g/m*3 9.1 C 0 km/h
3202 30-12-2009 16:40:02 9 C 8.38 g/m*3 9 C 0 km/h
3203 30-12-2009 16:52:02 9 C 8.38 g/m*3 9 C 0 km/h
3204 30-12-2009 17:04:02 8.8 C 8.27 g/m*3 8.8 C 0 km/h
3205 30-12-2009 17:16:02 8.6 C 8.16 g/m*3 8.6 C 0 km/h
3206 30-12-2009 17:28:02 8.6 C 8.16 g/m*3 8.6 C 0 km/h
3207 30-12-2009 17:40:02 8.6 C 8.08 g/m*3 8.6 C 0 km/h
3208 30-12-2009 17:52:02 8.5 C 8.03 g/m*3 8.5 C 0 km/h
3209 30-12-2009 18:04:02 8.6 C 8.08 g/m*3 8.6 C 0 km/h
3210 30-12-2009 18:16:01 8.5 C 8.03 g/m*3 8.5 C 0 km/h
3211 30-12-2009 18:28:01 8.4 C 7.97 g/m*3 8.4 C 0 km/h
3212 30-12-2009 18:40:02 8.4 C 7.97 g/m*3 8.4 C 0 km/h
3213 30-12-2009 18:52:02 8.4 C 7.89 g/m*3 8.4 C 0 km/h
3214 30-12-2009 19:04:02 8.5 C 7.94 g/m*3 8.5 C 0 km/h
3215 30-12-2009 19:16:02 8.6 C 7.91 g/m*3 8.6 C 0 km/h
3216 30-12-2009 19:28:02 8.6 C 7.82 g/m*3 8.6 C 0 km/h
3217 30-12-2009 19:40:02 8.5 C 7.77 g/m*3 8.5 C 0 km/h
3218 30-12-2009 19:52:02 8.5 C 7.77 g/m*3 8.5 C 0 km/h
3219 30-12-2009 20:04:02 8.7 C 7.78 g/m*3 8.7 C 0 km/h
3220 30-12-2009 20:16:02 8.8 C 7.66 g/m*3 8.8 C 0 km/h
3221 30-12-2009 20:28:02 8.9 C 7.62 g/m*3 8.9 C 0 km/h
3222 30-12-2009 20:40:02 8.9 C 7.53 g/m*3 8.9 C 0 km/h
3223 30-12-2009 20:52:01 8.7 C 7.52 g/m*3 8.7 C 0 km/h
3224 30-12-2009 21:04:01 8.5 C 7.51 g/m*3 8.5 C 0 km/h
3225 30-12-2009 21:16:01 8.5 C 7.51 g/m*3 8.5 C 0 km/h
Sensor: Nr:Datum:Temp:Abs-Feuchte:Windchill:Wind:
Aussen-T/F 3226 30-12-2009 21:28:01 8.5 C 7.51 g/m*3 8.5 C 0 km/h
3227 30-12-2009 21:40:01 8.5 C 7.51 g/m*3 8.5 C 0 km/h
3228 30-12-2009 21:52:01 8.6 C 7.56 g/m*3 8.6 C 0 km/h
3229 30-12-2009 22:04:02 8.6 C 7.48 g/m*3 8.6 C 0 km/h
3230 30-12-2009 22:16:01 8.7 C 7.44 g/m*3 8.7 C 0 km/h
3231 30-12-2009 22:28:01 8.8 C 7.4 g/m*3 8.8 C 0 km/h
3232 30-12-2009 22:40:02 8.9 C 7.36 g/m*3 8.9 C 0 km/h
3233 30-12-2009 22:52:02 8.9 C 7.36 g/m*3 8.9 C 0 km/h
3234 30-12-2009 23:04:01 8.8 C 7.31 g/m*3 8.8 C 0 km/h
3235 30-12-2009 23:16:01 8.6 C 7.39 g/m*3 8.6 C 0 km/h
3236 30-12-2009 23:28:01 8.2 C 7.37 g/m*3 8.2 C 0 km/h
3237 30-12-2009 23:40:01 8 C 7.44 g/m*3 8 C 0 km/h
3238 30-12-2009 23:52:01 7.9 C 7.56 g/m*3 7.9 C 0 km/h
3239 31-12-2009 00:04:01 7.9 C 7.56 g/m*3